Provisional Data: Lititz Run near Lititz, PA


Please select a monitoring station.
Please select start date.
Please select start date.

Toggle Unit: C/F Toggle Unit: C/F
Sample Time Temperature (C) Temperature (F) Specific Conductivity (mS/cm) pH   Turbidity (NTU+) DO (mg/L)
6/3/2022 12:00:00 AM 16.03 60.854 0.916 7.87 7.74 7.75
6/3/2022 12:15:00 AM 15.98 60.764 0.917 7.85 7.62 7.71
6/3/2022 12:30:00 AM 15.93 60.674 0.918 7.85 8.05 7.67
6/3/2022 12:45:00 AM 15.88 60.584 0.919 7.84 8.17 7.64
6/3/2022 1:00:00 AM 15.83 60.494 0.92 7.83 7.45 7.63
6/3/2022 1:15:00 AM 15.78 60.404 0.921 7.81 7.74 7.63
6/3/2022 1:30:00 AM 15.74 60.332 0.922 7.82 7.86 7.63
6/3/2022 1:45:00 AM 15.7 60.26 0.922 7.82 7.45 7.65
6/3/2022 2:00:00 AM 15.66 60.188 0.922 7.82 7.96 7.66
6/3/2022 2:15:00 AM 15.61 60.098 0.922 7.81 8.34 7.68
6/3/2022 2:30:00 AM 15.58 60.044 0.922 7.82 8.31 7.69
6/3/2022 2:45:00 AM 15.53 59.954 0.922 7.83 8.09 7.71
6/3/2022 3:00:00 AM 15.49 59.882 0.921 7.82 8.19 7.73
6/3/2022 3:15:00 AM 15.45 59.81 0.919 7.82 7.73 7.75
6/3/2022 3:30:00 AM 15.4 59.72 0.915 7.83 7.78 7.77
6/3/2022 3:45:00 AM 15.36 59.648 0.911 7.82 8.28 7.8
6/3/2022 4:00:00 AM 15.32 59.576 0.906 7.84 7.62 7.84
6/3/2022 4:15:00 AM 15.28 59.504 0.9 7.84 7.92 7.86
6/3/2022 4:30:00 AM 15.24 59.432 0.894 7.84 7.87 7.87
6/3/2022 4:45:00 AM 15.2 59.36 0.888 7.84 8.27 7.89
6/3/2022 5:00:00 AM 15.16 59.288 0.881 7.84 7.94 7.91
6/3/2022 5:15:00 AM 15.12 59.216 0.875 7.84 8 7.92
6/3/2022 5:30:00 AM 15.08 59.144 0.868 7.85 8.47 7.97
6/3/2022 5:45:00 AM 15.04 59.072 0.862 7.84 7.7 7.98
6/3/2022 6:00:00 AM 15.01 59.018 0.856 7.85 7.39 8
6/3/2022 6:15:00 AM 14.98 58.964 0.852 7.86 7.48 8.05
6/3/2022 6:30:00 AM 14.95 58.91 0.848 7.86 7.58 8.08
6/3/2022 6:45:00 AM 14.93 58.874 0.844 7.87 7.14 8.13
6/3/2022 7:00:00 AM 14.91 58.838 0.84 7.86 7.13 8.2
6/3/2022 7:15:00 AM 14.92 58.856 0.835 7.88 6.53 8.25
6/3/2022 7:30:00 AM 14.95 58.91 0.83 7.89 6.81 8.35
6/3/2022 7:45:00 AM 14.96 58.928 0.828 7.89 7.06 8.41
6/3/2022 8:00:00 AM 14.99 58.982 0.826 7.9 6.69 8.5
6/3/2022 8:15:00 AM 15.01 59.018 0.827 7.9 6.8 8.59
6/3/2022 8:30:00 AM 15.04 59.072 0.83 7.92 6.53 8.64
6/3/2022 8:45:00 AM 15.07 59.126 0.832 7.93 6.45 8.75
6/3/2022 9:00:00 AM 15.12 59.216 0.832 7.94 6.58 8.85
6/3/2022 9:15:00 AM 15.16 59.288 0.833 7.94 6.62 8.96
6/3/2022 9:30:00 AM 15.21 59.378 0.833 7.97 6.5 9.05
6/3/2022 9:45:00 AM 15.26 59.468 0.835 7.98 6.95 9.17
6/3/2022 10:00:00 AM 15.32 59.576 0.836 7.98 6.56 9.3
6/3/2022 10:15:00 AM 15.38 59.684 0.836 8.01 6.44 9.39
6/3/2022 10:30:00 AM 15.45 59.81 0.837 8.01 7.08 9.55
6/3/2022 10:45:00 AM 15.54 59.972 0.84 8.04 6.59 9.69
6/3/2022 11:00:00 AM 15.63 60.134 0.846 8.06 6.27 9.85
6/3/2022 11:15:00 AM 15.74 60.332 0.854 8.06 6.65 9.96
6/3/2022 11:30:00 AM 15.88 60.584 0.864 8.09 6.41 10.1
6/3/2022 11:45:00 AM 16 60.8 0.875 8.1 6.29 10.22
6/3/2022 12:00:00 PM 16.17 61.106 0.886 8.13 5.84 10.37
6/3/2022 12:15:00 PM 16.34 61.412 0.898 8.15 6.15 10.52
6/3/2022 12:30:00 PM 16.51 61.718 0.909 8.17 6.25 10.61
6/3/2022 12:45:00 PM 16.71 62.078 0.918 8.19 6.13 10.72
6/3/2022 1:00:00 PM 16.89 62.402 0.923 8.2 6.37 10.77
6/3/2022 1:15:00 PM 17.06 62.708 0.925 8.22 6.33 10.85
6/3/2022 1:30:00 PM 17.22 62.996 0.926 8.23 6.08 10.88
6/3/2022 1:45:00 PM 17.4 63.32 0.926 8.25 6.14 10.95
6/3/2022 2:00:00 PM 17.57 63.626 0.924 8.25 5.92 10.99
6/3/2022 2:15:00 PM 17.73 63.914 0.922 8.27 5.5 10.99
6/3/2022 2:30:00 PM 17.88 64.184 0.92 8.28 5.81 10.96
6/3/2022 2:45:00 PM 18.01 64.418 0.917 8.29 5.81 10.93
6/3/2022 3:00:00 PM 18.11 64.598 0.914 8.29 5.77 10.89
6/3/2022 3:15:00 PM 18.19 64.742 0.913 8.29 5.48 10.83
6/3/2022 3:30:00 PM 18.25 64.85 0.912 8.3 5.52 10.77
6/3/2022 3:45:00 PM 18.31 64.958 0.911 8.3 5.77 10.7
6/3/2022 4:00:00 PM 18.34 65.012 0.911 8.3 5.71 10.61
6/3/2022 4:15:00 PM 18.36 65.048 0.909 8.29 5.63 10.5
6/3/2022 4:30:00 PM 18.37 65.066 0.907 8.29 5.99 10.42
6/3/2022 4:45:00 PM 18.37 65.066 0.905 8.28 5.93 10.32
6/3/2022 5:00:00 PM 18.35 65.03 0.902 8.27 6.47 10.19
6/3/2022 5:15:00 PM 18.33 64.994 0.899 8.26 6.2 10.07
6/3/2022 5:30:00 PM 18.3 64.94 0.897 8.24 5.7 9.99
6/3/2022 5:45:00 PM 18.27 64.886 0.894 8.24 5.75 9.88
6/3/2022 6:00:00 PM 18.23 64.814 0.892 8.22 6.1 9.77
6/3/2022 6:15:00 PM 18.18 64.724 0.892 8.21 6.64 9.66
6/3/2022 6:30:00 PM 18.12 64.616 0.892 8.21 6.55 9.55
6/3/2022 6:45:00 PM 18.04 64.472 0.892 8.19 6.51 9.41
6/3/2022 7:00:00 PM 17.96 64.328 0.891 8.16 6.09 9.28
6/3/2022 7:15:00 PM 17.86 64.148 0.892 8.16 6.01 9.18
6/3/2022 7:30:00 PM 17.78 64.004 0.892 8.14 6.37 9.05
6/3/2022 7:45:00 PM 17.7 63.86 0.893 8.13 6.61 8.95
6/3/2022 8:00:00 PM 17.61 63.698 0.894 8.11 6.7 8.85
6/3/2022 8:15:00 PM 17.51 63.518 0.895 8.08 6.83 8.73
6/3/2022 8:30:00 PM 17.41 63.338 0.896 8.07 5.99 8.6
6/3/2022 8:45:00 PM 17.31 63.158 0.898 8.06 6.06 8.5
6/3/2022 9:00:00 PM 17.2 62.96 0.9 8.05 6.39 8.39
6/3/2022 9:15:00 PM 17.1 62.78 0.902 8.04 7.1 8.31
6/3/2022 9:30:00 PM 16.99 62.582 0.903 8.01 7.14 8.2
6/3/2022 9:45:00 PM 16.89 62.402 0.904 8.01 7.14 8.15
6/3/2022 10:00:00 PM 16.77 62.186 0.905 8 7.36 8.11
6/3/2022 10:15:00 PM 16.67 62.006 0.905 7.99 7.44 8.08
6/3/2022 10:30:00 PM 16.56 61.808 0.904 7.99 6.9 8.04
6/3/2022 10:45:00 PM 16.46 61.628 0.904 7.97 7.3 8.01
6/3/2022 11:00:00 PM 16.35 61.43 0.904 7.97 7.27 7.98
6/3/2022 11:15:00 PM 16.25 61.25 0.903 7.96 7.48 7.95
6/3/2022 11:30:00 PM 16.14 61.052 0.903 7.95 7.94 7.92
6/3/2022 11:45:00 PM 16.04 60.872 0.901 7.95 7.88 7.91
6/4/2022 12:00:00 AM 15.94 60.692 0.9 7.94 8.07 7.89
6/4/2022 12:15:00 AM 15.84 60.512 0.899 7.94 7.25 7.88
6/4/2022 12:30:00 AM 15.75 60.35 0.898 7.93 8.07 7.89
6/4/2022 12:45:00 AM 15.66 60.188 0.897 7.93 7.95 7.88
6/4/2022 1:00:00 AM 15.57 60.026 0.895 7.91 7.78 7.89
6/4/2022 1:15:00 AM 15.48 59.864 0.893 7.91 7.76 7.91
6/4/2022 1:30:00 AM 15.4 59.72 0.893 7.92 8.12 7.92
6/4/2022 1:45:00 AM 15.31 59.558 0.893 7.91 7.54 7.93
6/4/2022 2:00:00 AM 15.24 59.432 0.895 7.9 8.95 7.95
6/4/2022 2:15:00 AM 15.17 59.306 0.897 7.91 7.59 7.94
6/4/2022 2:30:00 AM 15.1 59.18 0.897 7.91 6.96 7.96
6/4/2022 2:45:00 AM 15.04 59.072 0.897 7.91 7.29 7.98
6/4/2022 3:00:00 AM 14.98 58.964 0.897 7.91 7.42 8.01
6/4/2022 3:15:00 AM 14.93 58.874 0.896 7.9 7.61 8.01
6/4/2022 3:30:00 AM 14.88 58.784 0.896 7.9 7.4 8.02
6/4/2022 3:45:00 AM 14.83 58.694 0.896 7.88 8.53 8.04
6/4/2022 4:00:00 AM 14.78 58.604 0.895 7.9 7.97 8.05
6/4/2022 4:15:00 AM 14.73 58.514 0.893 7.9 8.18 8.07
6/4/2022 4:30:00 AM 14.67 58.406 0.89 7.9 7.81 8.08
6/4/2022 4:45:00 AM 14.62 58.316 0.888 7.9 7.81 8.1
6/4/2022 5:00:00 AM 14.57 58.226 0.884 7.9 8.06 8.1
6/4/2022 5:15:00 AM 14.51 58.118 0.881 7.89 7.74 8.14
6/4/2022 5:30:00 AM 14.45 58.01 0.877 7.91 7.71 8.16
6/4/2022 5:45:00 AM 14.4 57.92 0.873 7.9 7.32 8.18
6/4/2022 6:00:00 AM 14.34 57.812 0.868 7.9 7.17 8.22
6/4/2022 6:15:00 AM 14.29 57.722 0.864 7.91 6.6 8.24
6/4/2022 6:30:00 AM 14.24 57.632 0.861 7.92 6.89 8.3
6/4/2022 6:45:00 AM 14.19 57.542 0.857 7.92 6.53 8.35
6/4/2022 7:00:00 AM 14.15 57.47 0.853 7.92 7.03 8.41
6/4/2022 7:15:00 AM 14.12 57.416 0.848 7.93 6.93 8.47
6/4/2022 7:30:00 AM 14.09 57.362 0.845 7.93 6.61 8.53
6/4/2022 7:45:00 AM 14.07 57.326 0.843 7.93 6.62 8.59
6/4/2022 8:00:00 AM 14.08 57.344 0.842 7.94 6.59 8.69
6/4/2022 8:15:00 AM 14.1 57.38 0.842 7.95 6.33 8.78
6/4/2022 8:30:00 AM 14.13 57.434 0.844 7.96 6.14 8.89
6/4/2022 8:45:00 AM 14.18 57.524 0.848 7.97 6.46 9
6/4/2022 9:00:00 AM 14.23 57.614 0.851 7.98 6.39 9.09
6/4/2022 9:15:00 AM 14.29 57.722 0.853 7.99 6.27 9.2
6/4/2022 9:30:00 AM 14.36 57.848 0.853 8 6.3 9.31
6/4/2022 9:45:00 AM 14.43 57.974 0.851 8.01 6.51 9.41
6/4/2022 10:00:00 AM 14.51 58.118 0.849 8.02 6.29 9.53
6/4/2022 10:15:00 AM 14.6 58.28 0.846 8.03 6.9 9.64
6/4/2022 10:30:00 AM 14.7 58.46 0.845 8.05 6.84 9.78
6/4/2022 10:45:00 AM 14.81 58.658 0.844 8.07 6.56 9.92
6/4/2022 11:00:00 AM 14.94 58.892 0.844 8.08 7.07 10.04
6/4/2022 11:15:00 AM 15.1 59.18 0.847 8.1 7.09 10.16
6/4/2022 11:30:00 AM 15.27 59.486 0.851 8.12 6.48 10.29
6/4/2022 11:45:00 AM 15.44 59.792 0.859 8.12 6.58 10.36
6/4/2022 12:00:00 PM 15.68 60.224 0.869 8.15 6.86 10.52
6/4/2022 12:15:00 PM 15.92 60.656 0.881 8.17 6.51 10.63
6/4/2022 12:30:00 PM 16.17 61.106 0.893 8.18 6.61 10.73
6/4/2022 12:45:00 PM 16.42 61.556 0.904 8.2 7.55 10.8
6/4/2022 1:00:00 PM 16.66 61.988 0.915 8.21 6.22 10.87
6/4/2022 1:15:00 PM 16.91 62.438 0.925 8.23 6.45 10.94
6/4/2022 1:30:00 PM 17.15 62.87 0.933 8.25 6.31 10.97
6/4/2022 1:45:00 PM 17.39 63.302 0.941 8.26 6.21 10.97
6/4/2022 2:00:00 PM 17.61 63.698 0.948 8.27 6.2 10.99
6/4/2022 2:15:00 PM 17.81 64.058 0.955 8.27 6.52 10.93
6/4/2022 2:30:00 PM 18 64.4 0.961 8.28 6.45 10.89
6/4/2022 2:45:00 PM 18.17 64.706 0.965 8.27 6.33 10.82
6/4/2022 3:00:00 PM 18.3 64.94 0.968 8.29 6.43 10.76
6/4/2022 3:15:00 PM 18.42 65.156 0.969 8.29 6.58 10.67
6/4/2022 3:30:00 PM 18.52 65.336 0.969 8.28 6.5 10.56
6/4/2022 3:45:00 PM 18.59 65.462 0.968 8.28 6.46 10.46
6/4/2022 4:00:00 PM 18.66 65.588 0.968 8.28 6.23 10.36
6/4/2022 4:15:00 PM 18.71 65.67799 0.968 8.28 6.64 10.26
6/4/2022 4:30:00 PM 18.74 65.732 0.968 8.27 5.91 10.17
6/4/2022 4:45:00 PM 18.76 65.768 0.967 8.26 6.27 10.05
6/4/2022 5:00:00 PM 18.75 65.75 0.966 8.25 6.38 9.93
6/4/2022 5:15:00 PM 18.72 65.696 0.965 8.24 5.72 9.8
6/4/2022 5:30:00 PM 18.69 65.642 0.964 8.23 5.85 9.66
6/4/2022 5:45:00 PM 18.63 65.534 0.962 8.22 6.48 9.52
6/4/2022 6:00:00 PM 18.57 65.426 0.96 8.19 6.29 9.4
6/4/2022 6:15:00 PM 18.49 65.282 0.958 8.19 6.36 9.26
6/4/2022 6:30:00 PM 18.42 65.156 0.959 8.18 6.08 9.14
6/4/2022 6:45:00 PM 18.33 64.994 0.959 8.16 6.34 9.03
6/4/2022 7:00:00 PM 18.24 64.832 0.958 8.15 6.44 8.9
6/4/2022 7:15:00 PM 18.14 64.652 0.957 8.12 5.81 8.79
6/4/2022 7:30:00 PM 18.04 64.472 0.956 8.11 5.81 8.7
6/4/2022 7:45:00 PM 17.93 64.274 0.955 8.1 6.01 8.59
6/4/2022 8:00:00 PM 17.81 64.058 0.955 8.09 5.86 8.47
6/4/2022 8:15:00 PM 17.69 63.842 0.955 8.07 6.1 8.38
6/4/2022 8:30:00 PM 17.56 63.608 0.955 8.06 6.09 8.29
6/4/2022 8:45:00 PM 17.43 63.374 0.954 8.04 6.39 8.22
6/4/2022 9:00:00 PM 17.3 63.14 0.954 8.04 6.87 8.15
6/4/2022 9:15:00 PM 17.17 62.906 0.955 8.03 7.05 8.08
6/4/2022 9:30:00 PM 17.05 62.69 0.956 8.01 7.56 8.03
6/4/2022 9:45:00 PM 16.92 62.456 0.959 8.01 7.44 7.99
6/4/2022 10:00:00 PM 16.79 62.222 0.961 7.99 7.37 7.94
6/4/2022 10:15:00 PM 16.67 62.006 0.964 7.99 7.41 7.91
6/4/2022 10:30:00 PM 16.54 61.772 0.967 7.98 8.22 7.89
6/4/2022 10:45:00 PM 16.42 61.556 0.969 7.98 7.43 7.88
6/4/2022 11:00:00 PM 16.3 61.34 0.97 7.97 7.91 7.87
6/4/2022 11:15:00 PM 16.18 61.124 0.97 7.96 7.94 7.85
6/4/2022 11:30:00 PM 16.06 60.908 0.97 7.96 8.19 7.83
6/4/2022 11:45:00 PM 15.95 60.71 0.969 7.94 7.88 7.82
6/5/2022 12:00:00 AM 15.84 60.512 0.967 7.95 7.74 7.83
6/5/2022 12:15:00 AM 15.72 60.296 0.964 7.94 7.68 7.84
6/5/2022 12:30:00 AM 15.61 60.098 0.961 7.94 7.75 7.84
6/5/2022 12:45:00 AM 15.51 59.918 0.958 7.94 7.77 7.89
6/5/2022 1:00:00 AM 15.4 59.72 0.956 7.92 7.52 7.88
6/5/2022 1:15:00 AM 15.3 59.54 0.954 7.93 7.85 7.9
6/5/2022 1:30:00 AM 15.21 59.378 0.952 7.93 7.25 7.93
6/5/2022 1:45:00 AM 15.12 59.216 0.95 7.92 8.04 7.94
6/5/2022 2:00:00 AM 15.04 59.072 0.949 7.92 7.41 7.95
6/5/2022 2:15:00 AM 14.96 58.928 0.948 7.92 7.59 7.98
6/5/2022 2:30:00 AM 14.88 58.784 0.945 7.91 7.3 7.99
6/5/2022 2:45:00 AM 14.8 58.64 0.942 7.92 7.47 8.03
6/5/2022 3:00:00 AM 14.73 58.514 0.939 7.9 7.27 8.03
6/5/2022 3:15:00 AM 14.66 58.388 0.935 7.91 7.42 8.07
6/5/2022 3:30:00 AM 14.59 58.262 0.93 7.9 7.74 8.08
6/5/2022 3:45:00 AM 14.52 58.136 0.926 7.9 7.9 8.1
6/5/2022 4:00:00 AM 14.45 58.01 0.921 7.91 8.11 8.11
6/5/2022 4:15:00 AM 14.38 57.884 0.916 7.91 7.72 8.16
6/5/2022 4:30:00 AM 14.32 57.776 0.911 7.91 7.95 8.18
6/5/2022 4:45:00 AM 14.26 57.668 0.906 7.91 7.94 8.2
6/5/2022 5:00:00 AM 14.2 57.56 0.9 7.92 7.83 8.23
6/5/2022 5:15:00 AM 14.13 57.434 0.894 7.91 7.84 8.26
6/5/2022 5:30:00 AM 14.07 57.326 0.887 7.92 7.91 8.29
6/5/2022 5:45:00 AM 14 57.2 0.878 7.91 7.21 8.32
6/5/2022 6:00:00 AM 13.93 57.074 0.871 7.92 7.05 8.36
6/5/2022 6:15:00 AM 13.87 56.966 0.865 7.93 7.2 8.4
6/5/2022 6:30:00 AM 13.82 56.876 0.862 7.92 7.49 8.43
6/5/2022 6:45:00 AM 13.77 56.786 0.859 7.93 7.64 8.46
6/5/2022 7:00:00 AM 13.73 56.714 0.856 7.94 6.68 8.55
6/5/2022 7:15:00 AM 13.7 56.66 0.852 7.93 6.36 8.61
6/5/2022 7:30:00 AM 13.67 56.606 0.849 7.94 6.48 8.66
6/5/2022 7:45:00 AM 13.66 56.588 0.848 7.95 6.73 8.72
6/5/2022 8:00:00 AM 13.67 56.606 0.848 7.96 6.26 8.8
6/5/2022 8:15:00 AM 13.7 56.66 0.849 7.97 6.45 8.91
6/5/2022 8:30:00 AM 13.73 56.714 0.851 7.98 6.53 9.02
6/5/2022 8:45:00 AM 13.77 56.786 0.852 7.98 6.24 9.12
6/5/2022 9:00:00 AM 13.82 56.876 0.854 8 6.06 9.22
6/5/2022 9:15:00 AM 13.87 56.966 0.856 8 6.72 9.32
6/5/2022 9:30:00 AM 13.92 57.056 0.858 8.02 6.21 9.41
6/5/2022 9:45:00 AM 13.99 57.182 0.859 8.03 5.9 9.52
6/5/2022 10:00:00 AM 14.06 57.308 0.858 8.04 6.44 9.62
6/5/2022 10:15:00 AM 14.14 57.452 0.856 8.05 6.3 9.74
6/5/2022 10:30:00 AM 14.23 57.614 0.853 8.06 5.76 9.88
6/5/2022 10:45:00 AM 14.34 57.812 0.851 8.08 5.78 10.02
6/5/2022 11:00:00 AM 14.46 58.028 0.849 8.1 5.97 10.15
6/5/2022 11:15:00 AM 14.6 58.28 0.851 8.11 6.12 10.27
6/5/2022 11:30:00 AM 14.77 58.586 0.855 8.13 6.34 10.4
6/5/2022 11:45:00 AM 14.95 58.91 0.862 8.15 6.1 10.5
6/5/2022 12:00:00 PM 15.15 59.27 0.872 8.16 6.29 10.63
6/5/2022 12:15:00 PM 15.36 59.648 0.883 8.17 6.41 10.74
6/5/2022 12:30:00 PM 15.6 60.08 0.894 8.2 6.15 10.86
6/5/2022 12:45:00 PM 15.83 60.494 0.904 8.21 6.26 10.93
6/5/2022 1:00:00 PM 16.07 60.926 0.913 8.23 5.84 11
6/5/2022 1:15:00 PM 16.31 61.358 0.923 8.25 5.61 11.09
6/5/2022 1:30:00 PM 16.53 61.754 0.932 8.26 5.84 11.12
6/5/2022 1:45:00 PM 16.77 62.186 0.941 8.27 6.12 11.14
6/5/2022 2:00:00 PM 16.99 62.582 0.949 8.28 6.11 11.12
6/5/2022 2:15:00 PM 17.19 62.942 0.955 8.28 6.02 11.08
6/5/2022 2:30:00 PM 17.37 63.266 0.959 8.29 5.48 11.03
6/5/2022 2:45:00 PM 17.53 63.554 0.962 8.28 6.28 10.97
6/5/2022 3:00:00 PM 17.66 63.788 0.964 8.29 6.19 10.91
6/5/2022 3:15:00 PM 17.77 63.986 0.965 8.3 5.55 10.83
6/5/2022 3:30:00 PM 17.85 64.13 0.966 8.3 5.97 10.75
6/5/2022 3:45:00 PM 17.93 64.274 0.967 8.29 5.71 10.65
6/5/2022 4:00:00 PM 18 64.4 0.967 8.28 6.05 10.54
6/5/2022 4:15:00 PM 18.06 64.508 0.967 8.29 5.62 10.42
6/5/2022 4:30:00 PM 18.1 64.58 0.966 8.28 5.97 10.34
6/5/2022 4:45:00 PM 18.12 64.616 0.964 8.26 5.94 10.24
6/5/2022 5:00:00 PM 18.12 64.616 0.963 8.26 5.91 10.12
6/5/2022 5:15:00 PM 18.11 64.598 0.962 8.24 6.31 9.99
6/5/2022 5:30:00 PM 18.08 64.544 0.961 8.24 5.82 9.87
6/5/2022 5:45:00 PM 18.04 64.472 0.96 8.23 5.5 9.74
6/5/2022 6:00:00 PM 17.98 64.364 0.958 8.21 6.13 9.62
6/5/2022 6:15:00 PM 17.91 64.238 0.957 8.2 6.04 9.48
6/5/2022 6:30:00 PM 17.84 64.112 0.956 8.18 5.9 9.36
6/5/2022 6:45:00 PM 17.77 63.986 0.955 8.17 5.76 9.21
6/5/2022 7:00:00 PM 17.69 63.842 0.955 8.14 6.03 9.11
6/5/2022 7:15:00 PM 17.6 63.68 0.953 8.14 6.25 9
6/5/2022 7:30:00 PM 17.51 63.518 0.951 8.12 5.83 8.9
6/5/2022 7:45:00 PM 17.41 63.338 0.948 8.11 6.12 8.78
6/5/2022 8:00:00 PM 17.3 63.14 0.946 8.1 5.93 8.67
6/5/2022 8:15:00 PM 17.19 62.942 0.944 8.09 6.1 8.56
6/5/2022 8:30:00 PM 17.07 62.726 0.944 8.06 5.79 8.46
6/5/2022 8:45:00 PM 16.96 62.528 0.945 8.06 6.06 8.38
6/5/2022 9:00:00 PM 16.84 62.312 0.945 8.05 6.79 8.31
6/5/2022 9:15:00 PM 16.72 62.096 0.946 8.04 7.42 8.25
6/5/2022 9:30:00 PM 16.61 61.898 0.945 8.02 8.08 8.2
6/5/2022 9:45:00 PM 16.49 61.682 0.945 8.02 7.85 8.16
6/5/2022 10:00:00 PM 16.37 61.466 0.945 8.01 7.63 8.12
6/5/2022 10:15:00 PM 16.25 61.25 0.945 8 7.61 8.09
6/5/2022 10:30:00 PM 16.14 61.052 0.945 7.99 8.16 8.07
6/5/2022 10:45:00 PM 16.02 60.836 0.945 7.98 8.15 8.03
6/5/2022 11:00:00 PM 15.91 60.638 0.945 7.97 8.12 8.03
6/5/2022 11:15:00 PM 15.8 60.44 0.945 7.96 7.89 8.01
6/5/2022 11:30:00 PM 15.69 60.242 0.945 7.96 7.92 8.01
6/5/2022 11:45:00 PM 15.59 60.062 0.946 7.96 7.88 7.99
6/6/2022 12:00:00 AM 15.49 59.882 0.947 7.95 8.13 8
6/6/2022 12:15:00 AM 15.39 59.702 0.949 7.95 8.69 7.99
6/6/2022 12:30:00 AM 15.3 59.54 0.951 7.94 8.18 8
6/6/2022 12:45:00 AM 15.21 59.378 0.952 7.93 8.31 8.01
6/6/2022 1:00:00 AM 15.13 59.234 0.953 7.93 7.73 8.01
6/6/2022 1:15:00 AM 15.04 59.072 0.954 7.93 7.92 8.03
6/6/2022 1:30:00 AM 14.97 58.946 0.955 7.92 8.2 8.02
6/6/2022 1:45:00 AM 14.9 58.82 0.956 7.92 7.74 8.04
6/6/2022 2:00:00 AM 14.83 58.694 0.956 7.92 7.51 8.03
6/6/2022 2:15:00 AM 14.77 58.586 0.955 7.92 7.88 8.05
6/6/2022 2:30:00 AM 14.71 58.478 0.952 7.91 8.06 8.07
6/6/2022 2:45:00 AM 14.65 58.37 0.948 7.92 8.4 8.09
6/6/2022 3:00:00 AM 14.59 58.262 0.945 7.91 7.69 8.11
6/6/2022 3:15:00 AM 14.53 58.154 0.941 7.92 7.47 8.11
6/6/2022 3:30:00 AM 14.48 58.064 0.937 7.92 7.53 8.11
6/6/2022 3:45:00 AM 14.42 57.956 0.932 7.92 7.51 8.14
6/6/2022 4:00:00 AM 14.36 57.848 0.925 7.92 7.78 8.16
6/6/2022 4:15:00 AM 14.3 57.74 0.919 7.91 7.85 8.19
6/6/2022 4:30:00 AM 14.24 57.632 0.911 7.92 7.84 8.23
6/6/2022 4:45:00 AM 14.19 57.542 0.904 7.92 7.44 8.22
6/6/2022 5:00:00 AM 14.13 57.434 0.896 7.92 8.35 8.26
6/6/2022 5:15:00 AM 14.07 57.326 0.889 7.91 8.04 8.28
6/6/2022 5:30:00 AM 14.02 57.236 0.881 7.92 7.87 8.31
6/6/2022 5:45:00 AM 13.96 57.128 0.872 7.93 8.06 8.34
6/6/2022 6:00:00 AM 13.9 57.02 0.865 7.92 7.48 8.37
6/6/2022 6:15:00 AM 13.85 56.93 0.857 7.93 7.16 8.42
6/6/2022 6:30:00 AM 13.8 56.84 0.851 7.92 7.75 8.46
6/6/2022 6:45:00 AM 13.76 56.768 0.846 7.94 7.88 8.51
6/6/2022 7:00:00 AM 13.73 56.714 0.842 7.93 7.48 8.58
6/6/2022 7:15:00 AM 13.7 56.66 0.84 7.94 7.21 8.62
6/6/2022 7:30:00 AM 13.69 56.642 0.839 7.95 6.78 8.68
6/6/2022 7:45:00 AM 13.68 56.624 0.838 7.95 6.38 8.73
6/6/2022 8:00:00 AM 13.7 56.66 0.838 7.95 5.99 8.81
6/6/2022 8:15:00 AM 13.73 56.714 0.839 7.95 7.2 8.92
6/6/2022 8:30:00 AM 13.77 56.786 0.841 7.97 6.19 9.02
6/6/2022 8:45:00 AM 13.82 56.876 0.843 7.98 6.86 9.13
6/6/2022 9:00:00 AM 13.88 56.984 0.845 7.98 6.77 9.21
6/6/2022 9:15:00 AM 13.94 57.092 0.846 7.99 6.53 9.32
6/6/2022 9:30:00 AM 14.01 57.218 0.846 8 6.7 9.4
6/6/2022 9:45:00 AM 14.09 57.362 0.847 8.01 6.72 9.51
6/6/2022 10:00:00 AM 14.17 57.506 0.847 8.02 7.32 9.59
6/6/2022 10:15:00 AM 14.27 57.686 0.845 8.04 6.39 9.71
6/6/2022 10:30:00 AM 14.38 57.884 0.843 8.05 6.48 9.86
6/6/2022 10:45:00 AM 14.5 58.1 0.843 8.06 6.3 9.99
6/6/2022 11:00:00 AM 14.65 58.37 0.846 8.07 6.43 10.12
6/6/2022 11:15:00 AM 14.82 58.676 0.851 8.09 6.61 10.21
6/6/2022 11:30:00 AM 15.01 59.018 0.86 8.1 6.49 10.32
6/6/2022 11:45:00 AM 15.22 59.396 0.871 8.13 6.54 10.43
6/6/2022 12:00:00 PM 15.46 59.828 0.883 8.14 6.29 10.55
6/6/2022 12:15:00 PM 15.71 60.278 0.896 8.16 6.1 10.66
6/6/2022 12:30:00 PM 15.96 60.728 0.908 8.18 6.47 10.75
6/6/2022 12:45:00 PM 16.22 61.196 0.917 8.19 6.74 10.83
6/6/2022 1:00:00 PM 16.47 61.646 0.922 8.2 6.65 10.88
6/6/2022 1:15:00 PM 16.72 62.096 0.924 8.22 6.49 10.97
6/6/2022 1:30:00 PM 16.95 62.51 0.922 8.24 6.28 11.02
6/6/2022 1:45:00 PM 17.17 62.906 0.919 8.25 6.35 11.06
6/6/2022 2:00:00 PM 17.36 63.248 0.915 8.26 6.61 11.06
6/6/2022 2:15:00 PM 17.55 63.59 0.912 8.27 6.47 11.05
6/6/2022 2:30:00 PM 17.73 63.914 0.912 8.28 5.91 11.01
6/6/2022 2:45:00 PM 17.9 64.22 0.914 8.29 6.16 10.96
6/6/2022 3:00:00 PM 18.04 64.472 0.918 8.29 6.3 10.88
6/6/2022 3:15:00 PM 18.18 64.724 0.92 8.28 5.87 10.8
6/6/2022 3:30:00 PM 18.29 64.922 0.922 8.29 6.46 10.69
6/6/2022 3:45:00 PM 18.37 65.066 0.921 8.29 6.55 10.61
6/6/2022 4:00:00 PM 18.44 65.192 0.92 8.29 6.11 10.5
6/6/2022 4:15:00 PM 18.49 65.282 0.92 8.28 6.04 10.39
6/6/2022 4:30:00 PM 18.52 65.336 0.919 8.28 5.81 10.3
6/6/2022 4:45:00 PM 18.54 65.372 0.918 8.27 5.97 10.21
6/6/2022 5:00:00 PM 18.53 65.354 0.916 8.27 5.67 10.09
6/6/2022 5:15:00 PM 18.5 65.3 0.912 8.25 5.71 9.96
6/6/2022 5:30:00 PM 18.47 65.246 0.91 8.25 5.77 9.84
6/6/2022 5:45:00 PM 18.41 65.138 0.908 8.23 6.03 9.72
6/6/2022 6:00:00 PM 18.35 65.03 0.909 8.22 5.71 9.6
6/6/2022 6:15:00 PM 18.29 64.922 0.909 8.21 5.57 9.46
6/6/2022 6:30:00 PM 18.21 64.778 0.909 8.19 5.57 9.33
6/6/2022 6:45:00 PM 18.13 64.634 0.91 8.18 5.7 9.22
6/6/2022 7:00:00 PM 18.05 64.49 0.91 8.16 5.63 9.1
6/6/2022 7:15:00 PM 17.96 64.328 0.911 8.15 5.78 8.99
6/6/2022 7:30:00 PM 17.88 64.184 0.912 8.12 5.55 8.89
6/6/2022 7:45:00 PM 17.8 64.04 0.912 8.12 5.4 8.77
6/6/2022 8:00:00 PM 17.71 63.878 0.911 8.1 5.74 8.67
6/6/2022 8:15:00 PM 17.61 63.698 0.91 8.09 5.8 8.57
6/6/2022 8:30:00 PM 17.5 63.5 0.909 8.07 5.77 8.47
6/6/2022 8:45:00 PM 17.39 63.302 0.908 8.06 6.23 8.37
6/6/2022 9:00:00 PM 17.26 63.068 0.907 8.05 6.29 8.28
6/6/2022 9:15:00 PM 17.13 62.834 0.907 8.03 6.52 8.2
6/6/2022 9:30:00 PM 17.01 62.618 0.909 8.02 7 8.15
6/6/2022 9:45:00 PM 16.89 62.402 0.911 8.01 6.79 8.1
6/6/2022 10:00:00 PM 16.78 62.204 0.913 8 7 8.05
6/6/2022 10:15:00 PM 16.66 61.988 0.915 8 7.35 8.04
6/6/2022 10:30:00 PM 16.55 61.79 0.918 7.99 7.49 8.01
6/6/2022 10:45:00 PM 16.44 61.592 0.921 7.98 7.11 7.98
6/6/2022 11:00:00 PM 16.33 61.394 0.923 7.97 7.36 7.97
6/6/2022 11:15:00 PM 16.22 61.196 0.926 7.97 7.6 7.94
6/6/2022 11:30:00 PM 16.11 60.998 0.929 7.96 7.62 7.93
6/6/2022 11:45:00 PM 16 60.8 0.931 7.95 7.83 7.91
6/7/2022 12:00:00 AM 15.9 60.62 0.935 7.94 7.4 7.92
6/7/2022 12:15:00 AM 15.81 60.458 0.938 7.94 7.45 7.89
6/7/2022 12:30:00 AM 15.72 60.296 0.943 7.94 7.5 7.9
6/7/2022 12:45:00 AM 15.63 60.134 0.946 7.93 7.52 7.9
6/7/2022 1:00:00 AM 15.55 59.99 0.948 7.93 7.81 7.89
6/7/2022 1:15:00 AM 15.46 59.828 0.95 7.92 7.6 7.9
6/7/2022 1:30:00 AM 15.39 59.702 0.951 7.92 7.76 7.9
6/7/2022 1:45:00 AM 15.31 59.558 0.952 7.9 7.63 7.91
6/7/2022 2:00:00 AM 15.24 59.432 0.954 7.92 7.66 7.93
6/7/2022 2:15:00 AM 15.17 59.306 0.956 7.91 8.13 7.93
6/7/2022 2:30:00 AM 15.11 59.198 0.958 7.9 8.22 7.94
6/7/2022 2:45:00 AM 15.05 59.09 0.958 7.91 7.53 7.97
6/7/2022 3:00:00 AM 14.99 58.982 0.957 7.91 7.19 7.97
6/7/2022 3:15:00 AM 14.94 58.892 0.956 7.9 7.57 8
6/7/2022 3:30:00 AM 14.88 58.784 0.953 7.91 7.76 8.02
6/7/2022 3:45:00 AM 14.83 58.694 0.951 7.9 8.29 8.02
6/7/2022 4:00:00 AM 14.77 58.586 0.947 7.91 8.18 8.04
6/7/2022 4:15:00 AM 14.72 58.496 0.942 7.91 8.08 8.05
6/7/2022 4:30:00 AM 14.67 58.406 0.937 7.92 7.86 8.07
6/7/2022 4:45:00 AM 14.63 58.334 0.932 7.92 8 8.11
6/7/2022 5:00:00 AM 14.58 58.244 0.928 7.92 7.81 8.13
6/7/2022 5:15:00 AM 14.54 58.172 0.923 7.92 7.85 8.15
6/7/2022 5:30:00 AM 14.5 58.1 0.918 7.92 7.54 8.15
6/7/2022 5:45:00 AM 14.45 58.01 0.911 7.92 7.64 8.19
6/7/2022 6:00:00 AM 14.41 57.938 0.905 7.92 7.27 8.24
6/7/2022 6:15:00 AM 14.38 57.884 0.898 7.93 6.89 8.27
6/7/2022 6:30:00 AM 14.35 57.83 0.891 7.93 7.32 8.34
6/7/2022 6:45:00 AM 14.33 57.794 0.884 7.94 7.59 8.4
6/7/2022 7:00:00 AM 14.3 57.74 0.878 7.94 7.01 8.48
6/7/2022 7:15:00 AM 14.29 57.722 0.872 7.95 6.79 8.57
6/7/2022 7:30:00 AM 14.27 57.686 0.868 7.96 6.28 8.65
6/7/2022 7:45:00 AM 14.28 57.704 0.866 7.96 6.33 8.75
6/7/2022 8:00:00 AM 14.3 57.74 0.867 7.96 6.63 8.85
6/7/2022 8:15:00 AM 14.34 57.812 0.87 7.97 6.06 8.97
6/7/2022 8:30:00 AM 14.38 57.884 0.874 7.99 6.26 9.11
6/7/2022 8:45:00 AM 14.43 57.974 0.877 8 6.33 9.17
6/7/2022 9:00:00 AM 14.49 58.082 0.88 8.01 6.17 9.28
6/7/2022 9:15:00 AM 14.54 58.172 0.882 8.02 6.14 9.35
6/7/2022 9:30:00 AM 14.6 58.28 0.883 8.03 6.16 9.45
6/7/2022 9:45:00 AM 14.68 58.424 0.884 8.04 6.46 9.56
6/7/2022 10:00:00 AM 14.77 58.586 0.884 8.05 6.51 9.73
6/7/2022 10:15:00 AM 14.86 58.748 0.884 8.06 6.15 9.77
6/7/2022 10:30:00 AM 14.94 58.892 0.886 8.07 6.33 9.85
6/7/2022 10:45:00 AM 15.02 59.036 0.89 8.09 6.49 9.97
6/7/2022 11:00:00 AM 15.11 59.198 0.896 8.09 6.15 10.02
6/7/2022 11:15:00 AM 15.25 59.45 0.905 8.1 6.25 10.16
6/7/2022 11:30:00 AM 15.42 59.756 0.916 8.13 6.41 10.34
6/7/2022 11:45:00 AM 15.6 60.08 0.928 8.15 5.97 10.47
6/7/2022 12:00:00 PM 15.73 60.314 0.941 8.16 6.25 10.43
6/7/2022 12:15:00 PM 15.89 60.602 0.955 8.16 7.07 10.46
6/7/2022 12:30:00 PM 16.01 60.818 0.969 8.17 6.58 10.46
6/7/2022 12:45:00 PM 16.14 61.052 0.981 8.18 6.31 10.51
6/7/2022 1:00:00 PM 16.25 61.25 0.99 8.17 6.01 10.42
6/7/2022 1:15:00 PM 16.4 61.52 0.998 8.19 6.19 10.53
6/7/2022 1:30:00 PM 16.53 61.754 1.003 8.19 6.11 10.54
6/7/2022 1:45:00 PM 16.61 61.898 1.006 8.2 5.63 10.4
6/7/2022 2:00:00 PM 16.68 62.024 1.007 8.19 6.11 10.29
6/7/2022 2:15:00 PM 16.71 62.078 1.005 8.18 5.91 10.14
6/7/2022 2:30:00 PM 16.73 62.114 1.001 8.17 5.91 9.95
6/7/2022 2:45:00 PM 16.74 62.132 0.998 8.17 5.96 9.81
6/7/2022 3:00:00 PM 16.76 62.168 0.996 8.16 5.86 9.69
6/7/2022 3:15:00 PM 16.77 62.186 0.996 8.15 5.6 9.58
6/7/2022 3:30:00 PM 16.8 62.24 0.998 8.13 5.92 9.47
6/7/2022 3:45:00 PM 16.81 62.258 1 8.13 5.98 9.34
6/7/2022 4:00:00 PM 16.82 62.276 1.002 8.13 5.86 9.26
6/7/2022 4:15:00 PM 16.82 62.276 1.003 8.12 5.71 9.17
6/7/2022 4:30:00 PM 16.84 62.312 1.004 8.11 5.91 9.16
6/7/2022 4:45:00 PM 16.85 62.33 1.005 8.1 5.71 9.06
6/7/2022 5:00:00 PM 16.86 62.348 1.006 8.1 5.57 9.01
6/7/2022 5:15:00 PM 16.86 62.348 1.007 8.09 5.88 8.93
6/7/2022 5:30:00 PM 16.85 62.33 1.007 8.08 5.75 8.82
6/7/2022 5:45:00 PM 16.83 62.294 1.006 8.07 6.04 8.72
6/7/2022 6:00:00 PM 16.8 62.24 1.005 8.06 6.04 8.62
6/7/2022 6:15:00 PM 16.76 62.168 1.004 8.05 6.07 8.53
6/7/2022 6:30:00 PM 16.73 62.114 1.005 8.04 5.96 8.45
6/7/2022 6:45:00 PM 16.69 62.042 1.005 8.03 6.34 8.36
6/7/2022 7:00:00 PM 16.66 61.988 1.004 8.02 6.63 8.27
6/7/2022 7:15:00 PM 16.62 61.916 1.005 8.01 6.77 8.19
6/7/2022 7:30:00 PM 16.59 61.862 1.006 8 6.73 8.12
6/7/2022 7:45:00 PM 16.55 61.79 1.01 7.99 6.28 8.08
6/7/2022 8:00:00 PM 16.51 61.718 1.016 7.99 6.76 8.04
6/7/2022 8:15:00 PM 16.48 61.664 1.024 7.97 6.56 7.99
6/7/2022 8:30:00 PM 16.44 61.592 1.035 7.97 6.63 7.95
6/7/2022 8:45:00 PM 16.41 61.538 1.045 7.96 6.6 7.91
6/7/2022 9:00:00 PM 16.38 61.484 1.053 7.95 7.47 7.86
6/7/2022 9:15:00 PM 16.35 61.43 1.057 7.94 7.27 7.82
6/7/2022 9:30:00 PM 16.32 61.376 1.058 7.94 7.53 7.79
6/7/2022 9:45:00 PM 16.27 61.286 1.057 7.93 8.86 7.77
6/7/2022 10:00:00 PM 16.23 61.214 1.054 7.92 8.27 7.76
6/7/2022 10:15:00 PM 16.17 61.106 1.052 7.91 8.65 7.75
6/7/2022 10:30:00 PM 16.13 61.034 1.051 7.92 8.26 7.76
6/7/2022 10:45:00 PM 16.08 60.944 1.051 7.91 7.8 7.75
6/7/2022 11:00:00 PM 16.04 60.872 1.053 7.91 7.82 7.76
6/7/2022 11:15:00 PM 16.01 60.818 1.055 7.91 7.76 7.74
6/7/2022 11:30:00 PM 15.98 60.764 1.055 7.89 7.92 7.73
6/7/2022 11:45:00 PM 15.95 60.71 1.053 7.9 8.21 7.72
6/8/2022 12:00:00 AM 15.92 60.656 1.05 7.89 7.67 7.7
6/8/2022 12:15:00 AM 15.89 60.602 1.045 7.88 7.35 7.68
6/8/2022 12:30:00 AM 15.86 60.548 1.043 7.87 7.51 7.65
6/8/2022 12:45:00 AM 15.84 60.512 1.04 7.85 7.53 7.59
6/8/2022 1:00:00 AM 15.83 60.494 1.038 7.85 8.16 7.53
6/8/2022 1:15:00 AM 15.82 60.476 1.035 7.83 8.57 7.44
6/8/2022 1:30:00 AM 15.82 60.476 1.03 7.82 7.69 7.34
6/8/2022 1:45:00 AM 15.83 60.494 1.025 7.8 7.55 7.27
6/8/2022 2:00:00 AM 15.84 60.512 1.02 7.79 7.66 7.18
6/8/2022 2:15:00 AM 15.85 60.53 1.017 7.77 7.97 7.15
6/8/2022 2:30:00 AM 15.85 60.53 1.015 7.76 7.51 7.14
6/8/2022 2:45:00 AM 15.85 60.53 1.014 7.75 7.79 7.15
6/8/2022 3:00:00 AM 15.83 60.494 1.011 7.76 8.21 7.17
6/8/2022 3:15:00 AM 15.81 60.458 1.007 7.76 8.15 7.21
6/8/2022 3:30:00 AM 15.77 60.386 1.004 7.77 7.87 7.27
6/8/2022 3:45:00 AM 15.74 60.332 1.001 7.77 7.67 7.32
6/8/2022 4:00:00 AM 15.7 60.26 0.997 7.77 7.57 7.38
6/8/2022 4:15:00 AM 15.65 60.17 0.993 7.79 8.07 7.46
6/8/2022 4:30:00 AM 15.61 60.098 0.986 7.8 7.94 7.51
6/8/2022 4:45:00 AM 15.57 60.026 0.98 7.79 7.34 7.56
6/8/2022 5:00:00 AM 15.52 59.936 0.972 7.81 7.86 7.62
6/8/2022 5:15:00 AM 15.47 59.846 0.965 7.81 7.46 7.67
6/8/2022 5:30:00 AM 15.42 59.756 0.958 7.82 7.66 7.7
6/8/2022 5:45:00 AM 15.38 59.684 0.95 7.81 7.92 7.77
6/8/2022 6:00:00 AM 15.33 59.594 0.941 7.83 7.92 7.81
6/8/2022 6:15:00 AM 15.28 59.504 0.932 7.83 7.31 7.86
6/8/2022 6:30:00 AM 15.24 59.432 0.922 7.83 7.1 7.9
6/8/2022 6:45:00 AM 15.2 59.36 0.913 7.84 7.01 7.98
6/8/2022 7:00:00 AM 15.17 59.306 0.905 7.85 7.04 8.06
6/8/2022 7:15:00 AM 15.15 59.27 0.899 7.86 6.87 8.13
6/8/2022 7:30:00 AM 15.13 59.234 0.894 7.87 7.01 8.21
6/8/2022 7:45:00 AM 15.12 59.216 0.892 7.88 6.65 8.29
6/8/2022 8:00:00 AM 15.12 59.216 0.89 7.89 6.34 8.4
6/8/2022 8:15:00 AM 15.14 59.252 0.891 7.9 6.13 8.5
6/8/2022 8:30:00 AM 15.18 59.324 0.893 7.9 6.41 8.64
6/8/2022 8:45:00 AM 15.21 59.378 0.895 7.92 6.1 8.75
6/8/2022 9:00:00 AM 15.25 59.45 0.896 7.92 6.47 8.86
6/8/2022 9:15:00 AM 15.27 59.486 0.896 7.94 6.02 8.93
6/8/2022 9:30:00 AM 15.32 59.576 0.897 7.95 6.2 9.07
6/8/2022 9:45:00 AM 15.36 59.648 0.897 7.97 6.24 9.18
6/8/2022 10:00:00 AM 15.43 59.774 0.897 7.98 6.41 9.34
6/8/2022 10:15:00 AM 15.5 59.9 0.898 7.99 7.13 9.46
6/8/2022 10:30:00 AM 15.59 60.062 0.901 8.01 7.56 9.59
6/8/2022 10:45:00 AM 15.7 60.26 0.904 8.04 6.77 9.78
6/8/2022 11:00:00 AM 15.79 60.422 0.908 8.06 6.77 9.94
6/8/2022 11:15:00 AM 15.92 60.656 0.914 8.08 6.69 10.1
6/8/2022 11:30:00 AM 16.06 60.908 0.922 8.1 6.45 10.22
6/8/2022 11:45:00 AM 16.22 61.196 0.933 8.12 6.32 10.33
6/8/2022 12:00:00 PM 16.4 61.52 0.945 8.12 6.35 10.42
6/8/2022 12:15:00 PM 16.62 61.916 0.959 8.15 6.27 10.51
6/8/2022 12:30:00 PM 16.85 62.33 0.972 8.17 6.25 10.59
6/8/2022 12:45:00 PM 17.09 62.762 0.983 8.18 6.23 10.69
6/8/2022 1:00:00 PM 17.32 63.176 0.991 8.21 6.4 10.77
6/8/2022 1:15:00 PM 17.55 63.59 0.996 8.22 6.48 10.83
6/8/2022 1:30:00 PM 17.76 63.968 0.999 8.25 5.83 10.86
6/8/2022 1:45:00 PM 17.97 64.346 1.002 8.26 6.08 10.91
6/8/2022 2:00:00 PM 18.15 64.67 1.004 8.27 6.45 10.91
6/8/2022 2:15:00 PM 18.33 64.994 1.007 8.28 6.52 10.88
6/8/2022 2:30:00 PM 18.5 65.3 1.01 8.29 6.09 10.83
6/8/2022 2:45:00 PM 18.65 65.57 1.011 8.29 6.05 10.78
6/8/2022 3:00:00 PM 18.78 65.804 1.01 8.29 6.04 10.69
6/8/2022 3:15:00 PM 18.9 66.02 1.01 8.3 5.95 10.62
6/8/2022 3:30:00 PM 19 66.2 1.011 8.29 5.89 10.52
6/8/2022 3:45:00 PM 19.09 66.362 1.013 8.29 6.05 10.41
6/8/2022 4:00:00 PM 19.16 66.488 1.017 8.29 5.51 10.3
6/8/2022 4:15:00 PM 19.22 66.596 1.024 8.28 5.62 10.21
6/8/2022 4:30:00 PM 19.28 66.704 1.033 8.28 5.48 10.11
6/8/2022 4:45:00 PM 19.32 66.776 1.041 8.27 5.39 9.97
6/8/2022 5:00:00 PM 19.35 66.83 1.047 8.26 5.68 9.85
6/8/2022 5:15:00 PM 19.34 66.812 1.051 8.25 5.73 9.72
6/8/2022 5:30:00 PM 19.32 66.776 1.052 8.24 5.82 9.6
6/8/2022 5:45:00 PM 19.29 66.722 1.052 8.23 5.63 9.49
6/8/2022 6:00:00 PM 19.24 66.632 1.05 8.22 5.73 9.36
6/8/2022 6:15:00 PM 19.18 66.524 1.046 8.2 5.51 9.22
6/8/2022 6:30:00 PM 19.1 66.38 1.04 8.18 5.27 9.08
6/8/2022 6:45:00 PM 19.01 66.218 1.033 8.18 5.36 8.97
6/8/2022 7:00:00 PM 18.91 66.038 1.025 8.16 5.47 8.82
6/8/2022 7:15:00 PM 18.81 65.858 1.018 8.14 5.35 8.72
6/8/2022 7:30:00 PM 18.71 65.67799 1.013 8.13 5.66 8.6
6/8/2022 7:45:00 PM 18.6 65.48 1.009 8.11 5.63 8.45
6/8/2022 8:00:00 PM 18.5 65.3 1.006 8.1 5.63 8.34
6/8/2022 8:15:00 PM 18.41 65.138 1.005 8.08 5.64 8.25
6/8/2022 8:30:00 PM 18.31 64.958 1.003 8.06 5.75 8.15
6/8/2022 8:45:00 PM 18.21 64.778 1.001 8.06 5.95 8.05
6/8/2022 9:00:00 PM 18.11 64.598 0.998 8.04 6.23 7.98
6/8/2022 9:15:00 PM 18.01 64.418 0.995 8.02 7.72 7.91
6/8/2022 9:30:00 PM 17.91 64.238 0.993 8.02 7.51 7.85
6/8/2022 9:45:00 PM 17.8 64.04 0.993 8 7.3 7.8
6/8/2022 10:00:00 PM 17.7 63.86 0.995 8 7.5 7.74
6/8/2022 10:15:00 PM 17.59 63.662 0.997 7.99 7.07 7.72
6/8/2022 10:30:00 PM 17.49 63.482 1.001 7.97 7.85 7.68
6/8/2022 10:45:00 PM 17.4 63.32 1.004 7.97 7.42 7.62
6/8/2022 11:00:00 PM 17.31 63.158 1.008 7.96 7.25 7.6
6/8/2022 11:15:00 PM 17.22 62.996 1.011 7.95 7.86 7.59
6/8/2022 11:30:00 PM 17.14 62.852 1.014 7.95 7.98 7.57
6/8/2022 11:45:00 PM 17.06 62.708 1.017 7.94 7.66 7.55
6/9/2022 12:00:00 AM 16.99 62.582 1.02 7.93 7.7 7.52
6/9/2022 12:15:00 AM 16.92 62.456 1.022 7.93 7.32 7.47
6/9/2022 12:30:00 AM 16.86 62.348 1.024 7.92 7.47 7.49
6/9/2022 12:45:00 AM 16.79 62.222 1.025 7.9 7.64 7.46
6/9/2022 1:00:00 AM 16.76 62.168 1.02 7.91 8.11 7.45
6/9/2022 1:15:00 AM 16.72 62.096 1.016 7.91 9.62 7.44
6/9/2022 1:30:00 AM 16.67 62.006 1.015 7.91 9.06 7.45
6/9/2022 1:45:00 AM 16.6 61.88 1.015 7.91 8.79 7.46
6/9/2022 2:00:00 AM 16.54 61.772 1.012 7.9 8.67 7.47
6/9/2022 2:15:00 AM 16.49 61.682 1.008 7.89 8.13 7.47
6/9/2022 2:30:00 AM 16.44 61.592 1.004 7.9 8.59 7.47
6/9/2022 2:45:00 AM 16.41 61.538 0.999 7.9 8.25 7.47
6/9/2022 3:00:00 AM 16.36 61.448 0.995 7.89 9.23 7.49
6/9/2022 3:15:00 AM 16.31 61.358 0.993 7.89 12.11 7.53
6/9/2022 3:30:00 AM 16.25 61.25 0.99 7.88 14.77 7.58
6/9/2022 3:45:00 AM 16.19 61.142 0.983 7.88 13.12 7.59
6/9/2022 4:00:00 AM 16.12 61.016 0.97 7.88 12.51 7.63
6/9/2022 4:15:00 AM 16.04 60.872 0.952 7.87 12.07 7.67
6/9/2022 4:30:00 AM 15.98 60.764 0.932 7.87 11.33 7.69
6/9/2022 4:45:00 AM 15.94 60.692 0.909 7.86 10.48 7.69
6/9/2022 5:00:00 AM 15.92 60.656 0.884 7.87 10.47 7.69
6/9/2022 5:15:00 AM 15.91 60.638 0.859 7.87 9.91 7.68
6/9/2022 5:30:00 AM 15.9 60.62 0.836 7.86 9.15 7.65
6/9/2022 5:45:00 AM 15.93 60.674 0.815 7.86 9.25 7.61
6/9/2022 6:00:00 AM 15.98 60.764 0.796 7.85 8.9 7.53
6/9/2022 6:15:00 AM 16.08 60.944 0.779 7.84 8.83 7.44
6/9/2022 6:30:00 AM 16.21 61.178 0.762 7.82 8.38 7.31
6/9/2022 6:45:00 AM 16.37 61.466 0.745 7.81 8.86 7.18
6/9/2022 7:00:00 AM 16.54 61.772 0.73 7.79 8.64 7.04
6/9/2022 7:15:00 AM 16.71 62.078 0.718 7.78 8.22 6.93
6/9/2022 7:30:00 AM 16.85 62.33 0.713 7.76 8.68 6.85
6/9/2022 7:45:00 AM 16.97 62.546 0.715 7.74 8.35 6.81
6/9/2022 8:00:00 AM 17.07 62.726 0.723 7.75 7.61 6.83
6/9/2022 8:15:00 AM 17.13 62.834 0.733 7.74 8.19 6.91
6/9/2022 8:30:00 AM 17.17 62.906 0.745 7.76 8.3 7.03
6/9/2022 8:45:00 AM 17.19 62.942 0.758 7.76 7.87 7.18
6/9/2022 9:00:00 AM 17.19 62.942 0.773 7.79 7.67 7.36
6/9/2022 9:15:00 AM 17.18 62.924 0.788 7.81 7.53 7.56
6/9/2022 9:30:00 AM 17.16 62.888 0.803 7.83 7.07 7.79
6/9/2022 9:45:00 AM 17.12 62.816 0.816 7.84 7.11 7.97
6/9/2022 10:00:00 AM 17.07 62.726 0.825 7.86 6.77 8.18
6/9/2022 10:15:00 AM 17.01 62.618 0.833 7.89 7.18 8.3
6/9/2022 10:30:00 AM 17.01 62.618 0.84 7.9 6.61 8.56
6/9/2022 10:45:00 AM 17.01 62.618 0.848 7.94 6.41 8.74
6/9/2022 11:00:00 AM 17.02 62.636 0.857 7.95 6.7 8.92
6/9/2022 11:15:00 AM 17.11 62.798 0.867 7.99 6.24 9.19
6/9/2022 11:30:00 AM 17.22 62.996 0.879 8.01 6.77 9.39
6/9/2022 11:45:00 AM 17.32 63.176 0.891 8.04 6.41 9.53
6/9/2022 12:00:00 PM 17.46 63.428 0.903 8.06 6.92 9.71
6/9/2022 12:15:00 PM 17.62 63.716 0.916 8.08 6.74 9.87
6/9/2022 12:30:00 PM 17.75 63.95 0.928 8.1 6.18 9.94
6/9/2022 12:45:00 PM 17.89 64.202 0.94 8.12 6.04 9.96
6/9/2022 1:00:00 PM 18.07 64.526 0.949 8.14 6.84 10.09
6/9/2022 1:15:00 PM 18.17 64.706 0.956 8.14 6.01 10.06
6/9/2022 1:30:00 PM 18.29 64.922 0.96 8.17 6.03 10.07
6/9/2022 1:45:00 PM 18.4 65.12 0.962 8.18 6.02 10.05
6/9/2022 2:00:00 PM 18.51 65.318 0.962 8.17 5.96 10.07
6/9/2022 2:15:00 PM 18.63 65.534 0.962 8.19 5.98 10.05
6/9/2022 2:30:00 PM 18.8 65.84 0.963 8.21 6.1 10.16
6/9/2022 2:45:00 PM 18.95 66.11 0.964 8.23 6.06 10.22
6/9/2022 3:00:00 PM 19.08 66.344 0.967 8.23 6.22 10.24
6/9/2022 3:15:00 PM 19.14 66.452 0.968 8.23 6 10.06
6/9/2022 3:30:00 PM 19.17 66.506 0.966 8.24 5.99 10.01
6/9/2022 3:45:00 PM 19.16 66.488 0.965 8.23 5.94 9.87
6/9/2022 4:00:00 PM 19.16 66.488 0.971 8.22 6 9.78
6/9/2022 4:15:00 PM 19.18 66.524 0.981 8.22 6.31 9.66
6/9/2022 4:30:00 PM 19.23 66.614 0.993 8.22 5.89 9.66
6/9/2022 4:45:00 PM 19.28 66.704 1.004 8.21 5.91 9.63
6/9/2022 5:00:00 PM 19.33 66.794 1.011 8.22 5.77 9.58
6/9/2022 5:15:00 PM 19.35 66.83 1.015 8.21 5.86 9.5
6/9/2022 5:30:00 PM 19.33 66.794 1.017 8.2 5.94 9.39
6/9/2022 5:45:00 PM 19.27 66.686 1.017 8.19 5.99 9.27
6/9/2022 6:00:00 PM 19.22 66.596 1.016 8.18 6.42 9.14
6/9/2022 6:15:00 PM 19.14 66.452 1.013 8.18 5.73 9.03
6/9/2022 6:30:00 PM 19.05 66.29 1.008 8.16 6.2 8.91
6/9/2022 6:45:00 PM 18.94 66.092 1.001 8.15 5.86 8.75
6/9/2022 7:00:00 PM 18.82 65.876 0.993 8.13 5.47 8.68
6/9/2022 7:15:00 PM 18.7 65.66 0.985 8.12 5.7 8.58
6/9/2022 7:30:00 PM 18.58 65.444 0.979 8.11 5.91 8.46
6/9/2022 7:45:00 PM 18.48 65.264 0.974 8.09 5.63 8.34
6/9/2022 8:00:00 PM 18.37 65.066 0.969 8.09 5.98 8.25
6/9/2022 8:15:00 PM 18.26 64.868 0.964 8.08 5.85 8.17
6/9/2022 8:30:00 PM 18.16 64.688 0.96 8.06 5.79 8.08
6/9/2022 8:45:00 PM 18.04 64.472 0.957 8.04 6.54 8.01
6/9/2022 9:00:00 PM 17.93 64.274 0.954 8.04 6.53 7.95
6/9/2022 9:15:00 PM 17.82 64.076 0.953 8.03 6.62 7.89
6/9/2022 9:30:00 PM 17.7 63.86 0.953 8.02 7.66 7.85
6/9/2022 9:45:00 PM 17.58 63.644 0.952 8.01 6.99 7.81
6/9/2022 10:00:00 PM 17.46 63.428 0.953 8.01 7.27 7.78
6/9/2022 10:15:00 PM 17.34 63.212 0.954 7.99 7.85 7.75
6/9/2022 10:30:00 PM 17.22 62.996 0.956 7.99 7.66 7.73
6/9/2022 10:45:00 PM 17.1 62.78 0.958 7.99 7.26 7.69
6/9/2022 11:00:00 PM 16.99 62.582 0.962 7.98 8.01 7.68
6/9/2022 11:15:00 PM 16.87 62.366 0.965 7.97 7.54 7.67
6/9/2022 11:30:00 PM 16.77 62.186 0.967 7.97 7.67 7.64
6/9/2022 11:45:00 PM 16.66 61.988 0.969 7.96 8.2 7.64
6/10/2022 12:00:00 AM 16.55 61.79 0.97 7.96 7.84 7.63
6/10/2022 12:15:00 AM 16.45 61.61 0.971 7.95 7.83 7.63
6/10/2022 12:30:00 AM 16.35 61.43 0.972 7.95 9.06 7.63
6/10/2022 12:45:00 AM 16.25 61.25 0.972 7.93 7.76 7.63
6/10/2022 1:00:00 AM 16.15 61.07 0.971 7.93 7.94 7.64
6/10/2022 1:15:00 AM 16.05 60.89 0.97 7.94 7.73 7.65
6/10/2022 1:30:00 AM 15.95 60.71 0.968 7.93 8.24 7.68
6/10/2022 1:45:00 AM 15.86 60.548 0.966 7.93 8.19 7.69
6/10/2022 2:00:00 AM 15.77 60.386 0.965 7.92 8.28 7.71
6/10/2022 2:15:00 AM 15.7 60.26 0.963 7.92 9.05 7.73
6/10/2022 2:30:00 AM 15.62 60.116 0.962 7.93 7.84 7.75
6/10/2022 2:45:00 AM 15.54 59.972 0.961 7.92 7.48 7.77
6/10/2022 3:00:00 AM 15.47 59.846 0.96 7.93 8.48 7.78
6/10/2022 3:15:00 AM 15.41 59.738 0.958 7.93 8.19 7.8
6/10/2022 3:30:00 AM 15.34 59.612 0.954 7.93 7.62 7.82
6/10/2022 3:45:00 AM 15.27 59.486 0.949 7.92 7.61 7.84
6/10/2022 4:00:00 AM 15.2 59.36 0.944 7.91 7.48 7.86
6/10/2022 4:15:00 AM 15.13 59.234 0.94 7.91 8.84 7.88
6/10/2022 4:30:00 AM 15.06 59.108 0.935 7.92 7.9 7.91
6/10/2022 4:45:00 AM 14.99 58.982 0.931 7.92 8.09 7.93
6/10/2022 5:00:00 AM 14.93 58.874 0.925 7.92 7.91 7.95
6/10/2022 5:15:00 AM 14.86 58.748 0.919 7.93 8.3 7.98
6/10/2022 5:30:00 AM 14.8 58.64 0.911 7.93 8.12 8.01
6/10/2022 5:45:00 AM 14.72 58.496 0.903 7.92 7.95 8.04
6/10/2022 6:00:00 AM 14.65 58.37 0.895 7.92 7.26 8.07
6/10/2022 6:15:00 AM 14.57 58.226 0.888 7.93 7.2 8.11
6/10/2022 6:30:00 AM 14.51 58.118 0.881 7.93 7.33 8.16
6/10/2022 6:45:00 AM 14.46 58.028 0.874 7.94 6.72 8.21
6/10/2022 7:00:00 AM 14.41 57.938 0.868 7.94 6.87 8.26
6/10/2022 7:15:00 AM 14.37 57.866 0.863 7.93 6.73 8.32
6/10/2022 7:30:00 AM 14.33 57.794 0.859 7.95 6.47 8.38
6/10/2022 7:45:00 AM 14.31 57.758 0.855 7.95 6.63 8.43
6/10/2022 8:00:00 AM 14.31 57.758 0.853 7.96 6.46 8.52
6/10/2022 8:15:00 AM 14.33 57.794 0.852 7.97 6.02 8.63
6/10/2022 8:30:00 AM 14.36 57.848 0.852 7.97 6.5 8.74
6/10/2022 8:45:00 AM 14.39 57.902 0.852 7.99 6.89 8.85
6/10/2022 9:00:00 AM 14.44 57.992 0.853 8 6.82 8.93
6/10/2022 9:15:00 AM 14.49 58.082 0.855 8 7 9.01
6/10/2022 9:30:00 AM 14.55 58.19 0.857 8.02 7.77 9.1
6/10/2022 9:45:00 AM 14.62 58.316 0.859 8.03 8.06 9.2
6/10/2022 10:00:00 AM 14.7 58.46 0.859 8.04 7.62 9.32
6/10/2022 10:15:00 AM 14.79 58.622 0.857 8.05 7.51 9.44
6/10/2022 10:30:00 AM 14.89 58.802 0.856 8.07 7.04 9.64
6/10/2022 10:45:00 AM 14.99 58.982 0.856 8.09 7.33 9.8
6/10/2022 11:00:00 AM 15.09 59.162 0.857 8.1 7.24 9.93
6/10/2022 11:15:00 AM 15.22 59.396 0.859 8.12 6.99 10.05
6/10/2022 11:30:00 AM 15.35 59.63 0.863 8.12 6.74 10.18
6/10/2022 11:45:00 AM 15.5 59.9 0.87 8.14 7.24 10.22
6/10/2022 12:00:00 PM 15.74 60.332 0.88 8.16 6.62 10.35
6/10/2022 12:15:00 PM 15.98 60.764 0.893 8.17 6.57 10.43
6/10/2022 12:30:00 PM 16.2 61.16 0.906 8.19 6.71 10.48
6/10/2022 12:45:00 PM 16.47 61.646 0.918 8.21 6.67 10.59
6/10/2022 1:00:00 PM 16.73 62.114 0.928 8.22 7.04 10.69
6/10/2022 1:15:00 PM 16.96 62.528 0.934 8.23 6.37 10.7
6/10/2022 1:30:00 PM 17.21 62.978 0.938 8.25 6.24 10.77
6/10/2022 1:45:00 PM 17.46 63.428 0.941 8.27 6.57 10.87
6/10/2022 2:00:00 PM 17.68 63.824 0.943 8.28 6.43 10.89
6/10/2022 2:15:00 PM 17.83 64.094 0.945 8.29 6.76 10.79
6/10/2022 2:30:00 PM 18 64.4 0.947 8.29 7.33 10.76
6/10/2022 2:45:00 PM 18.13 64.634 0.95 8.29 6.48 10.64
6/10/2022 3:00:00 PM 18.27 64.886 0.953 8.29 5.87 10.65
6/10/2022 3:15:00 PM 18.38 65.084 0.956 8.29 6.04 10.57
6/10/2022 3:30:00 PM 18.47 65.246 0.958 8.3 6.19 10.52
6/10/2022 3:45:00 PM 18.51 65.318 0.96 8.29 6.38 10.32
6/10/2022 4:00:00 PM 18.54 65.372 0.962 8.27 6.26 10.18
6/10/2022 4:15:00 PM 18.57 65.426 0.966 8.27 6.23 10.05
6/10/2022 4:30:00 PM 18.61 65.498 0.97 8.26 6.03 9.98
6/10/2022 4:45:00 PM 18.64 65.552 0.974 8.26 6.08 9.92
6/10/2022 5:00:00 PM 18.67 65.606 0.976 8.25 6.14 9.87
6/10/2022 5:15:00 PM 18.67 65.606 0.977 8.24 6.31 9.81
6/10/2022 5:30:00 PM 18.65 65.57 0.978 8.25 7.26 9.73
6/10/2022 5:45:00 PM 18.61 65.498 0.977 8.24 6.06 9.62
6/10/2022 6:00:00 PM 18.57 65.426 0.975 8.23 6.08 9.52
6/10/2022 6:15:00 PM 18.5 65.3 0.971 8.21 7.46 9.39
6/10/2022 6:30:00 PM 18.42 65.156 0.965 8.2 6.31 9.25
6/10/2022 6:45:00 PM 18.33 64.994 0.958 8.19 6.06 9.12
6/10/2022 7:00:00 PM 18.23 64.814 0.95 8.17 5.91 9
6/10/2022 7:15:00 PM 18.12 64.616 0.944 8.16 5.84 8.87
6/10/2022 7:30:00 PM 18.01 64.418 0.939 8.13 5.97 8.76
6/10/2022 7:45:00 PM 17.91 64.238 0.937 8.13 5.99 8.66
6/10/2022 8:00:00 PM 17.81 64.058 0.936 8.12 6.4 8.57
6/10/2022 8:15:00 PM 17.71 63.878 0.936 8.1 6.06 8.48
6/10/2022 8:30:00 PM 17.62 63.716 0.937 8.09 6.35 8.38
6/10/2022 8:45:00 PM 17.53 63.554 0.939 8.07 8.56 8.32
6/10/2022 9:00:00 PM 17.43 63.374 0.94 8.07 6.52 8.23
6/10/2022 9:15:00 PM 17.34 63.212 0.941 8.05 7.89 8.15
6/10/2022 9:30:00 PM 17.25 63.05 0.942 8.05 8.12 8.11
6/10/2022 9:45:00 PM 17.15 62.87 0.945 8.04 7.04 8.05
6/10/2022 10:00:00 PM 17.06 62.708 0.947 8.02 7.15 7.98
6/10/2022 10:15:00 PM 16.97 62.546 0.95 8.02 7.68 7.94
6/10/2022 10:30:00 PM 16.88 62.384 0.953 8 7.66 7.92
6/10/2022 10:45:00 PM 16.79 62.222 0.956 8 8.34 7.86
6/10/2022 11:00:00 PM 16.7 62.06 0.959 7.99 7.33 7.82
6/10/2022 11:15:00 PM 16.61 61.898 0.961 7.99 7.77 7.79
6/10/2022 11:30:00 PM 16.53 61.754 0.962 7.98 8.23 7.76
6/10/2022 11:45:00 PM 16.44 61.592 0.963 7.97 8.54 7.74
6/11/2022 12:00:00 AM 16.36 61.448 0.964 7.96 8.05 7.73
6/11/2022 12:15:00 AM 16.27 61.286 0.965 7.96 7.98 7.74
6/11/2022 12:30:00 AM 16.19 61.142 0.965 7.95 7.49 7.73
6/11/2022 12:45:00 AM 16.11 60.998 0.965 7.95 7.51 7.74
6/11/2022 1:00:00 AM 16.03 60.854 0.965 7.95 7.6 7.74
6/11/2022 1:15:00 AM 15.95 60.71 0.964 7.94 7.83 7.76
6/11/2022 1:30:00 AM 15.87 60.566 0.964 7.94 7.74 7.76
6/11/2022 1:45:00 AM 15.79 60.422 0.964 7.94 7.96 7.79
6/11/2022 2:00:00 AM 15.72 60.296 0.965 7.94 8.09 7.79
6/11/2022 2:15:00 AM 15.65 60.17 0.965 7.93 9.59 7.81
6/11/2022 2:30:00 AM 15.59 60.062 0.965 7.93 8.23 7.82
6/11/2022 2:45:00 AM 15.54 59.972 0.965 7.93 8.45 7.83
6/11/2022 3:00:00 AM 15.49 59.882 0.965 7.93 8.41 7.84
6/11/2022 3:15:00 AM 15.44 59.792 0.965 7.93 8.65 7.85
6/11/2022 3:30:00 AM 15.4 59.72 0.965 7.93 8.67 7.86
6/11/2022 3:45:00 AM 15.35 59.63 0.964 7.92 8.05 7.87
6/11/2022 4:00:00 AM 15.3 59.54 0.962 7.93 8.62 7.89
6/11/2022 4:15:00 AM 15.25 59.45 0.96 7.92 8.6 7.9
6/11/2022 4:30:00 AM 15.21 59.378 0.956 7.92 8.31 7.91
6/11/2022 4:45:00 AM 15.16 59.288 0.952 7.92 8.61 7.92
6/11/2022 5:00:00 AM 15.11 59.198 0.946 7.93 8.35 7.95
6/11/2022 5:15:00 AM 15.06 59.108 0.94 7.93 8.49 7.97
6/11/2022 5:30:00 AM 15.01 59.018 0.934 7.93 7.95 7.99
6/11/2022 5:45:00 AM 14.95 58.91 0.928 7.92 7.97 8.02
6/11/2022 6:00:00 AM 14.91 58.838 0.921 7.93 7.45 8.03
6/11/2022 6:15:00 AM 14.86 58.748 0.914 7.93 6.96 8.09
6/11/2022 6:30:00 AM 14.82 58.676 0.907 7.94 7.39 8.14
6/11/2022 6:45:00 AM 14.78 58.604 0.9 7.94 7.14 8.2
6/11/2022 7:00:00 AM 14.75 58.55 0.894 7.94 7.03 8.29
6/11/2022 7:15:00 AM 14.73 58.514 0.888 7.94 6.76 8.36
6/11/2022 7:30:00 AM 14.71 58.478 0.884 7.96 6.6 8.47
6/11/2022 7:45:00 AM 14.7 58.46 0.881 7.96 6.57 8.56
6/11/2022 8:00:00 AM 14.71 58.478 0.878 7.96 6.22 8.69
6/11/2022 8:15:00 AM 14.71 58.478 0.876 7.97 6.09 8.76
6/11/2022 8:30:00 AM 14.71 58.478 0.875 7.98 6.55 8.8
6/11/2022 8:45:00 AM 14.71 58.478 0.876 7.99 6.06 8.83
6/11/2022 9:00:00 AM 14.72 58.496 0.88 7.99 6.49 8.9
6/11/2022 9:15:00 AM 14.73 58.514 0.884 7.99 6.02 8.91
6/11/2022 9:30:00 AM 14.75 58.55 0.886 7.99 5.83 8.94
6/11/2022 9:45:00 AM 14.76 58.568 0.888 8 6.6 8.98
6/11/2022 10:00:00 AM 14.79 58.622 0.89 8 6.48 9.05
6/11/2022 10:15:00 AM 14.82 58.676 0.891 8.01 6.66 9.12
6/11/2022 10:30:00 AM 14.86 58.748 0.892 8.02 6.28 9.26
6/11/2022 10:45:00 AM 14.91 58.838 0.894 8.03 6.65 9.34
6/11/2022 11:00:00 AM 14.96 58.928 0.894 8.05 6.98 9.47
6/11/2022 11:15:00 AM 15 59 0.893 8.06 7.11 9.53
6/11/2022 11:30:00 AM 15.03 59.054 0.892 8.06 6.5 9.55
6/11/2022 11:45:00 AM 15.07 59.126 0.891 8.06 6.63 9.57
6/11/2022 12:00:00 PM 15.1 59.18 0.893 8.07 6.72 9.61
6/11/2022 12:15:00 PM 15.14 59.252 0.899 8.06 6.47 9.6
6/11/2022 12:30:00 PM 15.18 59.324 0.906 8.07 6.65 9.59
6/11/2022 12:45:00 PM 15.23 59.414 0.913 8.08 6.73 9.55
6/11/2022 1:00:00 PM 15.27 59.486 0.919 8.08 6.97 9.53
6/11/2022 1:15:00 PM 15.32 59.576 0.926 8.08 7.06 9.57
6/11/2022 1:30:00 PM 15.39 59.702 0.934 8.09 6.45 9.67
6/11/2022 1:45:00 PM 15.45 59.81 0.942 8.09 6.07 9.65
6/11/2022 2:00:00 PM 15.51 59.918 0.949 8.09 6.36 9.69
6/11/2022 2:15:00 PM 15.58 60.044 0.954 8.11 6.58 9.77
6/11/2022 2:30:00 PM 15.63 60.134 0.957 8.12 6.71 9.79
6/11/2022 2:45:00 PM 15.69 60.242 0.961 8.12 6.28 9.88
6/11/2022 3:00:00 PM 15.77 60.386 0.964 8.14 6.12 9.98
6/11/2022 3:15:00 PM 15.86 60.548 0.967 8.15 6.96 10.1
6/11/2022 3:30:00 PM 15.93 60.674 0.97 8.17 6.85 10.22
6/11/2022 3:45:00 PM 16 60.8 0.972 8.17 6.17 10.2
6/11/2022 4:00:00 PM 16.05 60.89 0.973 8.18 5.95 10.16
6/11/2022 4:15:00 PM 16.08 60.944 0.973 8.18 6.49 10.11
6/11/2022 4:30:00 PM 16.1 60.98 0.974 8.18 6.07 10.04
6/11/2022 4:45:00 PM 16.11 60.998 0.974 8.18 6.23 10.02
6/11/2022 5:00:00 PM 16.12 61.016 0.973 8.17 5.99 9.96
6/11/2022 5:15:00 PM 16.15 61.07 0.972 8.18 5.95 9.97
6/11/2022 5:30:00 PM 16.17 61.106 0.971 8.17 6.52 9.92
6/11/2022 5:45:00 PM 16.2 61.16 0.97 8.18 6.09 9.89
6/11/2022 6:00:00 PM 16.21 61.178 0.97 8.18 6.85 9.87
6/11/2022 6:15:00 PM 16.23 61.214 0.97 8.17 7.06 9.84
6/11/2022 6:30:00 PM 16.26 61.268 0.971 8.17 5.8 9.8
6/11/2022 6:45:00 PM 16.28 61.304 0.972 8.17 6.32 9.72
6/11/2022 7:00:00 PM 16.29 61.322 0.973 8.17 6.85 9.63
6/11/2022 7:15:00 PM 16.29 61.322 0.974 8.16 6.71 9.53
6/11/2022 7:30:00 PM 16.26 61.268 0.973 8.15 6.61 9.41
6/11/2022 7:45:00 PM 16.21 61.178 0.972 8.14 6.4 9.29
6/11/2022 8:00:00 PM 16.15 61.07 0.971 8.13 5.96 9.16
6/11/2022 8:15:00 PM 16.1 60.98 0.97 8.11 5.74 9.04
6/11/2022 8:30:00 PM 16.05 60.89 0.969 8.09 5.68 8.95
6/11/2022 8:45:00 PM 16 60.8 0.969 8.09 6.15 8.86
6/11/2022 9:00:00 PM 15.95 60.71 0.97 8.08 6.21 8.78
6/11/2022 9:15:00 PM 15.9 60.62 0.971 8.07 6.96 8.7
6/11/2022 9:30:00 PM 15.86 60.548 0.972 8.07 7.2 8.65
6/11/2022 9:45:00 PM 15.81 60.458 0.973 8.06 7.15 8.59
6/11/2022 10:00:00 PM 15.77 60.386 0.973 8.05 7.16 8.53
6/11/2022 10:15:00 PM 15.71 60.278 0.973 8.04 6.97 8.47
6/11/2022 10:30:00 PM 15.65 60.17 0.972 8.03 6.97 8.42
6/11/2022 10:45:00 PM 15.59 60.062 0.972 8.03 6.94 8.37
6/11/2022 11:00:00 PM 15.53 59.954 0.972 8.02 7.13 8.32
6/11/2022 11:15:00 PM 15.47 59.846 0.972 8.01 7.11 8.29
6/11/2022 11:30:00 PM 15.41 59.738 0.971 8 6.87 8.25
6/11/2022 11:45:00 PM 15.35 59.63 0.971 8 7.49 8.22
6/12/2022 12:00:00 AM 15.29 59.522 0.972 7.99 7.23 8.2
6/12/2022 12:15:00 AM 15.24 59.432 0.974 7.99 7.39 8.18
6/12/2022 12:30:00 AM 15.19 59.342 0.977 7.98 7.46 8.16
6/12/2022 12:45:00 AM 15.15 59.27 0.98 7.98 7.28 8.14
6/12/2022 1:00:00 AM 15.1 59.18 0.983 7.97 8.39 8.13
6/12/2022 1:15:00 AM 15.05 59.09 0.983 7.96 7.61 8.12
6/12/2022 1:30:00 AM 15.01 59.018 0.983 7.97 7.42 8.12
6/12/2022 1:45:00 AM 14.96 58.928 0.983 7.96 7.45 8.12
6/12/2022 2:00:00 AM 14.93 58.874 0.981 7.96 8.27 8.12
6/12/2022 2:15:00 AM 14.89 58.802 0.982 7.96 7.57 8.13
6/12/2022 2:30:00 AM 14.85 58.73 0.98 7.96 7.52 8.13
6/12/2022 2:45:00 AM 14.82 58.676 0.978 7.95 7.38 8.12
6/12/2022 3:00:00 AM 14.78 58.604 0.974 7.96 7.31 8.14
6/12/2022 3:15:00 AM 14.74 58.532 0.97 7.96 7.51 8.16
6/12/2022 3:30:00 AM 14.71 58.478 0.967 7.95 7.4 8.17
6/12/2022 3:45:00 AM 14.68 58.424 0.964 7.95 8.01 8.17
6/12/2022 4:00:00 AM 14.64 58.352 0.962 7.95 7.79 8.18
6/12/2022 4:15:00 AM 14.62 58.316 0.959 7.95 7.84 8.19
6/12/2022 4:30:00 AM 14.59 58.262 0.955 7.95 7.63 8.21
6/12/2022 4:45:00 AM 14.56 58.208 0.95 7.95 7.42 8.21
6/12/2022 5:00:00 AM 14.53 58.154 0.944 7.94 7.99 8.23
6/12/2022 5:15:00 AM 14.51 58.118 0.938 7.95 7.78 8.24
6/12/2022 5:30:00 AM 14.48 58.064 0.931 7.95 7.47 8.25
6/12/2022 5:45:00 AM 14.46 58.028 0.923 7.95 7.2 8.25
6/12/2022 6:00:00 AM 14.44 57.992 0.911 7.95 7.49 8.28
6/12/2022 6:15:00 AM 14.42 57.956 0.901 7.95 9.79 8.27
6/12/2022 6:30:00 AM 14.43 57.974 0.889 7.94 8.15 8.28
6/12/2022 6:45:00 AM 14.41 57.938 0.885 7.95 7.98 8.33
6/12/2022 7:00:00 AM 14.38 57.884 0.88 7.96 7.03 8.37
6/12/2022 7:15:00 AM 14.37 57.866 0.874 7.96 7.01 8.44
6/12/2022 7:30:00 AM 14.36 57.848 0.866 7.96 6.81 8.5
6/12/2022 7:45:00 AM 14.36 57.848 0.857 7.96 6.83 8.53
6/12/2022 8:00:00 AM 14.37 57.866 0.849 7.97 8.1 8.53
6/12/2022 8:15:00 AM 14.4 57.92 0.843 7.96 7.98 8.56
6/12/2022 8:30:00 AM 14.42 57.956 0.842 7.96 8.37 8.59
6/12/2022 8:45:00 AM 14.43 57.974 0.845 7.96 8.74 8.7
6/12/2022 9:00:00 AM 14.46 58.028 0.846 7.97 8.65 8.78
6/12/2022 9:15:00 AM 14.5 58.1 0.847 7.97 9.12 8.8
6/12/2022 9:30:00 AM 14.53 58.154 0.849 7.97 9.56 8.83
6/12/2022 9:45:00 AM 14.57 58.226 0.851 7.95 9.97 8.87
6/12/2022 10:00:00 AM 14.61 58.298 0.85 7.97 10.22 8.94
6/12/2022 10:15:00 AM 14.64 58.352 0.846 7.97 8.8 8.96
6/12/2022 10:30:00 AM 14.7 58.46 0.839 7.97 9.06 9.03
6/12/2022 10:45:00 AM 14.75 58.55 0.83 7.97 9.02 9.07
6/12/2022 11:00:00 AM 14.81 58.658 0.821 7.98 8.69 9.21
6/12/2022 11:15:00 AM 14.86 58.748 0.814 7.98 8.1 9.26
6/12/2022 11:30:00 AM 14.91 58.838 0.809 7.99 10.42 9.28
6/12/2022 11:45:00 AM 14.98 58.964 0.808 7.99 8.74 9.28
6/12/2022 12:00:00 PM 15.06 59.108 0.81 7.98 8.98 9.21
6/12/2022 12:15:00 PM 15.17 59.306 0.814 7.97 9.67 9.18
6/12/2022 12:30:00 PM 15.28 59.504 0.818 7.96 8.68 9.11
6/12/2022 12:45:00 PM 15.41 59.738 0.823 7.95 8.71 9.08
6/12/2022 1:00:00 PM 15.55 59.99 0.829 7.93 8.21 9.06
6/12/2022 1:15:00 PM 15.68 60.224 0.838 7.94 8.11 9.17
6/12/2022 1:30:00 PM 15.8 60.44 0.85 7.95 7.76 9.2
6/12/2022 1:45:00 PM 15.91 60.638 0.863 7.95 8.12 9.29
6/12/2022 2:00:00 PM 16.03 60.854 0.875 7.98 7.7 9.5
6/12/2022 2:15:00 PM 16.13 61.034 0.888 7.99 7.72 9.61
6/12/2022 2:30:00 PM 16.27 61.286 0.901 8.02 7.29 9.78
6/12/2022 2:45:00 PM 16.43 61.574 0.912 8.04 7.4 9.99
6/12/2022 3:00:00 PM 16.54 61.772 0.922 8.05 7.82 10.01
6/12/2022 3:15:00 PM 16.64 61.952 0.93 8.07 7.2 10.03
6/12/2022 3:30:00 PM 16.69 62.042 0.937 8.08 7.02 9.99
6/12/2022 3:45:00 PM 16.74 62.132 0.942 8.08 7.26 10
6/12/2022 4:00:00 PM 16.79 62.222 0.945 8.09 7.44 10
6/12/2022 4:15:00 PM 16.81 62.258 0.948 8.1 6.94 9.9
6/12/2022 4:30:00 PM 16.8 62.24 0.951 8.09 7.02 9.77
6/12/2022 4:45:00 PM 16.79 62.222 0.954 8.08 6.84 9.62
6/12/2022 5:00:00 PM 16.79 62.222 0.957 8.08 6.98 9.55
6/12/2022 5:15:00 PM 16.8 62.24 0.958 8.08 6.17 9.46
6/12/2022 5:30:00 PM 16.83 62.294 0.959 8.08 6.35 9.41
6/12/2022 5:45:00 PM 16.87 62.366 0.96 8.09 6.25 9.37
6/12/2022 6:00:00 PM 16.9 62.42 0.961 8.08 6.2 9.29
6/12/2022 6:15:00 PM 16.93 62.474 0.962 8.08 6.4 9.23
6/12/2022 6:30:00 PM 16.94 62.492 0.962 8.08 6.67 9.15
6/12/2022 6:45:00 PM 16.95 62.51 0.962 8.08 6.07 9.13
6/12/2022 7:00:00 PM 16.94 62.492 0.961 8.07 6.08 9.05
6/12/2022 7:15:00 PM 16.93 62.474 0.96 8.07 6.25 9
6/12/2022 7:30:00 PM 16.91 62.438 0.959 8.07 5.94 8.92
6/12/2022 7:45:00 PM 16.87 62.366 0.958 8.06 6.09 8.81
6/12/2022 8:00:00 PM 16.82 62.276 0.957 8.05 5.92 8.7
6/12/2022 8:15:00 PM 16.76 62.168 0.955 8.04 6.1 8.61
6/12/2022 8:30:00 PM 16.7 62.06 0.953 8.03 6.06 8.52
6/12/2022 8:45:00 PM 16.65 61.97 0.952 8.02 6.87 8.44
6/12/2022 9:00:00 PM 16.59 61.862 0.952 8.01 6.5 8.33
6/12/2022 9:15:00 PM 16.55 61.79 0.953 8 7.04 8.25
6/12/2022 9:30:00 PM 16.5 61.7 0.954 7.99 7.05 8.17
6/12/2022 9:45:00 PM 16.46 61.628 0.954 7.98 7.16 8.12
6/12/2022 10:00:00 PM 16.42 61.556 0.955 7.97 7.21 8.08
6/12/2022 10:15:00 PM 16.38 61.484 0.958 7.97 7.54 8.04
6/12/2022 10:30:00 PM 16.34 61.412 0.962 7.95 7.61 8.02
6/12/2022 10:45:00 PM 16.3 61.34 0.965 7.95 7.57 7.99
6/12/2022 11:00:00 PM 16.26 61.268 0.965 7.95 8.1 7.97
6/12/2022 11:15:00 PM 16.21 61.178 0.964 7.94 7.31 7.95
6/12/2022 11:30:00 PM 16.17 61.106 0.962 7.93 7.06 7.92
6/12/2022 11:45:00 PM 16.12 61.016 0.96 7.92 7.3 7.91
6/13/2022 12:00:00 AM 16.07 60.926 0.958 7.92 8.22 7.89
6/13/2022 12:15:00 AM 16.02 60.836 0.957 7.92 7.61 7.88
6/13/2022 12:30:00 AM 15.97 60.746 0.956 7.91 8.52 7.86
6/13/2022 12:45:00 AM 15.92 60.656 0.956 7.9 8.99 7.84
6/13/2022 1:00:00 AM 15.88 60.584 0.956 7.9 7.59 7.82
6/13/2022 1:15:00 AM 15.83 60.494 0.955 7.88 7.66 7.8
6/13/2022 1:30:00 AM 15.79 60.422 0.954 7.88 7.34 7.78
6/13/2022 1:45:00 AM 15.75 60.35 0.952 7.88 7.87 7.77
6/13/2022 2:00:00 AM 15.72 60.296 0.95 7.87 7.8 7.75
6/13/2022 2:15:00 AM 15.68 60.224 0.948 7.86 7.77 7.74
6/13/2022 2:30:00 AM 15.65 60.17 0.946 7.86 7.56 7.74
6/13/2022 2:45:00 AM 15.62 60.116 0.946 7.85 7.49 7.73
6/13/2022 3:00:00 AM 15.59 60.062 0.945 7.85 8.22 7.75
6/13/2022 3:15:00 AM 15.56 60.008 0.944 7.84 7.77 7.75
6/13/2022 3:30:00 AM 15.53 59.954 0.942 7.85 8.21 7.77
6/13/2022 3:45:00 AM 15.49 59.882 0.94 7.85 7.12 7.79
6/13/2022 4:00:00 AM 15.46 59.828 0.938 7.85 7.36 7.81
6/13/2022 4:15:00 AM 15.42 59.756 0.935 7.85 7.05 7.83
6/13/2022 4:30:00 AM 15.39 59.702 0.931 7.86 7.39 7.85
6/13/2022 4:45:00 AM 15.35 59.63 0.926 7.85 7.22 7.87
6/13/2022 5:00:00 AM 15.31 59.558 0.921 7.86 7.92 7.9
6/13/2022 5:15:00 AM 15.27 59.486 0.914 7.86 7.32 7.92
6/13/2022 5:30:00 AM 15.22 59.396 0.906 7.87 7.17 7.95
6/13/2022 5:45:00 AM 15.18 59.324 0.897 7.87 7.42 7.98
6/13/2022 6:00:00 AM 15.13 59.234 0.888 7.87 7.73 8.01
6/13/2022 6:15:00 AM 15.08 59.144 0.88 7.87 6.45 8.06
6/13/2022 6:30:00 AM 15.05 59.09 0.872 7.88 6.44 8.11
6/13/2022 6:45:00 AM 15.01 59.018 0.865 7.88 6.59 8.17
6/13/2022 7:00:00 AM 14.98 58.964 0.86 7.88 6.61 8.25
6/13/2022 7:15:00 AM 14.96 58.928 0.855 7.88 6.29 8.33
6/13/2022 7:30:00 AM 14.95 58.91 0.851 7.9 6.34 8.4
6/13/2022 7:45:00 AM 14.94 58.892 0.848 7.9 6.25 8.51
6/13/2022 8:00:00 AM 14.94 58.892 0.846 7.91 6.33 8.6
6/13/2022 8:15:00 AM 14.95 58.91 0.845 7.92 6.49 8.72
6/13/2022 8:30:00 AM 14.98 58.964 0.846 7.93 6.22 8.84
6/13/2022 8:45:00 AM 15 59 0.848 7.94 6.1 8.92
6/13/2022 9:00:00 AM 15.04 59.072 0.852 7.95 6.04 9
6/13/2022 9:15:00 AM 15.09 59.162 0.856 7.96 5.9 9.12
6/13/2022 9:30:00 AM 15.14 59.252 0.859 7.96 6.2 9.18
6/13/2022 9:45:00 AM 15.21 59.378 0.862 7.98 5.99 9.26
6/13/2022 10:00:00 AM 15.3 59.54 0.863 7.98 6.41 9.38
6/13/2022 10:15:00 AM 15.4 59.72 0.864 8 6.28 9.52
6/13/2022 10:30:00 AM 15.53 59.954 0.864 8.02 6.16 9.65
6/13/2022 10:45:00 AM 15.63 60.134 0.864 8.02 6.79 9.75
6/13/2022 11:00:00 AM 15.77 60.386 0.865 8.05 6.22 9.9
6/13/2022 11:15:00 AM 15.92 60.656 0.867 8.07 6.24 10.05
6/13/2022 11:30:00 AM 16.06 60.908 0.871 8.08 6.5 10.15
6/13/2022 11:45:00 AM 16.21 61.178 0.876 8.11 6.08 10.25
6/13/2022 12:00:00 PM 16.39 61.502 0.883 8.12 5.83 10.34
6/13/2022 12:15:00 PM 16.55 61.79 0.892 8.13 6.4 10.4
6/13/2022 12:30:00 PM 16.76 62.168 0.902 8.15 6.44 10.51
6/13/2022 12:45:00 PM 17.01 62.618 0.914 8.17 6.25 10.65
6/13/2022 1:00:00 PM 17.24 63.032 0.926 8.18 6.14 10.7
6/13/2022 1:15:00 PM 17.44 63.392 0.936 8.2 5.83 10.67
6/13/2022 1:30:00 PM 17.7 63.86 0.944 8.21 5.99 10.74
6/13/2022 1:45:00 PM 17.95 64.31 0.95 8.22 6.37 10.77
6/13/2022 2:00:00 PM 18.2 64.76 0.954 8.25 5.58 10.83
6/13/2022 2:15:00 PM 18.42 65.156 0.958 8.26 6.06 10.82
6/13/2022 2:30:00 PM 18.59 65.462 0.96 8.27 6.09 10.75
6/13/2022 2:45:00 PM 18.69 65.642 0.962 8.26 5.81 10.55
6/13/2022 3:00:00 PM 18.78 65.804 0.964 8.25 6.1 10.4
6/13/2022 3:15:00 PM 18.9 66.02 0.965 8.26 6.26 10.35
6/13/2022 3:30:00 PM 19.02 66.236 0.966 8.26 6.18 10.29
6/13/2022 3:45:00 PM 19.13 66.434 0.966 8.26 13.19 10.26
6/13/2022 4:00:00 PM 19.23 66.614 0.967 8.26 22.55 10.2
6/13/2022 4:15:00 PM 19.33 66.794 0.967 8.27 5.61 10.16
6/13/2022 4:30:00 PM 19.41 66.938 0.968 8.27 6.04 10.08
6/13/2022 4:45:00 PM 19.47 67.046 0.968 8.27 6.26 9.97
6/13/2022 5:00:00 PM 19.49 67.082 0.969 8.26 5.68 9.83
6/13/2022 5:15:00 PM 19.5 67.1 0.971 8.24 5.82 9.68
6/13/2022 5:30:00 PM 19.48 67.064 0.972 8.24 5.76 9.53
6/13/2022 5:45:00 PM 19.46 67.028 0.973 8.22 5.82 9.42
6/13/2022 6:00:00 PM 19.43 66.974 0.975 8.21 5.63 9.31
6/13/2022 6:15:00 PM 19.4 66.92 0.977 8.21 6.18 9.21
6/13/2022 6:30:00 PM 19.37 66.866 0.976 8.2 5.72 9.12
6/13/2022 6:45:00 PM 19.32 66.776 0.973 8.19 5.85 9.01
6/13/2022 7:00:00 PM 19.27 66.686 0.97 8.17 6.25 8.88
6/13/2022 7:15:00 PM 19.2 66.56 0.969 8.15 5.74 8.77
6/13/2022 7:30:00 PM 19.13 66.434 0.97 8.14 5.68 8.63
6/13/2022 7:45:00 PM 19.06 66.308 0.971 8.13 5.86 8.51
6/13/2022 8:00:00 PM 18.97 66.146 0.969 8.1 5.82 8.38
6/13/2022 8:15:00 PM 18.87 65.966 0.965 8.1 5.58 8.25
6/13/2022 8:30:00 PM 18.77 65.786 0.963 8.08 5.89 8.13
6/13/2022 8:45:00 PM 18.65 65.57 0.963 8.07 6.69 8.03
6/13/2022 9:00:00 PM 18.55 65.39 0.964 8.05 6.31 7.94
6/13/2022 9:15:00 PM 18.45 65.21 0.965 8.04 7.31 7.85
6/13/2022 9:30:00 PM 18.36 65.048 0.967 8.02 7.53 7.8
6/13/2022 9:45:00 PM 18.27 64.886 0.969 8.02 7.85 7.74
6/13/2022 10:00:00 PM 18.18 64.724 0.972 7.99 7.06 7.7
6/13/2022 10:15:00 PM 18.09 64.562 0.975 8 7.43 7.66
6/13/2022 10:30:00 PM 17.99 64.382 0.978 7.99 7.26 7.63
6/13/2022 10:45:00 PM 17.89 64.202 0.981 7.97 7.54 7.59
6/13/2022 11:00:00 PM 17.8 64.04 0.986 7.97 7.61 7.55
6/13/2022 11:15:00 PM 17.71 63.878 0.99 7.96 8.86 7.53
6/13/2022 11:30:00 PM 17.62 63.716 0.994 7.95 7.68 7.5
6/13/2022 11:45:00 PM 17.53 63.554 0.996 7.95 7.7 7.49
6/14/2022 12:00:00 AM 17.43 63.374 0.998 7.94 8.26 7.48
6/14/2022 12:15:00 AM 17.34 63.212 0.998 7.92 7.63 7.47
6/14/2022 12:30:00 AM 17.25 63.05 0.998 7.93 7.64 7.47
6/14/2022 12:45:00 AM 17.16 62.888 0.998 7.91 8.3 7.46
6/14/2022 1:00:00 AM 17.07 62.726 0.998 7.92 8.3 7.46
6/14/2022 1:15:00 AM 16.99 62.582 0.997 7.91 7.9 7.47
6/14/2022 1:30:00 AM 16.9 62.42 0.996 7.91 8.08 7.48
6/14/2022 1:45:00 AM 16.82 62.276 0.995 7.91 7.95 7.48
6/14/2022 2:00:00 AM 16.74 62.132 0.994 7.9 8.43 7.49
6/14/2022 2:15:00 AM 16.68 62.024 0.994 7.9 8.7 7.51
6/14/2022 2:30:00 AM 16.61 61.898 0.994 7.88 8.58 7.52
6/14/2022 2:45:00 AM 16.56 61.808 0.993 7.89 8.85 7.53
6/14/2022 3:00:00 AM 16.51 61.718 0.993 7.89 8.05 7.54
6/14/2022 3:15:00 AM 16.46 61.628 0.992 7.89 9.87 7.55
6/14/2022 3:30:00 AM 16.42 61.556 0.991 7.89 8.46 7.56
6/14/2022 3:45:00 AM 16.36 61.448 0.987 7.89 8.6 7.58
6/14/2022 4:00:00 AM 16.31 61.358 0.981 7.89 8.16 7.59
6/14/2022 4:15:00 AM 16.25 61.25 0.973 7.89 7.77 7.6
6/14/2022 4:30:00 AM 16.2 61.16 0.965 7.89 8.17 7.63
6/14/2022 4:45:00 AM 16.13 61.034 0.956 7.89 8.08 7.66
6/14/2022 5:00:00 AM 16.07 60.926 0.948 7.89 7.45 7.68
6/14/2022 5:15:00 AM 16.02 60.836 0.94 7.89 8.12 7.7
6/14/2022 5:30:00 AM 15.96 60.728 0.931 7.89 7.84 7.74
6/14/2022 5:45:00 AM 15.91 60.638 0.922 7.88 8.02 7.76
6/14/2022 6:00:00 AM 15.86 60.548 0.914 7.89 8.05 7.78
6/14/2022 6:15:00 AM 15.81 60.458 0.906 7.89 7.93 7.8
6/14/2022 6:30:00 AM 15.76 60.368 0.898 7.9 7.36 7.84
6/14/2022 6:45:00 AM 15.72 60.296 0.888 7.9 7.31 7.89
6/14/2022 7:00:00 AM 15.68 60.224 0.878 7.89 7.73 7.9
6/14/2022 7:15:00 AM 15.64 60.152 0.868 7.91 8.82 7.92
6/14/2022 7:30:00 AM 15.62 60.116 0.859 7.91 8.45 7.94
6/14/2022 7:45:00 AM 15.58 60.044 0.852 7.91 7.73 7.97
6/14/2022 8:00:00 AM 15.53 59.954 0.85 7.91 7.71 8.02
6/14/2022 8:15:00 AM 15.49 59.882 0.849 7.92 7.35 8.06
6/14/2022 8:30:00 AM 15.46 59.828 0.848 7.92 7.24 8.12
6/14/2022 8:45:00 AM 15.45 59.81 0.847 7.93 7.62 8.2
6/14/2022 9:00:00 AM 15.46 59.828 0.847 7.94 8.95 8.35
6/14/2022 9:15:00 AM 15.47 59.846 0.848 7.94 7.29 8.47
6/14/2022 9:30:00 AM 15.48 59.864 0.848 7.96 7.62 8.6
6/14/2022 9:45:00 AM 15.5 59.9 0.848 7.97 8.35 8.71
6/14/2022 10:00:00 AM 15.49 59.882 0.847 7.97 8.63 8.72
6/14/2022 10:15:00 AM 15.49 59.882 0.846 7.96 9.38 8.72
6/14/2022 10:30:00 AM 15.5 59.9 0.847 7.97 9.16 8.81
6/14/2022 10:45:00 AM 15.5 59.9 0.851 7.97 8.83 8.86
6/14/2022 11:00:00 AM 15.55 59.99 0.854 7.98 8.96 9.04
6/14/2022 11:15:00 AM 15.62 60.116 0.858 7.99 8.73 9.15
6/14/2022 11:30:00 AM 15.77 60.386 0.863 8.01 8.61 9.41
6/14/2022 11:45:00 AM 15.83 60.494 0.868 8.01 8.35 9.43
6/14/2022 12:00:00 PM 16.03 60.854 0.872 8.05 7.9 9.72
6/14/2022 12:15:00 PM 16.2 61.16 0.873 8.07 7.57 9.92
6/14/2022 12:30:00 PM 16.35 61.43 0.871 8.09 7.29 10.05
6/14/2022 12:45:00 PM 16.56 61.808 0.869 8.1 7.07 10.2
6/14/2022 1:00:00 PM 16.74 62.132 0.866 8.12 7.16 10.31
6/14/2022 1:15:00 PM 16.94 62.492 0.863 8.12 7.12 10.35
6/14/2022 1:30:00 PM 17.15 62.87 0.861 8.13 7.28 10.37
6/14/2022 1:45:00 PM 17.37 63.266 0.858 8.13 7.17 10.37
6/14/2022 2:00:00 PM 17.62 63.716 0.856 8.12 7.25 10.37
6/14/2022 2:15:00 PM 17.86 64.148 0.854 8.14 7.17 10.37
6/14/2022 2:30:00 PM 18.08 64.544 0.853 8.14 7.16 10.36
6/14/2022 2:45:00 PM 18.28 64.904 0.852 8.14 7.14 10.36
6/14/2022 3:00:00 PM 18.44 65.192 0.853 8.15 7.61 10.33
6/14/2022 3:15:00 PM 18.58 65.444 0.855 8.15 6.85 10.34
6/14/2022 3:30:00 PM 18.7 65.66 0.86 8.16 6.52 10.37
6/14/2022 3:45:00 PM 18.8 65.84 0.866 8.16 7.41 10.31
6/14/2022 4:00:00 PM 18.86 65.948 0.872 8.16 6.55 10.2
6/14/2022 4:15:00 PM 18.93 66.074 0.881 8.17 6.61 10.1
6/14/2022 4:30:00 PM 18.99 66.182 0.892 8.17 6.9 10.03
6/14/2022 4:45:00 PM 19.05 66.29 0.904 8.17 6.36 9.96
6/14/2022 5:00:00 PM 19.08 66.344 0.915 8.17 6.34 9.87
6/14/2022 5:15:00 PM 19.1 66.38 0.925 8.17 6.11 9.76
6/14/2022 5:30:00 PM 19.09 66.362 0.933 8.16 6.1 9.64
6/14/2022 5:45:00 PM 19.07 66.326 0.938 8.16 5.9 9.53
6/14/2022 6:00:00 PM 19.03 66.254 0.942 8.16 6.32 9.41
6/14/2022 6:15:00 PM 18.98 66.164 0.944 8.15 6.27 9.28
6/14/2022 6:30:00 PM 18.93 66.074 0.945 8.14 5.74 9.15
6/14/2022 6:45:00 PM 18.86 65.948 0.942 8.13 5.71 9.01
6/14/2022 7:00:00 PM 18.79 65.82201 0.939 8.12 5.77 8.88
6/14/2022 7:15:00 PM 18.7 65.66 0.934 8.11 5.96 8.77
6/14/2022 7:30:00 PM 18.62 65.516 0.93 8.1 6.18 8.65
6/14/2022 7:45:00 PM 18.54 65.372 0.927 8.08 5.73 8.53
6/14/2022 8:00:00 PM 18.45 65.21 0.925 8.08 6.68 8.42
6/14/2022 8:15:00 PM 18.36 65.048 0.923 8.06 6.31 8.3
6/14/2022 8:30:00 PM 18.27 64.886 0.923 8.05 6.5 8.2
6/14/2022 8:45:00 PM 18.17 64.706 0.922 8.04 6.03 8.11
6/14/2022 9:00:00 PM 18.08 64.544 0.923 8.03 6.14 8.03
6/14/2022 9:15:00 PM 17.99 64.382 0.924 8.02 7.03 7.95
6/14/2022 9:30:00 PM 17.9 64.22 0.926 8 7.33 7.87
6/14/2022 9:45:00 PM 17.81 64.058 0.93 8 7.28 7.81
6/14/2022 10:00:00 PM 17.72 63.896 0.934 7.99 7.55 7.75
6/14/2022 10:15:00 PM 17.63 63.734 0.938 7.98 7.34 7.69
6/14/2022 10:30:00 PM 17.54 63.572 0.943 7.97 7.59 7.65
6/14/2022 10:45:00 PM 17.45 63.41 0.947 7.96 7.46 7.6
6/14/2022 11:00:00 PM 17.36 63.248 0.951 7.96 7.45 7.57
6/14/2022 11:15:00 PM 17.27 63.086 0.955 7.95 7.66 7.53
6/14/2022 11:30:00 PM 17.19 62.942 0.96 7.94 7.42 7.51
6/14/2022 11:45:00 PM 17.11 62.798 0.964 7.94 7.89 7.48
6/15/2022 12:00:00 AM 17.03 62.654 0.968 7.93 7.62 7.46
6/15/2022 12:15:00 AM 16.95 62.51 0.972 7.93 8.21 7.46
6/15/2022 12:30:00 AM 16.87 62.366 0.975 7.92 7.64 7.45
6/15/2022 12:45:00 AM 16.79 62.222 0.979 7.92 8.2 7.44
6/15/2022 1:00:00 AM 16.72 62.096 0.982 7.91 8.3 7.43
6/15/2022 1:15:00 AM 16.64 61.952 0.984 7.9 8.25 7.43
6/15/2022 1:30:00 AM 16.57 61.826 0.985 7.9 7.82 7.43
6/15/2022 1:45:00 AM 16.5 61.7 0.986 7.9 7.48 7.44
6/15/2022 2:00:00 AM 16.44 61.592 0.987 7.9 8.01 7.44
6/15/2022 2:15:00 AM 16.37 61.466 0.988 7.9 7.99 7.46
6/15/2022 2:30:00 AM 16.3 61.34 0.988 7.9 8.29 7.47
6/15/2022 2:45:00 AM 16.24 61.232 0.988 7.89 8.48 7.47
6/15/2022 3:00:00 AM 16.18 61.124 0.986 7.89 8.25 7.48
6/15/2022 3:15:00 AM 16.12 61.016 0.985 7.88 9.23 7.51
6/15/2022 3:30:00 AM 16.07 60.926 0.984 7.89 8.68 7.51
6/15/2022 3:45:00 AM 16.01 60.818 0.982 7.89 7.61 7.53
6/15/2022 4:00:00 AM 15.95 60.71 0.98 7.89 8.35 7.55
6/15/2022 4:15:00 AM 15.9 60.62 0.976 7.88 7.99 7.56
6/15/2022 4:30:00 AM 15.84 60.512 0.971 7.89 8.39 7.6
6/15/2022 4:45:00 AM 15.78 60.404 0.965 7.89 9.1 7.64
6/15/2022 5:00:00 AM 15.72 60.296 0.958 7.9 8.49 7.66
6/15/2022 5:15:00 AM 15.65 60.17 0.951 7.9 9.31 7.69
6/15/2022 5:30:00 AM 15.59 60.062 0.944 7.9 8.67 7.73
6/15/2022 5:45:00 AM 15.53 59.954 0.936 7.9 7.99 7.76
6/15/2022 6:00:00 AM 15.47 59.846 0.929 7.9 7.7 7.8
6/15/2022 6:15:00 AM 15.41 59.738 0.92 7.9 7.43 7.83
6/15/2022 6:30:00 AM 15.34 59.612 0.911 7.91 7.31 7.9
6/15/2022 6:45:00 AM 15.29 59.522 0.903 7.91 7.15 7.96
6/15/2022 7:00:00 AM 15.24 59.432 0.895 7.92 7.12 8.04
6/15/2022 7:15:00 AM 15.2 59.36 0.889 7.92 7.24 8.1
6/15/2022 7:30:00 AM 15.16 59.288 0.885 7.91 6.9 8.17
6/15/2022 7:45:00 AM 15.14 59.252 0.88 7.93 7.16 8.23
6/15/2022 8:00:00 AM 15.13 59.234 0.877 7.92 7.33 8.3
6/15/2022 8:15:00 AM 15.14 59.252 0.874 7.94 6.73 8.42
6/15/2022 8:30:00 AM 15.16 59.288 0.872 7.95 7.85 8.54
6/15/2022 8:45:00 AM 15.18 59.324 0.871 7.96 6.76 8.65
6/15/2022 9:00:00 AM 15.22 59.396 0.87 7.96 7.01 8.77
6/15/2022 9:15:00 AM 15.27 59.486 0.87 7.97 6.62 8.87
6/15/2022 9:30:00 AM 15.32 59.576 0.87 7.99 7.34 8.98
6/15/2022 9:45:00 AM 15.38 59.684 0.871 7.99 7.18 9.08
6/15/2022 10:00:00 AM 15.45 59.81 0.872 8.01 7.12 9.18
6/15/2022 10:15:00 AM 15.53 59.954 0.873 8.01 6.49 9.29
6/15/2022 10:30:00 AM 15.63 60.134 0.874 8.04 6.92 9.43
6/15/2022 10:45:00 AM 15.74 60.332 0.876 8.05 7.42 9.56
6/15/2022 11:00:00 AM 15.86 60.548 0.878 8.06 6.75 9.68
6/15/2022 11:15:00 AM 16 60.8 0.881 8.07 6.75 9.8
6/15/2022 11:30:00 AM 16.16 61.088 0.886 8.09 7.23 9.92
6/15/2022 11:45:00 AM 16.34 61.412 0.893 8.11 6.73 10.04
6/15/2022 12:00:00 PM 16.55 61.79 0.902 8.12 7.36 10.15
6/15/2022 12:15:00 PM 16.78 62.204 0.912 8.14 7.03 10.25
6/15/2022 12:30:00 PM 17.02 62.636 0.924 8.15 6.99 10.33
6/15/2022 12:45:00 PM 17.28 63.104 0.936 8.17 6.75 10.41
6/15/2022 1:00:00 PM 17.54 63.572 0.949 8.19 7.26 10.49
6/15/2022 1:15:00 PM 17.81 64.058 0.959 8.2 6.63 10.56
6/15/2022 1:30:00 PM 18.07 64.526 0.968 8.21 6.99 10.61
6/15/2022 1:45:00 PM 18.32 64.976 0.973 8.23 7.54 10.64
6/15/2022 2:00:00 PM 18.56 65.408 0.977 8.23 6.36 10.63
6/15/2022 2:15:00 PM 18.78 65.804 0.977 8.25 6.38 10.62
6/15/2022 2:30:00 PM 18.97 66.146 0.973 8.26 6.27 10.6
6/15/2022 2:45:00 PM 19.14 66.452 0.967 8.27 6.69 10.58
6/15/2022 3:00:00 PM 19.3 66.74 0.961 8.28 6.67 10.56
6/15/2022 3:15:00 PM 19.39 66.902 0.955 8.28 7.08 10.44
6/15/2022 3:30:00 PM 19.47 67.046 0.951 8.28 6.39 10.35
6/15/2022 3:45:00 PM 19.51 67.118 0.948 8.27 6.47 10.23
6/15/2022 4:00:00 PM 19.56 67.208 0.946 8.28 6.08 10.12
6/15/2022 4:15:00 PM 19.59 67.262 0.945 8.27 6.39 10.04
6/15/2022 4:30:00 PM 19.63 67.334 0.945 8.27 6.56 9.94
6/15/2022 4:45:00 PM 19.67 67.406 0.948 8.25 6.38 9.85
6/15/2022 5:00:00 PM 19.73 67.514 0.953 8.26 6.19 9.75
6/15/2022 5:15:00 PM 19.73 67.514 0.96 8.25 5.97 9.6
6/15/2022 5:30:00 PM 19.73 67.514 0.967 8.23 6.19 9.47
6/15/2022 5:45:00 PM 19.71 67.478 0.972 8.22 6.37 9.33
6/15/2022 6:00:00 PM 19.69 67.442 0.975 8.21 6.66 9.22
6/15/2022 6:15:00 PM 19.67 67.406 0.978 8.2 6.7 9.1
6/15/2022 6:30:00 PM 19.65 67.37 0.979 8.18 5.91 9
6/15/2022 6:45:00 PM 19.62 67.316 0.979 8.18 6.02 8.89
6/15/2022 7:00:00 PM 19.56 67.208 0.977 8.17 5.93 8.77
6/15/2022 7:15:00 PM 19.48 67.064 0.972 8.15 6.24 8.66
6/15/2022 7:30:00 PM 19.39 66.902 0.966 8.13 6.43 8.57
6/15/2022 7:45:00 PM 19.31 66.758 0.96 8.13 6.19 8.46
6/15/2022 8:00:00 PM 19.21 66.578 0.954 8.11 7.28 8.33
6/15/2022 8:15:00 PM 19.12 66.416 0.949 8.1 6.14 8.21
6/15/2022 8:30:00 PM 19.03 66.254 0.947 8.08 6.2 8.1
6/15/2022 8:45:00 PM 18.95 66.11 0.946 8.07 6.8 7.99
6/15/2022 9:00:00 PM 18.86 65.948 0.947 8.05 7.73 7.88
6/15/2022 9:15:00 PM 18.78 65.804 0.948 8.05 7.81 7.81
6/15/2022 9:30:00 PM 18.7 65.66 0.949 8.04 8.05 7.75
6/15/2022 9:45:00 PM 18.61 65.498 0.951 8.03 8.66 7.7
6/15/2022 10:00:00 PM 18.53 65.354 0.953 8.02 8.53 7.62
6/15/2022 10:15:00 PM 18.44 65.192 0.956 8.01 8.12 7.61
6/15/2022 10:30:00 PM 18.36 65.048 0.96 8.01 8.88 7.57
6/15/2022 10:45:00 PM 18.27 64.886 0.965 8 9.46 7.54
6/15/2022 11:00:00 PM 18.18 64.724 0.97 7.98 8.42 7.51
6/15/2022 11:15:00 PM 18.11 64.598 0.975 7.99 8.94 7.49
6/15/2022 11:30:00 PM 18.03 64.454 0.981 7.97 8.66 7.46
6/15/2022 11:45:00 PM 17.95 64.31 0.986 7.97 8.57 7.44
6/16/2022 12:00:00 AM 17.87 64.166 0.991 7.96 10.44 7.41
6/16/2022 12:15:00 AM 17.8 64.04 0.995 7.95 8.6 7.4
6/16/2022 12:30:00 AM 17.73 63.914 0.999 7.95 8.41 7.39
6/16/2022 12:45:00 AM 17.66 63.788 1.002 7.95 8.63 7.38
6/16/2022 1:00:00 AM 17.58 63.644 1.004 7.95 9.1 7.38
6/16/2022 1:15:00 AM 17.51 63.518 1.006 7.94 8.51 7.38
6/16/2022 1:30:00 AM 17.44 63.392 1.008 7.94 7.82 7.36
6/16/2022 1:45:00 AM 17.38 63.284 1.011 7.93 8.59 7.38
6/16/2022 2:00:00 AM 17.31 63.158 1.013 7.94 8.43 7.38
6/16/2022 2:15:00 AM 17.25 63.05 1.014 7.92 8.18 7.38
6/16/2022 2:30:00 AM 17.19 62.942 1.015 7.93 7.86 7.4
6/16/2022 2:45:00 AM 17.14 62.852 1.014 7.93 8.52 7.42
6/16/2022 3:00:00 AM 17.08 62.744 1.012 7.93 8.35 7.41
6/16/2022 3:15:00 AM 17.03 62.654 1.01 7.93 8.85 7.43
6/16/2022 3:30:00 AM 16.98 62.564 1.009 7.93 8.48 7.44
6/16/2022 3:45:00 AM 16.92 62.456 1.006 7.92 8.57 7.45
6/16/2022 4:00:00 AM 16.87 62.366 1.001 7.93 9.28 7.47
6/16/2022 4:15:00 AM 16.81 62.258 0.998 7.93 9.42 7.48
6/16/2022 4:30:00 AM 16.76 62.168 0.993 7.93 10.86 7.49
6/16/2022 4:45:00 AM 16.7 62.06 0.987 7.93 9.6 7.52
6/16/2022 5:00:00 AM 16.65 61.97 0.977 7.92 9.04 7.56
6/16/2022 5:15:00 AM 16.59 61.862 0.967 7.93 10.45 7.56
6/16/2022 5:30:00 AM 16.56 61.808 0.95 7.94 10.76 7.59
6/16/2022 5:45:00 AM 16.53 61.754 0.934 7.92 11.09 7.6
6/16/2022 6:00:00 AM 16.48 61.664 0.922 7.94 10.25 7.6
6/16/2022 6:15:00 AM 16.38 61.484 0.915 7.93 9.37 7.67
6/16/2022 6:30:00 AM 16.29 61.322 0.905 7.94 9.42 7.72
6/16/2022 6:45:00 AM 16.22 61.196 0.892 7.94 9.24 7.79
6/16/2022 7:00:00 AM 16.16 61.088 0.879 7.94 10.26 7.84
6/16/2022 7:15:00 AM 16.1 60.98 0.867 7.93 10.52 7.88
6/16/2022 7:30:00 AM 16.03 60.854 0.86 7.93 11.56 7.95
6/16/2022 7:45:00 AM 15.95 60.71 0.855 7.93 14.04 7.99
6/16/2022 8:00:00 AM 15.91 60.638 0.847 7.93 15.67 8.01
6/16/2022 8:15:00 AM 15.87 60.566 0.844 7.92 18.27 8.04
6/16/2022 8:30:00 AM 15.8 60.44 0.847 7.91 18.95 8.07
6/16/2022 8:45:00 AM 15.76 60.368 0.847 7.9 16.06 8.08
6/16/2022 9:00:00 AM 15.74 60.332 0.841 7.9 14.18 8.08
6/16/2022 9:15:00 AM 15.74 60.332 0.826 7.89 13.19 8.06
6/16/2022 9:30:00 AM 15.75 60.35 0.804 7.89 12.86 8.06
6/16/2022 9:45:00 AM 15.75 60.35 0.78 7.88 11.38 8.07
6/16/2022 10:00:00 AM 15.78 60.404 0.752 7.88 12.02 8.1
6/16/2022 10:15:00 AM 15.87 60.566 0.727 7.88 12.18 8.07
6/16/2022 10:30:00 AM 16.01 60.818 0.707 7.86 12.11 8.05
6/16/2022 10:45:00 AM 16.14 61.052 0.695 7.86 11.1 8.02
6/16/2022 11:00:00 AM 16.31 61.358 0.683 7.85 11.78 7.97
6/16/2022 11:15:00 AM 16.5 61.7 0.673 7.85 12.01 7.91
6/16/2022 11:30:00 AM 16.71 62.078 0.668 7.84 12.24 7.87
6/16/2022 11:45:00 AM 16.92 62.456 0.67 7.83 12.2 7.9
6/16/2022 12:00:00 PM 17.12 62.816 0.681 7.82 13.5 8
6/16/2022 12:15:00 PM 17.32 63.176 0.7 7.84 13.79 8.13
6/16/2022 12:30:00 PM 17.45 63.41 0.72 7.83 15.17 8.19
6/16/2022 12:45:00 PM 17.51 63.518 0.743 7.85 15.8 8.23
6/16/2022 1:00:00 PM 17.49 63.482 0.77 7.83 17.26 8.24
6/16/2022 1:15:00 PM 17.46 63.428 0.802 7.84 14.49 8.26
6/16/2022 1:30:00 PM 17.44 63.392 0.829 7.85 13.44 8.25
6/16/2022 1:45:00 PM 17.45 63.41 0.84 7.85 13.36 8.28
6/16/2022 2:00:00 PM 17.46 63.428 0.837 7.86 12.75 8.36
6/16/2022 2:15:00 PM 17.45 63.41 0.826 7.87 11.05 8.46
6/16/2022 2:30:00 PM 17.43 63.374 0.811 7.9 11.67 8.59
6/16/2022 2:45:00 PM 17.42 63.356 0.796 7.91 11.44 8.7
6/16/2022 3:00:00 PM 17.43 63.374 0.781 7.91 11.41 8.7
6/16/2022 3:15:00 PM 17.48 63.464 0.766 7.92 10.69 8.68
6/16/2022 3:30:00 PM 17.56 63.608 0.753 7.91 11.17 8.63
6/16/2022 3:45:00 PM 17.66 63.788 0.741 7.92 10.77 8.54
6/16/2022 4:00:00 PM 17.78 64.004 0.734 7.9 11.02 8.51
6/16/2022 4:15:00 PM 17.87 64.166 0.732 7.91 10.84 8.5
6/16/2022 4:30:00 PM 17.94 64.292 0.736 7.91 11.05 8.46
6/16/2022 4:45:00 PM 17.97 64.346 0.745 7.89 11.09 8.44
6/16/2022 5:00:00 PM 17.98 64.364 0.758 7.91 11.02 8.45
6/16/2022 5:15:00 PM 17.96 64.328 0.774 7.91 10.36 8.45
6/16/2022 5:30:00 PM 17.93 64.274 0.791 7.91 10.6 8.48
6/16/2022 5:45:00 PM 17.9 64.22 0.806 7.92 10.31 8.56
6/16/2022 6:00:00 PM 17.86 64.148 0.82 7.93 9.79 8.65
6/16/2022 6:15:00 PM 17.82 64.076 0.832 7.93 9.63 8.72
6/16/2022 6:30:00 PM 17.75 63.95 0.844 7.95 9.24 8.75
6/16/2022 6:45:00 PM 17.69 63.842 0.858 7.96 9.4 8.79
6/16/2022 7:00:00 PM 17.63 63.734 0.875 7.97 8.87 8.77
6/16/2022 7:15:00 PM 17.56 63.608 0.892 7.97 8.56 8.73
6/16/2022 7:30:00 PM 17.49 63.482 0.909 7.97 8.55 8.65
6/16/2022 7:45:00 PM 17.42 63.356 0.923 7.96 8 8.56
6/16/2022 8:00:00 PM 17.35 63.23 0.933 7.95 8.37 8.47
6/16/2022 8:15:00 PM 17.29 63.122 0.939 7.95 8.06 8.4
6/16/2022 8:30:00 PM 17.23 63.014 0.942 7.95 7.66 8.33
6/16/2022 8:45:00 PM 17.18 62.924 0.944 7.95 7.5 8.27
6/16/2022 9:00:00 PM 17.13 62.834 0.945 7.95 8.17 8.21
6/16/2022 9:15:00 PM 17.08 62.744 0.945 7.95 8.55 8.16
6/16/2022 9:30:00 PM 17.03 62.654 0.943 7.95 8.63 8.13
6/16/2022 9:45:00 PM 16.98 62.564 0.939 7.94 9.69 8.1
6/16/2022 10:00:00 PM 16.92 62.456 0.935 7.94 8.95 8.05
6/16/2022 10:15:00 PM 16.86 62.348 0.933 7.94 8.89 8.02
6/16/2022 10:30:00 PM 16.79 62.222 0.931 7.92 8.63 7.99
6/16/2022 10:45:00 PM 16.73 62.114 0.929 7.93 9.55 7.94
6/16/2022 11:00:00 PM 16.68 62.024 0.929 7.91 9.52 7.91
6/16/2022 11:15:00 PM 16.62 61.916 0.93 7.92 9.36 7.87
6/16/2022 11:30:00 PM 16.57 61.826 0.931 7.92 9.06 7.85
6/16/2022 11:45:00 PM 16.52 61.736 0.932 7.9 9.32 7.83
6/17/2022 12:00:00 AM 16.47 61.646 0.932 7.91 9.93 7.81
6/17/2022 12:15:00 AM 16.43 61.574 0.933 7.89 9.85 7.8
6/17/2022 12:30:00 AM 16.39 61.502 0.933 7.9 9.16 7.78
6/17/2022 12:45:00 AM 16.35 61.43 0.932 7.9 9.63 7.78
6/17/2022 1:00:00 AM 16.31 61.358 0.93 7.89 9.57 7.77
6/17/2022 1:15:00 AM 16.27 61.286 0.93 7.89 9.97 7.76
6/17/2022 1:30:00 AM 16.24 61.232 0.929 7.89 10.61 7.76
6/17/2022 1:45:00 AM 16.21 61.178 0.929 7.88 10.82 7.76
6/17/2022 2:00:00 AM 16.17 61.106 0.929 7.88 14.21 7.77
6/17/2022 2:15:00 AM 16.14 61.052 0.929 7.88 10.21 7.77
6/17/2022 2:30:00 AM 16.1 60.98 0.93 7.88 9.38 7.77
6/17/2022 2:45:00 AM 16.07 60.926 0.929 7.88 9.85 7.78
6/17/2022 3:00:00 AM 16.03 60.854 0.929 7.88 23.48 7.79
6/17/2022 3:15:00 AM 16 60.8 0.927 7.88 10.46 7.8
6/17/2022 3:30:00 AM 15.96 60.728 0.925 7.87 9.56 7.81
6/17/2022 3:45:00 AM 15.93 60.674 0.922 7.88 9.49 7.65
6/17/2022 4:00:00 AM 15.89 60.602 0.918 7.88 10.15 7.83
6/17/2022 4:15:00 AM 15.85 60.53 0.914 7.88 9.49 7.85
6/17/2022 4:30:00 AM 15.82 60.476 0.909 7.88 9.58 7.86
6/17/2022 4:45:00 AM 15.78 60.404 0.904 7.88 9.92 7.88
6/17/2022 5:00:00 AM 15.75 60.35 0.898 7.88 9.82 7.9
6/17/2022 5:15:00 AM 15.71 60.278 0.891 7.88 9.88 7.92
6/17/2022 5:30:00 AM 15.67 60.206 0.885 7.88 9.6 7.92
6/17/2022 5:45:00 AM 15.63 60.134 0.879 7.88 10 7.96
6/17/2022 6:00:00 AM 15.59 60.062 0.874 7.88 9.89 7.99
6/17/2022 6:15:00 AM 15.55 59.99 0.869 7.88 9.25 8.02
6/17/2022 6:30:00 AM 15.51 59.918 0.864 7.89 9.03 8.07
6/17/2022 6:45:00 AM 15.48 59.864 0.861 7.89 8.78 8.11
6/17/2022 7:00:00 AM 15.46 59.828 0.859 7.89 8.68 8.17
6/17/2022 7:15:00 AM 15.44 59.792 0.857 7.9 8.74 8.26
6/17/2022 7:30:00 AM 15.43 59.774 0.855 7.91 8.57 8.33
6/17/2022 7:45:00 AM 15.43 59.774 0.855 7.91 8.12 8.4
6/17/2022 8:00:00 AM 15.44 59.792 0.855 7.92 8.62 8.47
6/17/2022 8:15:00 AM 15.46 59.828 0.856 7.93 8.35 8.56
6/17/2022 8:30:00 AM 15.48 59.864 0.858 7.94 7.87 8.64
6/17/2022 8:45:00 AM 15.52 59.936 0.86 7.95 8.22 8.72
6/17/2022 9:00:00 AM 15.56 60.008 0.86 7.96 8.43 8.8
6/17/2022 9:15:00 AM 15.63 60.134 0.861 7.97 7.66 8.9
6/17/2022 9:30:00 AM 15.71 60.278 0.861 7.98 8.25 8.98
6/17/2022 9:45:00 AM 15.81 60.458 0.862 7.98 8.31 9.07
6/17/2022 10:00:00 AM 15.9 60.62 0.862 8.01 9 9.16
6/17/2022 10:15:00 AM 16.01 60.818 0.862 8.01 8.54 9.27
6/17/2022 10:30:00 AM 16.13 61.034 0.862 8.03 8.3 9.38
6/17/2022 10:45:00 AM 16.25 61.25 0.862 8.05 8.4 9.5
6/17/2022 11:00:00 AM 16.39 61.502 0.864 8.06 8.17 9.62
6/17/2022 11:15:00 AM 16.54 61.772 0.867 8.08 8.33 9.73
6/17/2022 11:30:00 AM 16.7 62.06 0.871 8.1 8.33 9.82
6/17/2022 11:45:00 AM 16.9 62.42 0.877 8.11 8.82 9.93
6/17/2022 12:00:00 PM 17.07 62.726 0.887 8.12 8.46 9.97
6/17/2022 12:15:00 PM 17.27 63.086 0.898 8.13 8.52 9.99
6/17/2022 12:30:00 PM 17.52 63.536 0.91 8.15 9.17 10.07
6/17/2022 12:45:00 PM 17.77 63.986 0.921 8.16 8.74 10.15
6/17/2022 1:00:00 PM 18.02 64.436 0.931 8.18 8.81 10.24
6/17/2022 1:15:00 PM 18.29 64.922 0.939 8.2 8.67 10.3
6/17/2022 1:30:00 PM 18.56 65.408 0.943 8.21 8.19 10.38
6/17/2022 1:45:00 PM 18.81 65.858 0.946 8.23 7.8 10.42
6/17/2022 2:00:00 PM 19.05 66.29 0.949 8.25 7.93 10.43
6/17/2022 2:15:00 PM 19.26 66.668 0.95 8.26 7.79 10.4
6/17/2022 2:30:00 PM 19.45 67.01 0.951 8.25 7.66 10.33
6/17/2022 2:45:00 PM 19.63 67.334 0.951 8.26 8.01 10.27
6/17/2022 3:00:00 PM 19.8 67.64 0.95 8.27 8.22 10.2
6/17/2022 3:15:00 PM 19.95 67.91 0.949 8.28 8.38 10.13
6/17/2022 3:30:00 PM 20.07 68.126 0.949 8.28 8.36 10.04
6/17/2022 3:45:00 PM 20.18 68.324 0.95 8.27 8.51 9.94
6/17/2022 4:00:00 PM 20.26 68.468 0.952 8.28 7.94 9.83
6/17/2022 4:15:00 PM 20.33 68.594 0.956 8.28 8.06 9.75
6/17/2022 4:30:00 PM 20.38 68.684 0.961 8.26 8.29 9.63
6/17/2022 4:45:00 PM 20.42 68.756 0.964 8.26 8.24 9.54
6/17/2022 5:00:00 PM 20.44 68.792 0.965 8.26 8.33 9.43
6/17/2022 5:15:00 PM 20.44 68.792 0.964 8.25 7.57 9.31
6/17/2022 5:30:00 PM 20.41 68.738 0.961 8.24 7.89 9.19
6/17/2022 5:45:00 PM 20.37 68.666 0.957 8.23 7.89 9.09
6/17/2022 6:00:00 PM 20.31 68.558 0.955 8.21 8.04 8.98
6/17/2022 6:15:00 PM 20.24 68.432 0.952 8.21 7.45 8.84
6/17/2022 6:30:00 PM 20.16 68.288 0.949 8.2 7.87 8.72
6/17/2022 6:45:00 PM 20.08 68.144 0.948 8.19 8 8.6
6/17/2022 7:00:00 PM 19.98 67.964 0.946 8.17 7.75 8.49
6/17/2022 7:15:00 PM 19.88 67.784 0.945 8.15 7.64 8.37
6/17/2022 7:30:00 PM 19.78 67.604 0.945 8.15 7.63 8.27
6/17/2022 7:45:00 PM 19.67 67.406 0.944 8.13 7.93 8.16
6/17/2022 8:00:00 PM 19.55 67.19 0.945 8.12 7.56 8.05
6/17/2022 8:15:00 PM 19.44 66.992 0.946 8.09 8.09 7.95
6/17/2022 8:30:00 PM 19.32 66.776 0.947 8.09 7.62 7.86
6/17/2022 8:45:00 PM 19.2 66.56 0.948 8.07 8.47 7.79
6/17/2022 9:00:00 PM 19.08 66.344 0.95 8.07 8.31 7.72
6/17/2022 9:15:00 PM 18.96 66.128 0.952 8.04 8.94 7.65
6/17/2022 9:30:00 PM 18.84 65.912 0.955 8.04 9.93 7.6
6/17/2022 9:45:00 PM 18.72 65.696 0.958 8.03 9.67 7.55
6/17/2022 10:00:00 PM 18.6 65.48 0.961 8.03 9.18 7.51
6/17/2022 10:15:00 PM 18.48 65.264 0.963 8.02 9.81 7.48
6/17/2022 10:30:00 PM 18.36 65.048 0.966 8.01 9.54 7.46
6/17/2022 10:45:00 PM 18.24 64.832 0.969 8 9.86 7.44
6/17/2022 11:00:00 PM 18.12 64.616 0.972 7.99 10.03 7.43
6/17/2022 11:15:00 PM 18 64.4 0.975 7.99 10.55 7.42
6/17/2022 11:30:00 PM 17.89 64.202 0.977 7.98 10.37 7.41
6/17/2022 11:45:00 PM 17.77 63.986 0.977 7.98 10.2 7.41
6/18/2022 12:00:00 AM 17.65 63.77 0.977 7.98 10.58 7.4
6/18/2022 12:15:00 AM 17.53 63.554 0.976 7.96 10.82 7.41
6/18/2022 12:30:00 AM 17.41 63.338 0.976 7.97 10.18 7.42
6/18/2022 12:45:00 AM 17.29 63.122 0.976 7.96 10.07 7.43
6/18/2022 1:00:00 AM 17.17 62.906 0.976 7.96 9.81 7.44
6/18/2022 1:15:00 AM 17.04 62.672 0.976 7.96 10.17 7.47
6/18/2022 1:30:00 AM 16.93 62.474 0.975 7.96 10.94 7.48
6/18/2022 1:45:00 AM 16.82 62.276 0.975 7.95 10.79 7.51
6/18/2022 2:00:00 AM 16.71 62.078 0.974 7.95 17.17 7.51
6/18/2022 2:15:00 AM 16.6 61.88 0.974 7.94 10.43 7.55
6/18/2022 2:30:00 AM 16.49 61.682 0.973 7.95 11.14 7.57
6/18/2022 2:45:00 AM 16.4 61.52 0.972 7.94 10.2 7.6
6/18/2022 3:00:00 AM 16.31 61.358 0.972 7.95 10.58 7.62
6/18/2022 3:15:00 AM 16.23 61.214 0.972 7.95 10.56 7.65
6/18/2022 3:30:00 AM 16.14 61.052 0.971 7.95 10.88 7.67
6/18/2022 3:45:00 AM 16.07 60.926 0.97 7.94 10.32 7.69
6/18/2022 4:00:00 AM 16.01 60.818 0.969 7.95 10.49 7.7
6/18/2022 4:15:00 AM 15.94 60.692 0.967 7.95 11.64 7.73
6/18/2022 4:30:00 AM 15.87 60.566 0.965 7.94 10.4 7.74
6/18/2022 4:45:00 AM 15.81 60.458 0.963 7.93 10.63 7.77
6/18/2022 5:00:00 AM 15.75 60.35 0.963 7.95 10.65 7.78
6/18/2022 5:15:00 AM 15.7 60.26 0.964 7.94 11.31 7.8
6/18/2022 5:30:00 AM 15.65 60.17 0.964 7.95 10.13 7.81
6/18/2022 5:45:00 AM 15.6 60.08 0.961 7.95 9.51 7.84
6/18/2022 6:00:00 AM 15.55 59.99 0.954 7.95 9.69 7.87
6/18/2022 6:15:00 AM 15.49 59.882 0.944 7.94 9.43 7.92
6/18/2022 6:30:00 AM 15.43 59.774 0.933 7.95 9.39 7.97
6/18/2022 6:45:00 AM 15.36 59.648 0.921 7.95 8.63 8.04
6/18/2022 7:00:00 AM 15.31 59.558 0.911 7.96 8.88 8.11
6/18/2022 7:15:00 AM 15.25 59.45 0.902 7.97 9.48 8.18
6/18/2022 7:30:00 AM 15.2 59.36 0.894 7.96 8.23 8.25
6/18/2022 7:45:00 AM 15.16 59.288 0.888 7.98 8.77 8.36
6/18/2022 8:00:00 AM 15.13 59.234 0.883 7.99 8.71 8.46
6/18/2022 8:15:00 AM 15.11 59.198 0.88 8 8.62 8.53
6/18/2022 8:30:00 AM 15.1 59.18 0.88 8 8.31 8.63
6/18/2022 8:45:00 AM 15.09 59.162 0.881 8.02 8.39 8.74
6/18/2022 9:00:00 AM 15.09 59.162 0.882 8.02 8.26 8.8
6/18/2022 9:15:00 AM 15.08 59.144 0.883 8.03 8.76 8.86
6/18/2022 9:30:00 AM 15.09 59.162 0.883 8.04 8.14 8.93
6/18/2022 9:45:00 AM 15.08 59.144 0.884 8.04 8.52 8.99
6/18/2022 10:00:00 AM 15.07 59.126 0.884 8.05 8.7 9.01
6/18/2022 10:15:00 AM 15.07 59.126 0.883 8.06 8.77 9.06
6/18/2022 10:30:00 AM 15.08 59.144 0.882 8.07 8.55 9.18
6/18/2022 10:45:00 AM 15.14 59.252 0.881 8.08 8.77 9.41
6/18/2022 11:00:00 AM 15.14 59.252 0.878 8.09 8.47 9.44
6/18/2022 11:15:00 AM 15.16 59.288 0.876 8.1 8.29 9.49
6/18/2022 11:30:00 AM 15.23 59.414 0.876 8.11 8.49 9.63
6/18/2022 11:45:00 AM 15.23 59.414 0.879 8.12 8.23 9.63
6/18/2022 12:00:00 PM 15.23 59.414 0.885 8.13 8.34 9.63
6/18/2022 12:15:00 PM 15.29 59.522 0.893 8.13 8.98 9.75
6/18/2022 12:30:00 PM 15.35 59.63 0.904 8.14 8.33 9.77
6/18/2022 12:45:00 PM 15.43 59.774 0.916 8.15 8.34 9.8
6/18/2022 1:00:00 PM 15.5 59.9 0.927 8.15 8.75 9.84
6/18/2022 1:15:00 PM 15.56 60.008 0.936 8.17 8.22 9.9
6/18/2022 1:30:00 PM 15.76 60.368 0.943 8.19 8.81 10.14
6/18/2022 1:45:00 PM 15.85 60.53 0.951 8.19 9.07 10.14
6/18/2022 2:00:00 PM 15.96 60.728 0.958 8.19 9.27 10.08
6/18/2022 2:15:00 PM 16.06 60.908 0.966 8.2 9.6 10.05
6/18/2022 2:30:00 PM 16.16 61.088 0.975 8.21 8.55 10.06
6/18/2022 2:45:00 PM 16.28 61.304 0.982 8.21 8.43 10.07
6/18/2022 3:00:00 PM 16.46 61.628 0.987 8.23 8.32 10.19
6/18/2022 3:15:00 PM 16.62 61.916 0.99 8.24 8.42 10.27
6/18/2022 3:30:00 PM 16.76 62.168 0.991 8.25 8.76 10.32
6/18/2022 3:45:00 PM 16.89 62.402 0.993 8.26 8.55 10.3
6/18/2022 4:00:00 PM 17 62.6 0.994 8.26 8.44 10.28
6/18/2022 4:15:00 PM 17.09 62.762 0.995 8.27 8.45 10.24
6/18/2022 4:30:00 PM 17.13 62.834 0.997 8.27 8.77 10.15
6/18/2022 4:45:00 PM 17.18 62.924 0.997 8.26 8.18 10.1
6/18/2022 5:00:00 PM 17.22 62.996 0.997 8.25 8.19 10.04
6/18/2022 5:15:00 PM 17.24 63.032 0.995 8.26 8.52 9.97
6/18/2022 5:30:00 PM 17.24 63.032 0.992 8.26 8.24 9.89
6/18/2022 5:45:00 PM 17.22 62.996 0.989 8.25 8.17 9.8
6/18/2022 6:00:00 PM 17.19 62.942 0.986 8.24 8.3 9.7
6/18/2022 6:15:00 PM 17.16 62.888 0.984 8.23 8.36 9.61
6/18/2022 6:30:00 PM 17.14 62.852 0.983 8.22 7.95 9.5
6/18/2022 6:45:00 PM 17.11 62.798 0.982 8.21 8.21 9.41
6/18/2022 7:00:00 PM 17.08 62.744 0.983 8.2 8.2 9.29
6/18/2022 7:15:00 PM 17.02 62.636 0.983 8.19 7.88 9.2
6/18/2022 7:30:00 PM 16.98 62.564 0.982 8.17 8.03 9.1
6/18/2022 7:45:00 PM 16.92 62.456 0.98 8.17 7.69 8.99
6/18/2022 8:00:00 PM 16.85 62.33 0.978 8.15 8.91 8.88
6/18/2022 8:15:00 PM 16.78 62.204 0.976 8.14 7.92 8.79
6/18/2022 8:30:00 PM 16.7 62.06 0.975 8.13 7.88 8.7
6/18/2022 8:45:00 PM 16.63 61.934 0.975 8.12 8.84 8.61
6/18/2022 9:00:00 PM 16.55 61.79 0.976 8.11 8.45 8.54
6/18/2022 9:15:00 PM 16.47 61.646 0.976 8.1 8.51 8.47
6/18/2022 9:30:00 PM 16.39 61.502 0.975 8.09 9.32 8.42
6/18/2022 9:45:00 PM 16.29 61.322 0.973 8.08 8.91 8.36
6/18/2022 10:00:00 PM 16.21 61.178 0.971 8.08 9.28 8.32
6/18/2022 10:15:00 PM 16.11 60.998 0.969 8.06 9.29 8.28
6/18/2022 10:30:00 PM 16.02 60.836 0.967 8.06 9.78 8.25
6/18/2022 10:45:00 PM 15.92 60.656 0.965 8.06 9.93 8.23
6/18/2022 11:00:00 PM 15.82 60.476 0.964 8.05 10.01 8.21
6/18/2022 11:15:00 PM 15.73 60.314 0.963 8.04 9.21 8.19
6/18/2022 11:30:00 PM 15.64 60.152 0.964 8.04 9.69 8.17
6/18/2022 11:45:00 PM 15.55 59.99 0.965 8.03 9.2 8.16
6/19/2022 12:00:00 AM 15.46 59.828 0.967 8.01 9.63 8.16
6/19/2022 12:15:00 AM 15.37 59.666 0.968 8.02 10.32 8.15
6/19/2022 12:30:00 AM 15.28 59.504 0.969 8.02 9.95 8.15
6/19/2022 12:45:00 AM 15.19 59.342 0.969 8 9.82 8.16
6/19/2022 1:00:00 AM 15.1 59.18 0.969 8.01 9.65 8.16
6/19/2022 1:15:00 AM 15.01 59.018 0.968 7.99 9.79 8.17
6/19/2022 1:30:00 AM 14.93 58.874 0.967 7.99 9.77 8.18
6/19/2022 1:45:00 AM 14.85 58.73 0.965 7.99 9.55 8.19
6/19/2022 2:00:00 AM 14.76 58.568 0.963 7.99 10.22 8.2
6/19/2022 2:15:00 AM 14.68 58.424 0.962 7.99 10.78 8.22
6/19/2022 2:30:00 AM 14.61 58.298 0.961 7.99 11.03 8.24
6/19/2022 2:45:00 AM 14.55 58.19 0.96 7.99 10.06 8.25
6/19/2022 3:00:00 AM 14.49 58.082 0.96 7.98 10.01 8.26
6/19/2022 3:15:00 AM 14.43 57.974 0.96 7.98 10.31 8.28
6/19/2022 3:30:00 AM 14.37 57.866 0.96 7.98 9.45 8.3
6/19/2022 3:45:00 AM 14.32 57.776 0.959 7.98 9.78 8.31
6/19/2022 4:00:00 AM 14.28 57.704 0.956 7.97 9.88 8.31
6/19/2022 4:15:00 AM 14.23 57.614 0.953 7.99 10.24 8.33
6/19/2022 4:30:00 AM 14.18 57.524 0.948 7.99 9.4 8.35
6/19/2022 4:45:00 AM 14.14 57.452 0.943 7.98 10.31 8.36
6/19/2022 5:00:00 AM 14.1 57.38 0.939 7.99 9.55 8.37
6/19/2022 5:15:00 AM 14.06 57.308 0.934 7.99 10.14 8.38
6/19/2022 5:30:00 AM 14.05 57.29 0.927 7.99 10.63 8.39
6/19/2022 5:45:00 AM 14 57.2 0.922 7.98 9.94 8.42
6/19/2022 6:00:00 AM 13.94 57.092 0.916 7.99 9.13 8.45
6/19/2022 6:15:00 AM 13.88 56.984 0.909 7.99 9.13 8.49
6/19/2022 6:30:00 AM 13.83 56.894 0.902 8 9.15 8.53
6/19/2022 6:45:00 AM 13.78 56.804 0.894 8 9.29 8.58
6/19/2022 7:00:00 AM 13.73 56.714 0.886 8 9.09 8.64
6/19/2022 7:15:00 AM 13.69 56.642 0.879 8.01 9.13 8.7
6/19/2022 7:30:00 AM 13.65 56.57 0.873 8.01 8.52 8.75
6/19/2022 7:45:00 AM 13.62 56.516 0.868 8.02 8.5 8.81
6/19/2022 8:00:00 AM 13.61 56.498 0.865 8.02 8.66 8.87
6/19/2022 8:15:00 AM 13.62 56.516 0.862 8.02 9.18 8.97
6/19/2022 8:30:00 AM 13.63 56.534 0.861 8.04 8.41 9.08
6/19/2022 8:45:00 AM 13.65 56.57 0.861 8.05 8.58 9.2
6/19/2022 9:00:00 AM 13.68 56.624 0.862 8.06 8.19 9.3
6/19/2022 9:15:00 AM 13.72 56.696 0.864 8.07 8.24 9.39
6/19/2022 9:30:00 AM 13.77 56.786 0.865 8.09 8.49 9.48
6/19/2022 9:45:00 AM 13.84 56.912 0.866 8.08 8.63 9.57
6/19/2022 10:00:00 AM 13.91 57.038 0.866 8.1 8.56 9.65
6/19/2022 10:15:00 AM 13.99 57.182 0.865 8.11 8.57 9.74
6/19/2022 10:30:00 AM 14.08 57.344 0.862 8.12 8.54 9.84
6/19/2022 10:45:00 AM 14.17 57.506 0.86 8.14 10.33 9.93
6/19/2022 11:00:00 AM 14.27 57.686 0.858 8.14 9.78 10.03
6/19/2022 11:15:00 AM 14.38 57.884 0.857 8.17 9.23 10.18
6/19/2022 11:30:00 AM 14.51 58.118 0.856 8.18 9.12 10.3
6/19/2022 11:45:00 AM 14.67 58.406 0.855 8.2 9.48 10.41
6/19/2022 12:00:00 PM 14.84 58.712 0.855 8.2 9.25 10.52
6/19/2022 12:15:00 PM 15.03 59.054 0.858 8.23 8.55 10.62
6/19/2022 12:30:00 PM 15.25 59.45 0.865 8.24 9.06 10.72
6/19/2022 12:45:00 PM 15.49 59.882 0.877 8.25 8.73 10.79
6/19/2022 1:00:00 PM 15.73 60.314 0.889 8.27 8.68 10.85
6/19/2022 1:15:00 PM 15.99 60.782 0.901 8.28 8.45 10.88
6/19/2022 1:30:00 PM 16.24 61.232 0.913 8.28 8.58 10.91
6/19/2022 1:45:00 PM 16.49 61.682 0.923 8.3 9.08 10.95
6/19/2022 2:00:00 PM 16.73 62.114 0.932 8.31 8.79 10.95
6/19/2022 2:15:00 PM 16.95 62.51 0.939 8.31 8.75 10.92
6/19/2022 2:30:00 PM 17.17 62.906 0.944 8.32 8.69 10.87
6/19/2022 2:45:00 PM 17.37 63.266 0.948 8.32 10.98 10.81
6/19/2022 3:00:00 PM 17.55 63.59 0.95 8.33 8.46 10.76
6/19/2022 3:15:00 PM 17.71 63.878 0.953 8.33 7.92 10.69
6/19/2022 3:30:00 PM 17.85 64.13 0.956 8.33 8.19 10.59
6/19/2022 3:45:00 PM 17.97 64.346 0.96 8.33 8.36 10.5
6/19/2022 4:00:00 PM 18.07 64.526 0.963 8.32 8.96 10.41
6/19/2022 4:15:00 PM 18.16 64.688 0.965 8.33 8.24 10.31
6/19/2022 4:30:00 PM 18.22 64.796 0.967 8.31 8.35 10.22
6/19/2022 4:45:00 PM 18.27 64.886 0.969 8.32 7.9 10.14
6/19/2022 5:00:00 PM 18.3 64.94 0.97 8.3 8.1 10.03
6/19/2022 5:15:00 PM 18.3 64.94 0.97 8.3 7.7 9.91
6/19/2022 5:30:00 PM 18.27 64.886 0.969 8.29 7.66 9.81
6/19/2022 5:45:00 PM 18.23 64.814 0.967 8.29 8.1 9.72
6/19/2022 6:00:00 PM 18.17 64.706 0.964 8.27 8.26 9.61
6/19/2022 6:15:00 PM 18.1 64.58 0.962 8.27 7.73 9.49
6/19/2022 6:30:00 PM 18.01 64.418 0.96 8.25 7.5 9.37
6/19/2022 6:45:00 PM 17.93 64.274 0.957 8.24 8.41 9.26
6/19/2022 7:00:00 PM 17.85 64.13 0.954 8.22 8.17 9.15
6/19/2022 7:15:00 PM 17.77 63.986 0.951 8.21 12.65 9.04
6/19/2022 7:30:00 PM 17.67 63.806 0.949 8.2 7.85 8.95
6/19/2022 7:45:00 PM 17.58 63.644 0.949 8.19 8.68 8.85
6/19/2022 8:00:00 PM 17.49 63.482 0.949 8.17 8.04 8.76
6/19/2022 8:15:00 PM 17.4 63.32 0.949 8.16 8.09 8.67
6/19/2022 8:30:00 PM 17.3 63.14 0.948 8.15 8.53 8.59
6/19/2022 8:45:00 PM 17.2 62.96 0.947 8.13 7.6 8.5
6/19/2022 9:00:00 PM 17.09 62.762 0.946 8.12 8.62 8.44
6/19/2022 9:15:00 PM 16.99 62.582 0.944 8.11 8.2 8.36
6/19/2022 9:30:00 PM 16.88 62.384 0.944 8.1 9.24 8.29
6/19/2022 9:45:00 PM 16.77 62.186 0.944 8.09 9.25 8.25
6/19/2022 10:00:00 PM 16.65 61.97 0.945 8.08 9.32 8.22
6/19/2022 10:15:00 PM 16.53 61.754 0.946 8.08 8.96 8.19
6/19/2022 10:30:00 PM 16.42 61.556 0.948 8.07 9.06 8.17
6/19/2022 10:45:00 PM 16.3 61.34 0.949 8.06 9.66 8.15
6/19/2022 11:00:00 PM 16.21 61.178 0.951 8.05 9.23 8.13
6/19/2022 11:15:00 PM 16.1 60.98 0.951 8.03 8.92 8.11
6/19/2022 11:30:00 PM 16 60.8 0.953 8.04 9.82 8.1
6/19/2022 11:45:00 PM 15.89 60.602 0.955 8.03 9.23 8.09
6/20/2022 12:00:00 AM 15.78 60.404 0.957 8.02 9.05 8.09
6/20/2022 12:15:00 AM 15.69 60.242 0.961 8.02 9.5 8.07
6/20/2022 12:30:00 AM 15.59 60.062 0.964 8.02 13.31 8.07
6/20/2022 12:45:00 AM 15.49 59.882 0.967 8.01 11.93 8.06
6/20/2022 1:00:00 AM 15.39 59.702 0.97 8.01 11.51 8.06
6/20/2022 1:15:00 AM 15.3 59.54 0.973 8 13.61 8.08
6/20/2022 1:30:00 AM 15.2 59.36 0.976 7.99 9.11 8.07
6/20/2022 1:45:00 AM 15.11 59.198 0.978 8 9.31 8.09
6/20/2022 2:00:00 AM 15.02 59.036 0.981 7.99 10.02 8.1
6/20/2022 2:15:00 AM 14.93 58.874 0.983 7.99 10.76 8.11
6/20/2022 2:30:00 AM 14.84 58.712 0.982 7.98 10.06 8.13
6/20/2022 2:45:00 AM 14.75 58.55 0.981 7.99 9.86 8.15
6/20/2022 3:00:00 AM 14.67 58.406 0.979 7.99 10.09 8.17
6/20/2022 3:15:00 AM 14.58 58.244 0.977 7.99 9.67 8.2
6/20/2022 3:30:00 AM 14.49 58.082 0.975 7.99 9.77 8.21
6/20/2022 3:45:00 AM 14.42 57.956 0.973 7.98 10.23 8.23
6/20/2022 4:00:00 AM 14.33 57.794 0.971 7.98 11.39 8.27
6/20/2022 4:15:00 AM 14.25 57.65 0.967 7.97 9.29 8.29
6/20/2022 4:30:00 AM 14.18 57.524 0.964 7.98 1421.18 8.32
6/20/2022 4:45:00 AM 14.1 57.38 0.96 7.99 9.27 8.34
6/20/2022 5:00:00 AM 14.03 57.254 0.955 7.99 9.02 8.37
6/20/2022 5:15:00 AM 13.95 57.11 0.949 7.98 9.65 8.39
6/20/2022 5:30:00 AM 13.87 56.966 0.942 7.99 10.05 8.43
6/20/2022 5:45:00 AM 13.8 56.84 0.935 7.99 8.92 8.46
6/20/2022 6:00:00 AM 13.73 56.714 0.928 7.98 9.52 8.49
6/20/2022 6:15:00 AM 13.66 56.588 0.921 8 8.6 8.54
6/20/2022 6:30:00 AM 13.6 56.48 0.914 8 12.99 8.58
6/20/2022 6:45:00 AM 13.54 56.372 0.907 8 8.71 8.65
6/20/2022 7:00:00 AM 13.49 56.282 0.901 8.01 8.44 8.69
6/20/2022 7:15:00 AM 13.44 56.192 0.895 8 8.59 8.77
6/20/2022 7:30:00 AM 13.4 56.12 0.889 8.02 8.05 8.82
6/20/2022 7:45:00 AM 13.38 56.084 0.883 8.01 9.34 8.88
6/20/2022 8:00:00 AM 13.37 56.066 0.878 8.03 8.65 8.93
6/20/2022 8:15:00 AM 13.38 56.084 0.875 8.03 9.06 9.04
6/20/2022 8:30:00 AM 13.4 56.12 0.873 8.04 8.19 9.15
6/20/2022 8:45:00 AM 13.44 56.192 0.873 8.04 7.87 9.26
6/20/2022 9:00:00 AM 13.49 56.282 0.874 8.06 8.41 9.37
6/20/2022 9:15:00 AM 13.55 56.39 0.875 8.06 8.47 9.45
6/20/2022 9:30:00 AM 13.62 56.516 0.878 8.08 8.61 9.5
6/20/2022 9:45:00 AM 13.7 56.66 0.881 8.09 8.71 9.58
6/20/2022 10:00:00 AM 13.79 56.822 0.883 8.09 9.05 9.66
6/20/2022 10:15:00 AM 13.88 56.984 0.884 8.11 8.96 9.78
6/20/2022 10:30:00 AM 13.99 57.182 0.884 8.12 9.2 9.88
6/20/2022 10:45:00 AM 14.12 57.416 0.885 8.13 8.99 9.99
6/20/2022 11:00:00 AM 14.26 57.668 0.886 8.14 9.32 10.1
6/20/2022 11:15:00 AM 14.41 57.938 0.887 8.16 8.4 10.2
6/20/2022 11:30:00 AM 14.58 58.244 0.889 8.16 8.44 10.29
6/20/2022 11:45:00 AM 14.77 58.586 0.893 8.18 9.11 10.36
6/20/2022 12:00:00 PM 14.98 58.964 0.9 8.2 8.39 10.46
6/20/2022 12:15:00 PM 15.22 59.396 0.91 8.2 8.35 10.54
6/20/2022 12:30:00 PM 15.48 59.864 0.923 8.22 8.24 10.61
6/20/2022 12:45:00 PM 15.75 60.35 0.936 8.24 8.69 10.67
6/20/2022 1:00:00 PM 16.02 60.836 0.951 8.25 8.68 10.73
6/20/2022 1:15:00 PM 16.3 61.34 0.967 8.26 7.9 10.79
6/20/2022 1:30:00 PM 16.58 61.844 0.982 8.26 8.06 10.85
6/20/2022 1:45:00 PM 16.85 62.33 0.995 8.28 8.43 10.83
6/20/2022 2:00:00 PM 17.11 62.798 1.005 8.29 7.48 10.82
6/20/2022 2:15:00 PM 17.35 63.23 1.013 8.3 7.97 10.8
6/20/2022 2:30:00 PM 17.58 63.644 1.019 8.31 8.39 10.75
6/20/2022 2:45:00 PM 17.81 64.058 1.026 8.31 8.18 10.7
6/20/2022 3:00:00 PM 18.01 64.418 1.035 8.32 8.67 10.63
6/20/2022 3:15:00 PM 18.21 64.778 1.044 8.31 8.54 10.57
6/20/2022 3:30:00 PM 18.36 65.048 1.05 8.31 8.49 10.45
6/20/2022 3:45:00 PM 18.5 65.3 1.052 8.32 8.75 10.38
6/20/2022 4:00:00 PM 18.61 65.498 1.051 8.31 7.69 10.28
6/20/2022 4:15:00 PM 18.69 65.642 1.048 8.32 8.06 10.18
6/20/2022 4:30:00 PM 18.76 65.768 1.045 8.31 7.69 10.1
6/20/2022 4:45:00 PM 18.8 65.84 1.041 8.31 8.19 9.97
6/20/2022 5:00:00 PM 18.83 65.894 1.038 8.3 8.12 9.86
6/20/2022 5:15:00 PM 18.84 65.912 1.034 8.29 8.35 9.74
6/20/2022 5:30:00 PM 18.83 65.894 1.029 8.28 8.34 9.63
6/20/2022 5:45:00 PM 18.8 65.84 1.025 8.28 8.52 9.53
6/20/2022 6:00:00 PM 18.76 65.768 1.021 8.26 9.41 9.42
6/20/2022 6:15:00 PM 18.7 65.66 1.019 8.24 9.16 9.3
6/20/2022 6:30:00 PM 18.63 65.534 1.017 8.24 8.9 9.17
6/20/2022 6:45:00 PM 18.55 65.39 1.016 8.22 9.05 9.06
6/20/2022 7:00:00 PM 18.47 65.246 1.013 8.22 9.49 8.94
6/20/2022 7:15:00 PM 18.38 65.084 1.009 8.2 8.4 8.84
6/20/2022 7:30:00 PM 18.28 64.904 1.007 8.18 7.97 8.74
6/20/2022 7:45:00 PM 18.19 64.742 1.007 8.17 9.93 8.64
6/20/2022 8:00:00 PM 18.1 64.58 1.01 8.16 7.89 8.55
6/20/2022 8:15:00 PM 18.01 64.418 1.012 8.15 8.89 8.43
6/20/2022 8:30:00 PM 17.91 64.238 1.014 8.13 8.67 8.35
6/20/2022 8:45:00 PM 17.8 64.04 1.014 8.12 8.08 8.27
6/20/2022 9:00:00 PM 17.68 63.824 1.014 8.11 11.19 8.2
6/20/2022 9:15:00 PM 17.57 63.626 1.014 8.09 10.91 8.12
6/20/2022 9:30:00 PM 17.46 63.428 1.014 8.09 9.58 8.05
6/20/2022 9:45:00 PM 17.34 63.212 1.015 8.07 9.65 7.99
6/20/2022 10:00:00 PM 17.22 62.996 1.015 8.07 9.93 7.94
6/20/2022 10:15:00 PM 17.1 62.78 1.016 8.06 10.27 7.9
6/20/2022 10:30:00 PM 16.98 62.564 1.016 8.04 9.76 7.85
6/20/2022 10:45:00 PM 16.85 62.33 1.016 8.04 10.2 7.82
6/20/2022 11:00:00 PM 16.74 62.132 1.017 8.03 9.84 7.79
6/20/2022 11:15:00 PM 16.63 61.934 1.019 8.02 9.97 7.76
6/20/2022 11:30:00 PM 16.52 61.736 1.023 8.01 10.34 7.73
6/20/2022 11:45:00 PM 16.41 61.538 1.026 8 10.78 7.71
6/21/2022 12:00:00 AM 16.32 61.376 1.03 8 10.54 7.69
6/21/2022 12:15:00 AM 16.22 61.196 1.033 7.99 10.93 7.68
6/21/2022 12:30:00 AM 16.14 61.052 1.036 7.99 10.48 7.66
6/21/2022 12:45:00 AM 16.05 60.89 1.037 7.98 10.14 7.65
6/21/2022 1:00:00 AM 15.96 60.728 1.037 7.98 9.99 7.65
6/21/2022 1:15:00 AM 15.87 60.566 1.036 7.97 10.26 7.65
6/21/2022 1:30:00 AM 15.78 60.404 1.036 7.97 10.72 7.66
6/21/2022 1:45:00 AM 15.7 60.26 1.035 7.96 10.69 7.66
6/21/2022 2:00:00 AM 15.62 60.116 1.035 7.96 9.13 7.66
6/21/2022 2:15:00 AM 15.55 59.99 1.034 7.95 9.52 7.67
6/21/2022 2:30:00 AM 15.47 59.846 1.033 7.95 9.68 7.68
6/21/2022 2:45:00 AM 15.41 59.738 1.031 7.96 10.15 7.69
6/21/2022 3:00:00 AM 15.33 59.594 1.03 7.95 9.96 7.7
6/21/2022 3:15:00 AM 15.27 59.486 1.029 7.95 10.31 7.71
6/21/2022 3:30:00 AM 15.21 59.378 1.028 7.95 9.57 7.72
6/21/2022 3:45:00 AM 15.14 59.252 1.027 7.94 10.42 7.75
6/21/2022 4:00:00 AM 15.08 59.144 1.025 7.95 9.66 7.76
6/21/2022 4:15:00 AM 15.03 59.054 1.022 7.95 9.96 7.78
6/21/2022 4:30:00 AM 14.97 58.946 1.017 7.95 10.73 7.79
6/21/2022 4:45:00 AM 14.92 58.856 1.011 7.95 9.81 7.81
6/21/2022 5:00:00 AM 14.86 58.748 1.005 7.94 9.94 7.84
6/21/2022 5:15:00 AM 14.8 58.64 0.998 7.95 10.67 7.86
6/21/2022 5:30:00 AM 14.74 58.532 0.99 7.95 10.16 7.9
6/21/2022 5:45:00 AM 14.68 58.424 0.982 7.95 12.17 7.91
6/21/2022 6:00:00 AM 14.63 58.334 0.973 7.96 9.8 7.94
6/21/2022 6:15:00 AM 14.58 58.244 0.964 7.96 9.46 7.98
6/21/2022 6:30:00 AM 14.54 58.172 0.954 7.96 9.27 8.02
6/21/2022 6:45:00 AM 14.5 58.1 0.945 7.95 9.34 8.09
6/21/2022 7:00:00 AM 14.47 58.046 0.937 7.97 8.53 8.15
6/21/2022 7:15:00 AM 14.46 58.028 0.931 7.96 9.26 8.21
6/21/2022 7:30:00 AM 14.45 58.01 0.926 7.98 8.68 8.3
6/21/2022 7:45:00 AM 14.44 57.992 0.922 7.97 8.98 8.3
6/21/2022 8:00:00 AM 14.44 57.992 0.917 7.98 9.41 8.36
6/21/2022 8:15:00 AM 14.44 57.992 0.914 7.99 9.35 8.43
6/21/2022 8:30:00 AM 14.44 57.992 0.912 7.98 9.3 8.47
6/21/2022 8:45:00 AM 14.44 57.992 0.912 7.99 8.69 8.5
6/21/2022 9:00:00 AM 14.46 58.028 0.913 7.99 8.96 8.55
6/21/2022 9:15:00 AM 14.48 58.064 0.915 8 8.66 8.59
6/21/2022 9:30:00 AM 14.5 58.1 0.919 8 8.42 8.6
6/21/2022 9:45:00 AM 14.53 58.154 0.923 8 9.05 8.64
6/21/2022 10:00:00 AM 14.57 58.226 0.927 7.99 9.59 8.73
6/21/2022 10:15:00 AM 14.64 58.352 0.928 8.01 9.64 8.91
6/21/2022 10:30:00 AM 14.7 58.46 0.927 8.03 9.72 9.04
6/21/2022 10:45:00 AM 14.75 58.55 0.924 8.04 9.06 9.1
6/21/2022 11:00:00 AM 14.81 58.658 0.921 8.05 9.59 9.16
6/21/2022 11:15:00 AM 14.87 58.766 0.919 8.05 9.63 9.22
6/21/2022 11:30:00 AM 14.92 58.856 0.919 8.05 9.22 9.32
6/21/2022 11:45:00 AM 14.99 58.982 0.923 8.07 9.4 9.41
6/21/2022 12:00:00 PM 15.12 59.216 0.932 8.08 9.28 9.58
6/21/2022 12:15:00 PM 15.29 59.522 0.944 8.11 12.34 9.8
6/21/2022 12:30:00 PM 15.48 59.864 0.958 8.12 9.19 9.96
6/21/2022 12:45:00 PM 15.7 60.26 0.971 8.14 9.2 10.11
6/21/2022 1:00:00 PM 15.92 60.656 0.984 8.16 9.37 10.2
6/21/2022 1:15:00 PM 16.16 61.088 0.994 8.16 8.86 10.31
6/21/2022 1:30:00 PM 16.38 61.484 1.003 8.18 9.4 10.4
6/21/2022 1:45:00 PM 16.58 61.844 1.011 8.2 9.91 10.43
6/21/2022 2:00:00 PM 16.71 62.078 1.018 8.19 9.62 10.23
6/21/2022 2:15:00 PM 16.86 62.348 1.023 8.2 8.96 10.15
6/21/2022 2:30:00 PM 16.96 62.528 1.026 8.19 7.5 10.08
6/21/2022 2:45:00 PM 17.06 62.708 1.028 8.19 7.5 10.01
6/21/2022 3:00:00 PM 17.19 62.942 1.029 8.2 7.8 10.05
6/21/2022 3:15:00 PM 17.3 63.14 1.03 8.21 7.68 10.05
6/21/2022 3:30:00 PM 17.43 63.374 1.03 8.22 7.75 10.1
6/21/2022 3:45:00 PM 17.56 63.608 1.03 8.22 7.38 10.1
6/21/2022 4:00:00 PM 17.72 63.896 1.031 8.24 7.41 10.1
6/21/2022 4:15:00 PM 17.87 64.166 1.034 8.24 7.54 10.1
6/21/2022 4:30:00 PM 18.02 64.436 1.039 8.25 7.4 10.05
6/21/2022 4:45:00 PM 18.15 64.67 1.046 8.25 7.08 9.93
6/21/2022 5:00:00 PM 18.27 64.886 1.054 8.24 7.01 9.83
6/21/2022 5:15:00 PM 18.37 65.066 1.06 8.24 7.25 9.68
6/21/2022 5:30:00 PM 18.44 65.192 1.065 8.24 7.17 9.56
6/21/2022 5:45:00 PM 18.47 65.246 1.068 8.23 7.76 9.47
6/21/2022 6:00:00 PM 18.48 65.264 1.068 8.22 7.51 9.37
6/21/2022 6:15:00 PM 18.48 65.264 1.067 8.22 7.97 9.24
6/21/2022 6:30:00 PM 18.46 65.228 1.065 8.21 9.01 9.11
6/21/2022 6:45:00 PM 18.43 65.174 1.061 8.19 8.21 9.02
6/21/2022 7:00:00 PM 18.39 65.102 1.055 8.19 8.88 8.96
6/21/2022 7:15:00 PM 18.35 65.03 1.047 8.19 7.92 8.9
6/21/2022 7:30:00 PM 18.33 64.994 1.038 8.17 8.04 8.83
6/21/2022 7:45:00 PM 18.31 64.958 1.029 8.17 7.97 8.74
6/21/2022 8:00:00 PM 18.27 64.886 1.019 8.17 8.77 8.65
6/21/2022 8:15:00 PM 18.22 64.796 1.01 8.15 8.2 8.54
6/21/2022 8:30:00 PM 18.16 64.688 1.002 8.14 8.81 8.42
6/21/2022 8:45:00 PM 18.09 64.562 0.997 8.12 7.85 8.3
6/21/2022 9:00:00 PM 18.01 64.418 0.993 8.12 7.89 8.21
6/21/2022 9:15:00 PM 17.93 64.274 0.991 8.1 8.23 8.09
6/21/2022 9:30:00 PM 17.85 64.13 0.99 8.09 8.49 8.01
6/21/2022 9:45:00 PM 17.77 63.986 0.989 8.08 9.09 7.93
6/21/2022 10:00:00 PM 17.69 63.842 0.989 8.07 9.64 7.88
6/21/2022 10:15:00 PM 17.61 63.698 0.992 8.06 9.37 7.82
6/21/2022 10:30:00 PM 17.54 63.572 0.995 8.05 8.74 7.78
6/21/2022 10:45:00 PM 17.46 63.428 1 8.04 9.63 7.73
6/21/2022 11:00:00 PM 17.39 63.302 1.005 8.03 8.88 7.68
6/21/2022 11:15:00 PM 17.32 63.176 1.01 8.03 8.53 7.64
6/21/2022 11:30:00 PM 17.26 63.068 1.015 8.02 9 7.6
6/21/2022 11:45:00 PM 17.19 62.942 1.02 8.01 8.95 7.56
6/22/2022 12:00:00 AM 17.12 62.816 1.025 8 9.1 7.53
6/22/2022 12:15:00 AM 17.05 62.69 1.03 7.99 8.91 7.5
6/22/2022 12:30:00 AM 16.99 62.582 1.035 7.99 9.57 7.47
6/22/2022 12:45:00 AM 16.92 62.456 1.04 7.99 9.62 7.44
6/22/2022 1:00:00 AM 16.85 62.33 1.044 7.98 10.15 7.42
6/22/2022 1:15:00 AM 16.78 62.204 1.047 7.97 8.98 7.4
6/22/2022 1:30:00 AM 16.71 62.078 1.05 7.97 9.54 7.4
6/22/2022 1:45:00 AM 16.63 61.934 1.053 7.97 9.7 7.4
6/22/2022 2:00:00 AM 16.57 61.826 1.056 7.97 8.54 7.39
6/22/2022 2:15:00 AM 16.51 61.718 1.059 7.96 9.71 7.4
6/22/2022 2:30:00 AM 16.44 61.592 1.061 7.96 11.85 7.41
6/22/2022 2:45:00 AM 16.38 61.484 1.063 7.96 10.56 7.42
6/22/2022 3:00:00 AM 16.32 61.376 1.065 7.96 10.03 7.44
6/22/2022 3:15:00 AM 16.26 61.268 1.067 7.96 10.67 7.45
6/22/2022 3:30:00 AM 16.21 61.178 1.07 7.96 11.21 7.46
6/22/2022 3:45:00 AM 16.16 61.088 1.072 7.96 10.4 7.48
6/22/2022 4:00:00 AM 16.11 60.998 1.073 7.95 10.07 7.49
6/22/2022 4:15:00 AM 16.06 60.908 1.071 7.96 10.42 7.51
6/22/2022 4:30:00 AM 16.01 60.818 1.069 7.95 11.42 7.54
6/22/2022 4:45:00 AM 15.95 60.71 1.064 7.96 10.33 7.57
6/22/2022 5:00:00 AM 15.89 60.602 1.058 7.96 11.47 7.59
6/22/2022 5:15:00 AM 15.84 60.512 1.05 7.96 11.15 7.62
6/22/2022 5:30:00 AM 15.78 60.404 1.042 7.96 11.75 7.64
6/22/2022 5:45:00 AM 15.72 60.296 1.032 7.97 11.11 7.69
6/22/2022 6:00:00 AM 15.67 60.206 1.023 7.97 9.9 7.74
6/22/2022 6:15:00 AM 15.61 60.098 1.011 7.96 9.52 7.79
6/22/2022 6:30:00 AM 15.56 60.008 1 7.97 9.57 7.86
6/22/2022 6:45:00 AM 15.51 59.918 0.986 7.97 8.92 7.95
6/22/2022 7:00:00 AM 15.46 59.828 0.973 7.98 8.94 8.04
6/22/2022 7:15:00 AM 15.42 59.756 0.961 7.99 8.68 8.15
6/22/2022 7:30:00 AM 15.39 59.702 0.95 7.98 11.13 8.24
6/22/2022 7:45:00 AM 15.37 59.666 0.94 8 8.88 8.38
6/22/2022 8:00:00 AM 15.34 59.612 0.932 8.01 8.77 8.47
6/22/2022 8:15:00 AM 15.34 59.612 0.925 8.02 8.62 8.55
6/22/2022 8:30:00 AM 15.35 59.63 0.919 8.02 8.97 8.65
6/22/2022 8:45:00 AM 15.37 59.666 0.916 8.03 8.38 8.73
6/22/2022 9:00:00 AM 15.4 59.72 0.916 8.04 8.1 8.82
6/22/2022 9:15:00 AM 15.45 59.81 0.917 8.04 8.07 8.93
6/22/2022 9:30:00 AM 15.51 59.918 0.921 8.06 8.5 9
6/22/2022 9:45:00 AM 15.6 60.08 0.923 8.07 8.86 9.12
6/22/2022 10:00:00 AM 15.66 60.188 0.924 8.08 8.49 9.28
6/22/2022 10:15:00 AM 15.74 60.332 0.923 8.1 8.31 9.41
6/22/2022 10:30:00 AM 15.83 60.494 0.923 8.11 8.11 9.56
6/22/2022 10:45:00 AM 15.88 60.584 0.923 8.12 9.53 9.6
6/22/2022 11:00:00 AM 15.93 60.674 0.923 8.12 8.1 9.65
6/22/2022 11:15:00 AM 15.99 60.782 0.924 8.13 7.84 9.65
6/22/2022 11:30:00 AM 16.05 60.89 0.928 8.14 7.97 9.66
6/22/2022 11:45:00 AM 16.16 61.088 0.934 8.14 8.45 9.78
6/22/2022 12:00:00 PM 16.34 61.412 0.945 8.17 8.12 9.95
6/22/2022 12:15:00 PM 16.51 61.718 0.959 8.19 8.01 10.05
6/22/2022 12:30:00 PM 16.72 62.096 0.975 8.21 7.87 10.21
6/22/2022 12:45:00 PM 16.93 62.474 0.991 8.22 7.84 10.26
6/22/2022 1:00:00 PM 17.16 62.888 1.007 8.23 7.66 10.33
6/22/2022 1:15:00 PM 17.33 63.194 1.022 8.24 9.36 10.29
6/22/2022 1:30:00 PM 17.55 63.59 1.034 8.25 7.85 10.38
6/22/2022 1:45:00 PM 17.72 63.896 1.043 8.26 8.3 10.37
6/22/2022 2:00:00 PM 17.93 64.274 1.049 8.28 8.26 10.45
6/22/2022 2:15:00 PM 18.13 64.634 1.052 8.28 8.17 10.5
6/22/2022 2:30:00 PM 18.27 64.886 1.054 8.3 7.49 10.42
6/22/2022 2:45:00 PM 18.39 65.102 1.056 8.3 8.23 10.29
6/22/2022 3:00:00 PM 18.46 65.228 1.055 8.29 8.23 10.14
6/22/2022 3:15:00 PM 18.51 65.318 1.054 8.28 7.88 9.93
6/22/2022 3:30:00 PM 18.53 65.354 1.052 8.27 9.57 9.74
6/22/2022 3:45:00 PM 18.56 65.408 1.05 8.26 7.97 9.6
6/22/2022 4:00:00 PM 18.56 65.408 1.046 8.24 8.53 9.42
6/22/2022 4:15:00 PM 18.57 65.426 1.043 8.24 8.12 9.3
6/22/2022 4:30:00 PM 18.58 65.444 1.042 8.23 8.49 9.18
6/22/2022 4:45:00 PM 18.58 65.444 1.045 8.22 7.38 9.08
6/22/2022 5:00:00 PM 18.59 65.462 1.051 8.22 7.57 9.02
6/22/2022 5:15:00 PM 18.6 65.48 1.059 8.21 8.58 8.93
6/22/2022 5:30:00 PM 18.6 65.48 1.066 8.2 12.36 8.84
6/22/2022 5:45:00 PM 18.6 65.48 1.071 8.2 8.46 8.74
6/22/2022 6:00:00 PM 18.59 65.462 1.074 8.18 11.01 8.63
6/22/2022 6:15:00 PM 18.58 65.444 1.074 8.18 7.58 8.51
6/22/2022 6:30:00 PM 18.56 65.408 1.07 8.16 7.98 8.37
6/22/2022 6:45:00 PM 18.53 65.354 1.064 8.15 8.25 8.26
6/22/2022 7:00:00 PM 18.48 65.264 1.057 8.14 7.42 8.15
6/22/2022 7:15:00 PM 18.41 65.138 1.047 8.13 8.11 8.07
6/22/2022 7:30:00 PM 18.33 64.994 1.038 8.12 7.44 8.02
6/22/2022 7:45:00 PM 18.24 64.832 1.03 8.12 7.48 7.96
6/22/2022 8:00:00 PM 18.15 64.67 1.022 8.1 7.65 7.9
6/22/2022 8:15:00 PM 18.07 64.526 1.017 8.09 7.04 7.82
6/22/2022 8:30:00 PM 17.99 64.382 1.014 8.09 7.42 7.77
6/22/2022 8:45:00 PM 17.9 64.22 1.013 8.08 8.1 7.73
6/22/2022 9:00:00 PM 17.83 64.094 1.011 8.07 7.72 7.7
6/22/2022 9:15:00 PM 17.76 63.968 1.01 8.06 8.17 7.66
6/22/2022 9:30:00 PM 17.69 63.842 1.009 8.06 7.71 7.63
6/22/2022 9:45:00 PM 17.62 63.716 1.008 8.05 8.64 7.61
6/22/2022 10:00:00 PM 17.55 63.59 1.009 8.04 9.1 7.58
6/22/2022 10:15:00 PM 17.48 63.464 1.011 8.04 9.59 7.55
6/22/2022 10:30:00 PM 17.41 63.338 1.014 8.03 9.33 7.54
6/22/2022 10:45:00 PM 17.35 63.23 1.018 8.02 8.99 7.52
6/22/2022 11:00:00 PM 17.29 63.122 1.023 8.02 12.1 7.52
6/22/2022 11:15:00 PM 17.22 62.996 1.028 8.02 12.29 7.51
6/22/2022 11:30:00 PM 17.16 62.888 1.032 8.01 11.53 7.51
6/22/2022 11:45:00 PM 17.11 62.798 1.036 8.01 11.56 7.5
6/23/2022 12:00:00 AM 17.05 62.69 1.041 8.01 11.91 7.49
6/23/2022 12:15:00 AM 16.99 62.582 1.044 8 11.56 7.49
6/23/2022 12:30:00 AM 16.94 62.492 1.047 8 8.29 7.48
6/23/2022 12:45:00 AM 16.89 62.402 1.047 8 9.09 7.47
6/23/2022 1:00:00 AM 16.84 62.312 1.048 7.98 9.77 7.47
6/23/2022 1:15:00 AM 16.8 62.24 1.048 7.99 10.73 7.48
6/23/2022 1:30:00 AM 16.75 62.15 1.048 7.99 10.12 7.46
6/23/2022 1:45:00 AM 16.7 62.06 1.049 7.99 9.8 7.5
6/23/2022 2:00:00 AM 16.65 61.97 1.05 7.99 9.92 7.51
6/23/2022 2:15:00 AM 16.61 61.898 1.05 7.99 10.97 7.51
6/23/2022 2:30:00 AM 16.58 61.844 1.05 7.98 9.18 7.53
6/23/2022 2:45:00 AM 16.54 61.772 1.05 7.98 10.65 7.52
6/23/2022 3:00:00 AM 16.51 61.718 1.05 7.97 10.34 7.53
6/23/2022 3:15:00 AM 16.47 61.646 1.048 7.97 10.99 7.54
6/23/2022 3:30:00 AM 16.42 61.556 1.044 7.98 12.54 7.54
6/23/2022 3:45:00 AM 16.37 61.466 1.038 7.97 11.45 7.56
6/23/2022 4:00:00 AM 16.32 61.376 1.03 7.96 11.67 7.58
6/23/2022 4:15:00 AM 16.26 61.268 1.021 7.97 11.64 7.6
6/23/2022 4:30:00 AM 16.2 61.16 1.009 7.97 10.34 7.64
6/23/2022 4:45:00 AM 16.13 61.034 0.995 7.96 9.38 7.66
6/23/2022 5:00:00 AM 16.05 60.89 0.981 7.96 11.3 7.7
6/23/2022 5:15:00 AM 15.98 60.764 0.966 7.96 8.81 7.73
6/23/2022 5:30:00 AM 15.91 60.638 0.951 7.96 9.51 7.75
6/23/2022 5:45:00 AM 15.84 60.512 0.935 7.95 7.97 7.78
6/23/2022 6:00:00 AM 15.79 60.422 0.917 7.96 9.16 7.79
6/23/2022 6:15:00 AM 15.74 60.332 0.896 7.96 9.2 7.79
6/23/2022 6:30:00 AM 15.74 60.332 0.865 7.95 12.94 7.78
6/23/2022 6:45:00 AM 15.78 60.404 0.829 7.93 9.57 7.69
6/23/2022 7:00:00 AM 15.75 60.35 0.813 7.92 9.72 7.61
6/23/2022 7:15:00 AM 15.76 60.368 0.791 7.9 19.65 7.58
6/23/2022 7:30:00 AM 15.87 60.566 0.757 7.87 18.81 7.52
6/23/2022 7:45:00 AM 15.92 60.656 0.741 7.85 26.28 7.5
6/23/2022 8:00:00 AM 16 60.8 0.729 7.83 23.89 7.48
6/23/2022 8:15:00 AM 16.1 60.98 0.725 7.81 33.24 7.48
6/23/2022 8:30:00 AM 16.21 61.178 0.727 7.79 39.02 7.5
6/23/2022 8:45:00 AM 16.23 61.214 0.734 7.8 47.62 7.6
6/23/2022 9:00:00 AM 16.14 61.052 0.742 7.8 43.02 7.71
6/23/2022 9:15:00 AM 16.08 60.944 0.739 7.8 41.25 7.8
6/23/2022 9:30:00 AM 16.14 61.052 0.703 7.8 35.57 7.84
6/23/2022 9:45:00 AM 16.26 61.268 0.651 7.78 34.45 7.86
6/23/2022 10:00:00 AM 16.4 61.52 0.605 7.79 30.78 7.85
6/23/2022 10:15:00 AM 16.55 61.79 0.571 7.78 29.28 7.83
6/23/2022 10:30:00 AM 16.68 62.024 0.548 7.77 25.12 7.82
6/23/2022 10:45:00 AM 16.8 62.24 0.532 7.77 24.33 7.83
6/23/2022 11:00:00 AM 16.92 62.456 0.524 7.76 21.84 7.81
6/23/2022 11:15:00 AM 17.03 62.654 0.522 7.76 18.59 7.78
6/23/2022 11:30:00 AM 17.12 62.816 0.524 7.75 20.51 7.73
6/23/2022 11:45:00 AM 17.2 62.96 0.529 7.75 17.74 7.68
6/23/2022 12:00:00 PM 17.26 63.068 0.536 7.75 17.25 7.65
6/23/2022 12:15:00 PM 17.31 63.158 0.546 7.73 16.73 7.62
6/23/2022 12:30:00 PM 17.36 63.248 0.558 7.75 16.69 7.67
6/23/2022 12:45:00 PM 17.4 63.32 0.572 7.76 15.77 7.72
6/23/2022 1:00:00 PM 17.44 63.392 0.588 7.77 15.82 7.8
6/23/2022 1:15:00 PM 17.45 63.41 0.604 7.77 15.63 7.84
6/23/2022 1:30:00 PM 17.46 63.428 0.62 7.77 14.42 7.95
6/23/2022 1:45:00 PM 17.46 63.428 0.638 7.79 15.53 7.99
6/23/2022 2:00:00 PM 17.47 63.446 0.657 7.8 14.19 8.04
6/23/2022 2:15:00 PM 17.48 63.464 0.675 7.82 13.92 8.15
6/23/2022 2:30:00 PM 17.49 63.482 0.693 7.83 13.05 8.28
6/23/2022 2:45:00 PM 17.51 63.518 0.71 7.84 12.6 8.39
6/23/2022 3:00:00 PM 17.53 63.554 0.729 7.87 12.39 8.48
6/23/2022 3:15:00 PM 17.52 63.536 0.748 7.88 12.09 8.55
6/23/2022 3:30:00 PM 17.49 63.482 0.767 7.89 11.69 8.57
6/23/2022 3:45:00 PM 17.45 63.41 0.786 7.89 11.71 8.55
6/23/2022 4:00:00 PM 17.4 63.32 0.803 7.9 10.73 8.52
6/23/2022 4:15:00 PM 17.36 63.248 0.818 7.91 10.88 8.53
6/23/2022 4:30:00 PM 17.32 63.176 0.833 7.92 10.4 8.57
6/23/2022 4:45:00 PM 17.29 63.122 0.848 7.93 10.21 8.58
6/23/2022 5:00:00 PM 17.27 63.086 0.863 7.93 10.52 8.58
6/23/2022 5:15:00 PM 17.25 63.05 0.879 7.94 9.83 8.57
6/23/2022 5:30:00 PM 17.23 63.014 0.892 7.94 9.03 8.54
6/23/2022 5:45:00 PM 17.21 62.978 0.902 7.95 8.8 8.55
6/23/2022 6:00:00 PM 17.21 62.978 0.911 7.96 8.66 8.6
6/23/2022 6:15:00 PM 17.22 62.996 0.917 7.97 8.66 8.62
6/23/2022 6:30:00 PM 17.21 62.978 0.922 7.98 8.77 8.68
6/23/2022 6:45:00 PM 17.21 62.978 0.925 7.98 8.5 8.7
6/23/2022 7:00:00 PM 17.2 62.96 0.927 7.99 8.42 8.68
6/23/2022 7:15:00 PM 17.16 62.888 0.927 7.99 8.51 8.65
6/23/2022 7:30:00 PM 17.11 62.798 0.926 7.99 8.49 8.55
6/23/2022 7:45:00 PM 17.02 62.636 0.923 7.98 8.48 8.44
6/23/2022 8:00:00 PM 16.94 62.492 0.918 7.97 8.92 8.34
6/23/2022 8:15:00 PM 16.86 62.348 0.914 7.96 8.2 8.27
6/23/2022 8:30:00 PM 16.79 62.222 0.912 7.96 8.23 8.2
6/23/2022 8:45:00 PM 16.73 62.114 0.912 7.96 8.5 8.18
6/23/2022 9:00:00 PM 16.67 62.006 0.913 7.96 8.36 8.14
6/23/2022 9:15:00 PM 16.62 61.916 0.914 7.96 8.67 8.13
6/23/2022 9:30:00 PM 16.57 61.826 0.915 7.95 8.93 8.1
6/23/2022 9:45:00 PM 16.52 61.736 0.917 7.96 8.96 8.09
6/23/2022 10:00:00 PM 16.47 61.646 0.919 7.96 9.61 8.07
6/23/2022 10:15:00 PM 16.41 61.538 0.922 7.94 9.66 8.06
6/23/2022 10:30:00 PM 16.35 61.43 0.925 7.95 9.73 8.03
6/23/2022 10:45:00 PM 16.3 61.34 0.928 7.95 10.07 8
6/23/2022 11:00:00 PM 16.25 61.25 0.931 7.94 9.64 7.99
6/23/2022 11:15:00 PM 16.2 61.16 0.936 7.95 10.38 7.96
6/23/2022 11:30:00 PM 16.17 61.106 0.941 7.94 10.48 7.93
6/23/2022 11:45:00 PM 16.13 61.034 0.947 7.94 9.64 7.9
6/24/2022 12:00:00 AM 16.1 60.98 0.951 7.94 9 7.9
6/24/2022 12:15:00 AM 16.06 60.908 0.955 7.94 9.41 7.88
6/24/2022 12:30:00 AM 16.01 60.818 0.958 7.94 9.72 7.88
6/24/2022 12:45:00 AM 15.96 60.728 0.962 7.93 9.67 7.87
6/24/2022 1:00:00 AM 15.92 60.656 0.965 7.93 9.36 7.86
6/24/2022 1:15:00 AM 15.87 60.566 0.968 7.93 9.5 7.86
6/24/2022 1:30:00 AM 15.82 60.476 0.969 7.93 9.87 7.86
6/24/2022 1:45:00 AM 15.78 60.404 0.971 7.93 8.92 7.88
6/24/2022 2:00:00 AM 15.73 60.314 0.972 7.93 9.59 7.89
6/24/2022 2:15:00 AM 15.69 60.242 0.972 7.93 9.33 7.89
6/24/2022 2:30:00 AM 15.65 60.17 0.973 7.93 9.76 7.9
6/24/2022 2:45:00 AM 15.61 60.098 0.973 7.93 10.22 7.9
6/24/2022 3:00:00 AM 15.57 60.026 0.973 7.93 9.19 7.9
6/24/2022 3:15:00 AM 15.53 59.954 0.973 7.93 9.23 7.92
6/24/2022 3:30:00 AM 15.49 59.882 0.971 7.94 9.25 7.93
6/24/2022 3:45:00 AM 15.45 59.81 0.968 7.94 10.98 7.96
6/24/2022 4:00:00 AM 15.4 59.72 0.964 7.94 9.15 7.98
6/24/2022 4:15:00 AM 15.36 59.648 0.96 7.93 10.47 7.99
6/24/2022 4:30:00 AM 15.31 59.558 0.956 7.94 9.4 8.02
6/24/2022 4:45:00 AM 15.27 59.486 0.951 7.94 9.94 8.02
6/24/2022 5:00:00 AM 15.22 59.396 0.946 7.94 10.38 8.04
6/24/2022 5:15:00 AM 15.17 59.306 0.939 7.94 9.55 8.06
6/24/2022 5:30:00 AM 15.11 59.198 0.931 7.95 8.83 8.1
6/24/2022 5:45:00 AM 15.05 59.09 0.923 7.95 9.51 8.12
6/24/2022 6:00:00 AM 15 59 0.914 7.95 9.11 8.15
6/24/2022 6:15:00 AM 14.94 58.892 0.905 7.95 9.11 8.2
6/24/2022 6:30:00 AM 14.89 58.802 0.896 7.96 8.27 8.22
6/24/2022 6:45:00 AM 14.84 58.712 0.888 7.96 8.97 8.28
6/24/2022 7:00:00 AM 14.8 58.64 0.882 7.96 8.72 8.34
6/24/2022 7:15:00 AM 14.78 58.604 0.878 7.96 8.21 8.42
6/24/2022 7:30:00 AM 14.76 58.568 0.874 7.97 7.98 8.51
6/24/2022 7:45:00 AM 14.75 58.55 0.871 7.98 8.24 8.57
6/24/2022 8:00:00 AM 14.76 58.568 0.869 7.98 8.1 8.65
6/24/2022 8:15:00 AM 14.77 58.586 0.869 7.99 7.95 8.73
6/24/2022 8:30:00 AM 14.78 58.604 0.87 8 8.38 8.76
6/24/2022 8:45:00 AM 14.79 58.622 0.873 8 8.59 8.79
6/24/2022 9:00:00 AM 14.82 58.676 0.876 8 8.21 8.82
6/24/2022 9:15:00 AM 14.85 58.73 0.877 8.01 8.28 8.89
6/24/2022 9:30:00 AM 14.88 58.784 0.878 8.02 8.17 8.98
6/24/2022 9:45:00 AM 14.93 58.874 0.877 8.03 7.82 9.1
6/24/2022 10:00:00 AM 14.98 58.964 0.876 8.03 8.15 9.26
6/24/2022 10:15:00 AM 15.04 59.072 0.874 8.06 7.99 9.38
6/24/2022 10:30:00 AM 15.1 59.18 0.873 8.07 7.46 9.47
6/24/2022 10:45:00 AM 15.16 59.288 0.872 8.07 8.14 9.54
6/24/2022 11:00:00 AM 15.24 59.432 0.87 8.09 7.46 9.65
6/24/2022 11:15:00 AM 15.31 59.558 0.87 8.1 7.95 9.72
6/24/2022 11:30:00 AM 15.4 59.72 0.871 8.1 8.17 9.8
6/24/2022 11:45:00 AM 15.5 59.9 0.875 8.13 7.76 9.91
6/24/2022 12:00:00 PM 15.62 60.116 0.881 8.14 8.22 9.98
6/24/2022 12:15:00 PM 15.73 60.314 0.89 8.14 8.07 10
6/24/2022 12:30:00 PM 15.88 60.584 0.903 8.15 8.2 10.04
6/24/2022 12:45:00 PM 16.01 60.818 0.921 8.16 7.73 10.03
6/24/2022 1:00:00 PM 16.13 61.034 0.94 8.15 7.58 9.93
6/24/2022 1:15:00 PM 16.28 61.304 0.96 8.15 7.55 9.95
6/24/2022 1:30:00 PM 16.43 61.574 0.978 8.16 8.01 9.92
6/24/2022 1:45:00 PM 16.61 61.898 0.994 8.16 7.56 10
6/24/2022 2:00:00 PM 16.78 62.204 1.008 8.18 7.6 10.04
6/24/2022 2:15:00 PM 16.95 62.51 1.018 8.17 8.03 10.02
6/24/2022 2:30:00 PM 17.1 62.78 1.025 8.19 7.98 10.03
6/24/2022 2:45:00 PM 17.27 63.086 1.028 8.2 7.97 10.07
6/24/2022 3:00:00 PM 17.44 63.392 1.028 8.21 9.57 10.12
6/24/2022 3:15:00 PM 17.6 63.68 1.025 8.22 7.98 10.14
6/24/2022 3:30:00 PM 17.75 63.95 1.019 8.23 8.87 10.15
6/24/2022 3:45:00 PM 17.84 64.112 1.014 8.23 7.92 10.07
6/24/2022 4:00:00 PM 17.96 64.328 1.012 8.23 7.58 10.03
6/24/2022 4:15:00 PM 18.07 64.526 1.011 8.24 7.17 9.96
6/24/2022 4:30:00 PM 18.17 64.706 1.01 8.23 7.99 9.9
6/24/2022 4:45:00 PM 18.25 64.85 1.007 8.24 8.27 9.81
6/24/2022 5:00:00 PM 18.32 64.976 1.003 8.23 7.6 9.74
6/24/2022 5:15:00 PM 18.39 65.102 0.999 8.23 7.34 9.62
6/24/2022 5:30:00 PM 18.46 65.228 0.995 8.22 7.11 9.51
6/24/2022 5:45:00 PM 18.52 65.336 0.992 8.22 7.53 9.4
6/24/2022 6:00:00 PM 18.56 65.408 0.99 8.21 7.38 9.31
6/24/2022 6:15:00 PM 18.58 65.444 0.987 8.21 7.09 9.18
6/24/2022 6:30:00 PM 18.57 65.426 0.985 8.19 7.06 9.06
6/24/2022 6:45:00 PM 18.55 65.39 0.982 8.19 6.97 8.95
6/24/2022 7:00:00 PM 18.53 65.354 0.979 8.18 8.06 8.85
6/24/2022 7:15:00 PM 18.51 65.318 0.977 8.17 7.4 8.77
6/24/2022 7:30:00 PM 18.48 65.264 0.977 8.16 8.66 8.68
6/24/2022 7:45:00 PM 18.45 65.21 0.977 8.15 7.11 8.56
6/24/2022 8:00:00 PM 18.41 65.138 0.977 8.13 7.2 8.47
6/24/2022 8:15:00 PM 18.37 65.066 0.977 8.12 6.81 8.37
6/24/2022 8:30:00 PM 18.31 64.958 0.976 8.11 7.24 8.23
6/24/2022 8:45:00 PM 18.25 64.85 0.975 8.1 6.92 8.15
6/24/2022 9:00:00 PM 18.17 64.706 0.973 8.08 6.7 8.05
6/24/2022 9:15:00 PM 18.09 64.562 0.971 8.07 7.72 7.96
6/24/2022 9:30:00 PM 18.01 64.418 0.97 8.07 7.35 7.9
6/24/2022 9:45:00 PM 17.93 64.274 0.971 8.06 8.87 7.84
6/24/2022 10:00:00 PM 17.85 64.13 0.973 8.05 8.58 7.8
6/24/2022 10:15:00 PM 17.77 63.986 0.976 8.04 8.38 7.75
6/24/2022 10:30:00 PM 17.69 63.842 0.979 8.03 9.1 7.72
6/24/2022 10:45:00 PM 17.61 63.698 0.984 8.02 9.32 7.68
6/24/2022 11:00:00 PM 17.53 63.554 0.988 8.01 11.29 7.65
6/24/2022 11:15:00 PM 17.45 63.41 0.992 8 7.75 7.61
6/24/2022 11:30:00 PM 17.38 63.284 0.997 8 8.25 7.58
6/24/2022 11:45:00 PM 17.31 63.158 1.001 7.99 9.47 7.56
6/25/2022 12:00:00 AM 17.25 63.05 1.004 7.99 9.32 7.53
6/25/2022 12:15:00 AM 17.18 62.924 1.007 7.97 10.78 7.5
6/25/2022 12:30:00 AM 17.12 62.816 1.009 7.98 9.2 7.48
6/25/2022 12:45:00 AM 17.05 62.69 1.01 7.97 8.15 7.46
6/25/2022 1:00:00 AM 16.98 62.564 1.011 7.97 9.43 7.46
6/25/2022 1:15:00 AM 16.92 62.456 1.012 7.96 8.88 7.46
6/25/2022 1:30:00 AM 16.84 62.312 1.012 7.95 8.44 7.45
6/25/2022 1:45:00 AM 16.77 62.186 1.012 7.96 8.27 7.45
6/25/2022 2:00:00 AM 16.7 62.06 1.012 7.95 8.34 7.47
6/25/2022 2:15:00 AM 16.63 61.934 1.012 7.95 8.69 7.5
6/25/2022 2:30:00 AM 16.56 61.808 1.011 7.95 8.74 7.5
6/25/2022 2:45:00 AM 16.49 61.682 1.011 7.94 9.03 7.51
6/25/2022 3:00:00 AM 16.42 61.556 1.01 7.94 10.64 7.54
6/25/2022 3:15:00 AM 16.35 61.43 1.008 7.94 9.36 7.55
6/25/2022 3:30:00 AM 16.29 61.322 1.007 7.93 8.48 7.54
6/25/2022 3:45:00 AM 16.23 61.214 1.005 7.94 8.27 7.58
6/25/2022 4:00:00 AM 16.17 61.106 1.005 7.93 9.12 7.59
6/25/2022 4:15:00 AM 16.11 60.998 1.004 7.94 8.47 7.59
6/25/2022 4:30:00 AM 16.05 60.89 1.004 7.93 8.58 7.63
6/25/2022 4:45:00 AM 16 60.8 1.001 7.94 8.31 7.64
6/25/2022 5:00:00 AM 15.95 60.71 0.998 7.93 8.91 7.66
6/25/2022 5:15:00 AM 15.89 60.602 0.993 7.94 10.32 7.69
6/25/2022 5:30:00 AM 15.83 60.494 0.987 7.94 8.87 7.71
6/25/2022 5:45:00 AM 15.77 60.386 0.981 7.94 10.28 7.74
6/25/2022 6:00:00 AM 15.71 60.278 0.973 7.93 9.49 7.79
6/25/2022 6:15:00 AM 15.65 60.17 0.965 7.94 9.28 7.81
6/25/2022 6:30:00 AM 15.59 60.062 0.956 7.95 9.24 7.87
6/25/2022 6:45:00 AM 15.54 59.972 0.948 7.95 9.29 7.93
6/25/2022 7:00:00 AM 15.49 59.882 0.94 7.94 9.35 7.98
6/25/2022 7:15:00 AM 15.45 59.81 0.932 7.95 8.98 8.07
6/25/2022 7:30:00 AM 15.41 59.738 0.925 7.96 9.04 8.12
6/25/2022 7:45:00 AM 15.38 59.684 0.919 7.96 12.92 8.18
6/25/2022 8:00:00 AM 15.36 59.648 0.912 7.96 8.37 8.26
6/25/2022 8:15:00 AM 15.35 59.63 0.906 7.97 8.15 8.33
6/25/2022 8:30:00 AM 15.35 59.63 0.901 7.98 9.24 8.42
6/25/2022 8:45:00 AM 15.37 59.666 0.897 7.99 8.16 8.53
6/25/2022 9:00:00 AM 15.4 59.72 0.896 7.98 8.63 8.64
6/25/2022 9:15:00 AM 15.45 59.81 0.897 8 7.85 8.74
6/25/2022 9:30:00 AM 15.52 59.936 0.9 8.02 7.84 8.86
6/25/2022 9:45:00 AM 15.59 60.062 0.901 8.03 7.63 8.91
6/25/2022 10:00:00 AM 15.67 60.206 0.903 8.04 8.72 9.04
6/25/2022 10:15:00 AM 15.77 60.386 0.905 8.05 8.43 9.14
6/25/2022 10:30:00 AM 15.86 60.548 0.906 8.05 8.11 9.21
6/25/2022 10:45:00 AM 15.97 60.746 0.906 8.06 7.87 9.32
6/25/2022 11:00:00 AM 16.09 60.962 0.904 8.08 8.54 9.43
6/25/2022 11:15:00 AM 16.22 61.196 0.902 8.09 8.23 9.52
6/25/2022 11:30:00 AM 16.35 61.43 0.899 8.11 8.36 9.61
6/25/2022 11:45:00 AM 16.5 61.7 0.896 8.12 9.28 9.73
6/25/2022 12:00:00 PM 16.68 62.024 0.896 8.12 8.26 9.84
6/25/2022 12:15:00 PM 16.88 62.384 0.898 8.15 7.94 9.94
6/25/2022 12:30:00 PM 17.11 62.798 0.905 8.16 8.44 10.04
6/25/2022 12:45:00 PM 17.36 63.248 0.917 8.18 8.52 10.1
6/25/2022 1:00:00 PM 17.62 63.716 0.929 8.18 10.31 10.16
6/25/2022 1:15:00 PM 17.89 64.202 0.943 8.2 8.41 10.21
6/25/2022 1:30:00 PM 18.12 64.616 0.956 8.2 7.29 10.17
6/25/2022 1:45:00 PM 18.42 65.156 0.968 8.22 8.59 10.22
6/25/2022 2:00:00 PM 18.65 65.57 0.979 8.22 9.54 10.19
6/25/2022 2:15:00 PM 18.87 65.966 0.99 8.23 12.32 10.17
6/25/2022 2:30:00 PM 19.09 66.362 0.999 8.24 8.38 10.13
6/25/2022 2:45:00 PM 19.3 66.74 1.006 8.25 8.1 10.07
6/25/2022 3:00:00 PM 19.49 67.082 1.011 8.25 7.72 10.01
6/25/2022 3:15:00 PM 19.66 67.388 1.016 8.26 8.09 9.93
6/25/2022 3:30:00 PM 19.83 67.694 1.02 8.25 8.17 9.85
6/25/2022 3:45:00 PM 19.98 67.964 1.024 8.26 7.26 9.74
6/25/2022 4:00:00 PM 20.11 68.198 1.028 8.25 7.4 9.65
6/25/2022 4:15:00 PM 20.22 68.396 1.031 8.25 7.56 9.54
6/25/2022 4:30:00 PM 20.32 68.576 1.034 8.25 7.6 9.41
6/25/2022 4:45:00 PM 20.41 68.738 1.036 8.25 8.04 9.33
6/25/2022 5:00:00 PM 20.47 68.846 1.036 8.23 8.12 9.25
6/25/2022 5:15:00 PM 20.49 68.882 1.036 8.24 7.81 9.15
6/25/2022 5:30:00 PM 20.42 68.756 1.034 8.22 7.66 8.99
6/25/2022 5:45:00 PM 20.37 68.666 1.033 8.22 10.27 8.9
6/25/2022 6:00:00 PM 20.29 68.522 1.032 8.2 12.19 8.76
6/25/2022 6:15:00 PM 20.19 68.342 1.029 8.19 11.21 8.65
6/25/2022 6:30:00 PM 20.11 68.198 1.028 8.17 9.2 8.51
6/25/2022 6:45:00 PM 20.03 68.054 1.027 8.17 8.87 8.4
6/25/2022 7:00:00 PM 19.98 67.964 1.026 8.15 11.73 8.37
6/25/2022 7:15:00 PM 19.91 67.838 1.024 8.15 10.46 8.3
6/25/2022 7:30:00 PM 19.82 67.676 1.022 8.14 9.51 8.21
6/25/2022 7:45:00 PM 19.72 67.496 1.02 8.13 8.52 8.12
6/25/2022 8:00:00 PM 19.6 67.28 1.018 8.11 8.89 7.99
6/25/2022 8:15:00 PM 19.48 67.064 1.017 8.1 7.84 7.91
6/25/2022 8:30:00 PM 19.37 66.866 1.016 8.09 10.51 7.82
6/25/2022 8:45:00 PM 19.28 66.704 1.016 8.07 8.93 7.73
6/25/2022 9:00:00 PM 19.2 66.56 1.016 8.06 9.12 7.67
6/25/2022 9:15:00 PM 19.12 66.416 1.017 8.06 8.01 7.62
6/25/2022 9:30:00 PM 19.04 66.272 1.019 8.05 8.41 7.56
6/25/2022 9:45:00 PM 18.96 66.128 1.021 8.04 8.67 7.5
6/25/2022 10:00:00 PM 18.89 66.002 1.022 8.03 10.61 7.44
6/25/2022 10:15:00 PM 18.81 65.858 1.022 8.03 9.14 7.43
6/25/2022 10:30:00 PM 18.74 65.732 1.022 8.02 9.59 7.39
6/25/2022 10:45:00 PM 18.66 65.588 1.022 8.02 9.16 7.39
6/25/2022 11:00:00 PM 18.58 65.444 1.021 8.01 9.42 7.38
6/25/2022 11:15:00 PM 18.49 65.282 1.021 8 11.07 7.32
6/25/2022 11:30:00 PM 18.4 65.12 1.021 7.99 10.21 7.33
6/25/2022 11:45:00 PM 18.31 64.958 1.02 7.99 9.27 7.3
6/26/2022 12:00:00 AM 18.21 64.778 1.019 7.98 9.91 7.28
6/26/2022 12:15:00 AM 18.11 64.598 1.017 7.98 9.08 7.29
6/26/2022 12:30:00 AM 18.02 64.436 1.015 7.97 9.73 7.29
6/26/2022 12:45:00 AM 17.92 64.256 1.013 7.97 10.07 7.27
6/26/2022 1:00:00 AM 17.82 64.076 1.012 7.97 11.2 7.28
6/26/2022 1:15:00 AM 17.73 63.914 1.012 7.96 11.03 7.28
6/26/2022 1:30:00 AM 17.63 63.734 1.012 7.97 11.76 7.29
6/26/2022 1:45:00 AM 17.54 63.572 1.011 7.96 10.38 7.31
6/26/2022 2:00:00 AM 17.45 63.41 1.01 7.96 9.03 7.34
6/26/2022 2:15:00 AM 17.36 63.248 1.008 7.96 14.78 7.31
6/26/2022 2:30:00 AM 17.27 63.086 1.007 7.96 15.12 7.38
6/26/2022 2:45:00 AM 17.19 62.942 1.007 7.95 15.47 7.37
6/26/2022 3:00:00 AM 17.11 62.798 1.008 7.95 14.17 7.39
6/26/2022 3:15:00 AM 17.03 62.654 1.008 7.95 9.18 7.41
6/26/2022 3:30:00 AM 16.95 62.51 1.008 7.95 10.01 7.41
6/26/2022 3:45:00 AM 16.88 62.384 1.007 7.94 12.6 7.44
6/26/2022 4:00:00 AM 16.81 62.258 1.006 7.95 11.29 7.48
6/26/2022 4:15:00 AM 16.74 62.132 1.005 7.94 10.87 7.5
6/26/2022 4:30:00 AM 16.67 62.006 1.003 7.95 10.79 7.52
6/26/2022 4:45:00 AM 16.6 61.88 1.001 7.94 10.09 7.56
6/26/2022 5:00:00 AM 16.54 61.772 1 7.94 11.28 7.56
6/26/2022 5:15:00 AM 16.48 61.664 0.997 7.95 10.23 7.57
6/26/2022 5:30:00 AM 16.41 61.538 0.992 7.95 9.85 7.6
6/26/2022 5:45:00 AM 16.34 61.412 0.987 7.94 9.07 7.63
6/26/2022 6:00:00 AM 16.28 61.304 0.981 7.94 8.67 7.63
6/26/2022 6:15:00 AM 16.21 61.178 0.974 7.95 9 7.7
6/26/2022 6:30:00 AM 16.15 61.07 0.968 7.95 8.75 7.75
6/26/2022 6:45:00 AM 16.09 60.962 0.962 7.94 8.38 7.8
6/26/2022 7:00:00 AM 16.04 60.872 0.957 7.96 8.84 7.85
6/26/2022 7:15:00 AM 16 60.8 0.95 7.96 9.65 7.88
6/26/2022 7:30:00 AM 15.96 60.728 0.944 7.96 8.83 7.99
6/26/2022 7:45:00 AM 15.92 60.656 0.937 7.97 8.4 8.11
6/26/2022 8:00:00 AM 15.9 60.62 0.931 7.97 8.83 8.2
6/26/2022 8:15:00 AM 15.89 60.602 0.924 7.98 9.78 8.32
6/26/2022 8:30:00 AM 15.88 60.584 0.919 7.99 9.34 8.43
6/26/2022 8:45:00 AM 15.88 60.584 0.912 7.99 8.81 8.52
6/26/2022 9:00:00 AM 15.88 60.584 0.914 8.01 9.47 8.59
6/26/2022 9:15:00 AM 15.89 60.602 0.913 8.01 8.28 8.69
6/26/2022 9:30:00 AM 15.91 60.638 0.913 8.02 9.4 8.78
6/26/2022 9:45:00 AM 15.96 60.728 0.914 8.02 8.44 8.86
6/26/2022 10:00:00 AM 16.02 60.836 0.915 8.04 8.66 9
6/26/2022 10:15:00 AM 16.09 60.962 0.917 8.06 9.02 9.13
6/26/2022 10:30:00 AM 16.19 61.142 0.918 8.07 8.81 9.22
6/26/2022 10:45:00 AM 16.29 61.322 0.917 8.07 9.39 9.37
6/26/2022 11:00:00 AM 16.4 61.52 0.916 8.1 8.89 9.49
6/26/2022 11:15:00 AM 16.5 61.7 0.914 8.12 10.56 9.62
6/26/2022 11:30:00 AM 16.61 61.898 0.911 8.11 8.4 9.65
6/26/2022 11:45:00 AM 16.81 62.258 0.909 8.14 8.75 9.81
6/26/2022 12:00:00 PM 17.02 62.636 0.909 8.16 11.06 9.92
6/26/2022 12:15:00 PM 17.22 62.996 0.913 8.17 11.26 9.99
6/26/2022 12:30:00 PM 17.46 63.428 0.918 8.18 9.21 10.05
6/26/2022 12:45:00 PM 17.75 63.95 0.925 8.2 8.88 10.15
6/26/2022 1:00:00 PM 18.04 64.472 0.933 8.22 9.16 10.19
6/26/2022 1:15:00 PM 18.32 64.976 0.945 8.24 9.04 10.21
6/26/2022 1:30:00 PM 18.6 65.48 0.958 8.25 8.64 10.24
6/26/2022 1:45:00 PM 18.87 65.966 0.97 8.26 8.29 10.25
6/26/2022 2:00:00 PM 19.12 66.416 0.983 8.27 8.7 10.23
6/26/2022 2:15:00 PM 19.37 66.866 0.996 8.27 7.2 10.19
6/26/2022 2:30:00 PM 19.61 67.298 1.008 8.28 8.31 10.14
6/26/2022 2:45:00 PM 19.86 67.748 1.017 8.28 10.64 10.01
6/26/2022 3:00:00 PM 20.08 68.144 1.023 8.28 9.4 9.93
6/26/2022 3:15:00 PM 20.29 68.522 1.026 8.29 9.11 9.87
6/26/2022 3:30:00 PM 20.46 68.828 1.028 8.29 8.73 9.79
6/26/2022 3:45:00 PM 20.62 69.116 1.029 8.29 8 9.7
6/26/2022 4:00:00 PM 20.74 69.332 1.031 8.29 8.33 9.58
6/26/2022 4:15:00 PM 20.85 69.53 1.034 8.28 8.71 9.48
6/26/2022 4:30:00 PM 20.92 69.656 1.036 8.28 8.34 9.34
6/26/2022 4:45:00 PM 20.97 69.746 1.038 8.26 9.22 9.13
6/26/2022 5:00:00 PM 20.99 69.782 1.037 8.24 10.14 8.93
6/26/2022 5:15:00 PM 20.99 69.782 1.036 8.24 8.2 8.82
6/26/2022 5:30:00 PM 20.95 69.71 1.033 8.23 7.71 8.7
6/26/2022 5:45:00 PM 20.89 69.602 1.032 8.22 8.13 8.58
6/26/2022 6:00:00 PM 20.84 69.512 1.03 8.21 8.61 8.43
6/26/2022 6:15:00 PM 20.78 69.404 1.027 8.2 7.62 8.29
6/26/2022 6:30:00 PM 20.73 69.314 1.025 8.19 8.01 8.16
6/26/2022 6:45:00 PM 20.68 69.224 1.023 8.17 10.09 8.04
6/26/2022 7:00:00 PM 20.62 69.116 1.021 8.16 9.56 7.93
6/26/2022 7:15:00 PM 20.55 68.99 1.019 8.15 8.09 7.86
6/26/2022 7:30:00 PM 20.48 68.864 1.017 8.14 10.47 7.77
6/26/2022 7:45:00 PM 20.39 68.702 1.015 8.13 6.69 7.71
6/26/2022 8:00:00 PM 20.3 68.54 1.014 8.12 7.27 7.62
6/26/2022 8:15:00 PM 20.21 68.378 1.014 8.11 7.71 7.56
6/26/2022 8:30:00 PM 20.11 68.198 1.013 8.1 8.06 7.45
6/26/2022 8:45:00 PM 20.01 68.018 1.01 8.07 9.19 7.33
6/26/2022 9:00:00 PM 19.9 67.82 1.007 8.07 10.49 7.25
6/26/2022 9:15:00 PM 19.78 67.604 1.005 8.06 11.4 7.18
6/26/2022 9:30:00 PM 19.67 67.406 1.004 8.03 10.39 7.13
6/26/2022 9:45:00 PM 19.56 67.208 1.003 8.04 10.52 7.09
6/26/2022 10:00:00 PM 19.45 67.01 1.004 8.02 10.25 7.08
6/26/2022 10:15:00 PM 19.33 66.794 1.003 8.02 9.77 7.06
6/26/2022 10:30:00 PM 19.22 66.596 1.002 8.01 10.01 7.05
6/26/2022 10:45:00 PM 19.12 66.416 1.003 7.99 9.37 7.02
6/26/2022 11:00:00 PM 19.02 66.236 1.005 7.99 10.27 7
6/26/2022 11:15:00 PM 18.91 66.038 1.01 7.97 10.89 6.99
6/26/2022 11:30:00 PM 18.81 65.858 1.014 7.96 11.5 7
6/26/2022 11:45:00 PM 18.7 65.66 1.02 7.96 10.41 7.01
6/27/2022 12:00:00 AM 18.6 65.48 1.025 7.96 11.34 7.01
6/27/2022 12:15:00 AM 18.49 65.282 1.029 7.94 11.52 7.03
6/27/2022 12:30:00 AM 18.38 65.084 1.033 7.94 11.81 7.04
6/27/2022 12:45:00 AM 18.27 64.886 1.039 7.94 13.8 7.08
6/27/2022 1:00:00 AM 18.18 64.724 1.045 7.93 12.43 7.07
6/27/2022 1:15:00 AM 18.08 64.544 1.049 7.93 11.59 7.07
6/27/2022 1:30:00 AM 18 64.4 1.049 7.92 10.22 7.06
6/27/2022 1:45:00 AM 17.92 64.256 1.046 7.91 11.62 7.06
6/27/2022 2:00:00 AM 17.85 64.13 1.039 7.91 11.02 7.05
6/27/2022 2:15:00 AM 17.78 64.004 1.029 7.91 10.26 7.08
6/27/2022 2:30:00 AM 17.7 63.86 1.018 7.9 80.4 7.1
6/27/2022 2:45:00 AM 17.61 63.698 1.004 7.91 10.49 7.11
6/27/2022 3:00:00 AM 17.52 63.536 0.99 7.9 11.47 7.15
6/27/2022 3:15:00 AM 17.45 63.41 0.979 7.9 10.21 7.15
6/27/2022 3:30:00 AM 17.39 63.302 0.969 7.9 11.09 7.12
6/27/2022 3:45:00 AM 17.35 63.23 0.961 7.88 9.49 7.07
6/27/2022 4:00:00 AM 17.32 63.176 0.952 7.87 9.15 7.04
6/27/2022 4:15:00 AM 17.31 63.158 0.941 7.87 9.15 6.93
6/27/2022 4:30:00 AM 17.32 63.176 0.931 7.84 11.96 6.85
6/27/2022 4:45:00 AM 17.34 63.212 0.919 7.84 11.07 6.76
6/27/2022 5:00:00 AM 17.37 63.266 0.908 7.82 11.26 6.66
6/27/2022 5:15:00 AM 17.41 63.338 0.898 7.8 10.34 6.58
6/27/2022 5:30:00 AM 17.45 63.41 0.888 7.8 10.49 6.55
6/27/2022 5:45:00 AM 17.48 63.464 0.881 7.79 10.92 6.55
6/27/2022 6:00:00 AM 17.49 63.482 0.876 7.79 9.51 6.56
6/27/2022 6:15:00 AM 17.49 63.482 0.872 7.79 10.01 6.57
6/27/2022 6:30:00 AM 17.47 63.446 0.87 7.79 9.2 6.61
6/27/2022 6:45:00 AM 17.44 63.392 0.869 7.79 8.82 6.69
6/27/2022 7:00:00 AM 17.39 63.302 0.87 7.79 8.77 6.8
6/27/2022 7:15:00 AM 17.33 63.194 0.871 7.8 13.24 6.9
6/27/2022 7:30:00 AM 17.26 63.068 0.872 7.81 9.75 7.01
6/27/2022 7:45:00 AM 17.18 62.924 0.874 7.82 15.97 7.12
6/27/2022 8:00:00 AM 17.11 62.798 0.875 7.84 12.55 7.26
6/27/2022 8:15:00 AM 17.05 62.69 0.877 7.85 10.13 7.34
6/27/2022 8:30:00 AM 16.98 62.564 0.878 7.86 12.27 7.46
6/27/2022 8:45:00 AM 16.91 62.438 0.88 7.86 9.66 7.61
6/27/2022 9:00:00 AM 16.86 62.348 0.88 7.88 9.66 7.68
6/27/2022 9:15:00 AM 16.81 62.258 0.882 7.88 10.57 7.73
6/27/2022 9:30:00 AM 16.76 62.168 0.885 7.89 9.64 7.85
6/27/2022 9:45:00 AM 16.73 62.114 0.888 7.91 9.55 7.98
6/27/2022 10:00:00 AM 16.7 62.06 0.891 7.92 10.05 8.07
6/27/2022 10:15:00 AM 16.69 62.042 0.894 7.93 11.55 8.2
6/27/2022 10:30:00 AM 16.68 62.024 0.896